<?xml version="1.0" encoding="UTF-8" standalone="no" ?>
<gpx xmlns="http://www.topografix.com/GPX/1/1" xmlns:xsi="http://www.w3.org/2001/XMLSchema-instance" xsi:schemaLocation="http://www.topografix.com/GPX/1/1 http://www.topografix.com/GPX/1/1/gpx.xsd" version="1.1" creator="VisuGPX - https://www.visugpx.com">
  <metadata>
    <name>trace dans la forêt de Saint Sauveur</name>
    <desc><![CDATA[... enregistrée par JF]]></desc>
  </metadata>
  <trk>
    <name><![CDATA[trace dans la forêt de Saint Sauveur_1]]></name>
    <trkseg>
      <trkpt lat="49.37621" lon="-1.59373">
        <ele>8.9</ele>
        <time>2021-11-25T13:12:46Z</time>
      </trkpt>
      <trkpt lat="49.37624" lon="-1.59366">
        <ele>9</ele>
        <time>2021-11-25T13:12:56Z</time>
      </trkpt>
      <trkpt lat="49.37627" lon="-1.59361">
        <ele>8.2</ele>
        <time>2021-11-25T13:13:04Z</time>
      </trkpt>
      <trkpt lat="49.37631" lon="-1.59357">
        <ele>7.3</ele>
        <time>2021-11-25T13:13:12Z</time>
      </trkpt>
      <trkpt lat="49.37634" lon="-1.5935">
        <ele>7.7</ele>
        <time>2021-11-25T13:13:20Z</time>
      </trkpt>
      <trkpt lat="49.3764" lon="-1.59348">
        <ele>7.8</ele>
        <time>2021-11-25T13:13:26Z</time>
      </trkpt>
      <trkpt lat="49.37644" lon="-1.59349">
        <ele>7</ele>
        <time>2021-11-25T13:13:30Z</time>
      </trkpt>
      <trkpt lat="49.37649" lon="-1.59347">
        <ele>6.2</ele>
        <time>2021-11-25T13:13:34Z</time>
      </trkpt>
      <trkpt lat="49.37653" lon="-1.59346">
        <ele>5.2</ele>
        <time>2021-11-25T13:13:40Z</time>
      </trkpt>
      <trkpt lat="49.37659" lon="-1.59347">
        <ele>4.5</ele>
        <time>2021-11-25T13:13:45Z</time>
      </trkpt>
      <trkpt lat="49.37663" lon="-1.59349">
        <ele>4.2</ele>
        <time>2021-11-25T13:13:48Z</time>
      </trkpt>
      <trkpt lat="49.37669" lon="-1.59349">
        <ele>3.8</ele>
        <time>2021-11-25T13:13:52Z</time>
      </trkpt>
      <trkpt lat="49.37673" lon="-1.5935">
        <ele>3.4</ele>
        <time>2021-11-25T13:13:56Z</time>
      </trkpt>
      <trkpt lat="49.37678" lon="-1.5935">
        <ele>3</ele>
        <time>2021-11-25T13:14:01Z</time>
      </trkpt>
      <trkpt lat="49.37683" lon="-1.5935">
        <ele>1.9</ele>
        <time>2021-11-25T13:14:06Z</time>
      </trkpt>
      <trkpt lat="49.37688" lon="-1.59351">
        <ele>0.8</ele>
        <time>2021-11-25T13:14:11Z</time>
      </trkpt>
      <trkpt lat="49.37694" lon="-1.59355">
        <ele>49</ele>
        <time>2021-11-25T13:14:17Z</time>
      </trkpt>
      <trkpt lat="49.37699" lon="-1.59357">
        <ele>49.2</ele>
        <time>2021-11-25T13:14:21Z</time>
      </trkpt>
      <trkpt lat="49.37704" lon="-1.59357">
        <ele>0.3</ele>
        <time>2021-11-25T13:14:25Z</time>
      </trkpt>
      <trkpt lat="49.37709" lon="-1.59358">
        <ele>1.8</ele>
        <time>2021-11-25T13:14:31Z</time>
      </trkpt>
      <trkpt lat="49.37715" lon="-1.59357">
        <ele>3.9</ele>
        <time>2021-11-25T13:14:37Z</time>
      </trkpt>
      <trkpt lat="49.3772" lon="-1.59357">
        <ele>5.6</ele>
        <time>2021-11-25T13:14:43Z</time>
      </trkpt>
      <trkpt lat="49.37725" lon="-1.59356">
        <ele>7.1</ele>
        <time>2021-11-25T13:14:49Z</time>
      </trkpt>
      <trkpt lat="49.3773" lon="-1.59356">
        <ele>9.3</ele>
        <time>2021-11-25T13:14:56Z</time>
      </trkpt>
      <trkpt lat="49.37737" lon="-1.59356">
        <ele>9.8</ele>
        <time>2021-11-25T13:15:02Z</time>
      </trkpt>
      <trkpt lat="49.37742" lon="-1.59357">
        <ele>9.7</ele>
        <time>2021-11-25T13:15:06Z</time>
      </trkpt>
      <trkpt lat="49.37748" lon="-1.59358">
        <ele>9.3</ele>
        <time>2021-11-25T13:15:12Z</time>
      </trkpt>
      <trkpt lat="49.37754" lon="-1.59357">
        <ele>9.4</ele>
        <time>2021-11-25T13:15:17Z</time>
      </trkpt>
      <trkpt lat="49.37759" lon="-1.59357">
        <ele>10.9</ele>
        <time>2021-11-25T13:15:23Z</time>
      </trkpt>
      <trkpt lat="49.37764" lon="-1.59357">
        <ele>11.7</ele>
        <time>2021-11-25T13:15:28Z</time>
      </trkpt>
      <trkpt lat="49.3777" lon="-1.59358">
        <ele>12.6</ele>
        <time>2021-11-25T13:15:33Z</time>
      </trkpt>
      <trkpt lat="49.37776" lon="-1.59354">
        <ele>13.2</ele>
        <time>2021-11-25T13:15:39Z</time>
      </trkpt>
      <trkpt lat="49.37783" lon="-1.59353">
        <ele>13.2</ele>
        <time>2021-11-25T13:15:45Z</time>
      </trkpt>
      <trkpt lat="49.3779" lon="-1.59351">
        <ele>12.4</ele>
        <time>2021-11-25T13:15:50Z</time>
      </trkpt>
      <trkpt lat="49.37795" lon="-1.59351">
        <ele>11.3</ele>
        <time>2021-11-25T13:15:54Z</time>
      </trkpt>
      <trkpt lat="49.378" lon="-1.59352">
        <ele>9.9</ele>
        <time>2021-11-25T13:15:58Z</time>
      </trkpt>
      <trkpt lat="49.37804" lon="-1.59353">
        <ele>7.8</ele>
        <time>2021-11-25T13:16:02Z</time>
      </trkpt>
      <trkpt lat="49.37809" lon="-1.59353">
        <ele>5.7</ele>
        <time>2021-11-25T13:16:08Z</time>
      </trkpt>
      <trkpt lat="49.37815" lon="-1.59351">
        <ele>4.5</ele>
        <time>2021-11-25T13:16:13Z</time>
      </trkpt>
      <trkpt lat="49.37821" lon="-1.59351">
        <ele>3.1</ele>
        <time>2021-11-25T13:16:19Z</time>
      </trkpt>
      <trkpt lat="49.37825" lon="-1.5935">
        <ele>3.3</ele>
        <time>2021-11-25T13:16:25Z</time>
      </trkpt>
      <trkpt lat="49.37832" lon="-1.59352">
        <ele>4.6</ele>
        <time>2021-11-25T13:16:31Z</time>
      </trkpt>
      <trkpt lat="49.37839" lon="-1.59353">
        <ele>6.1</ele>
        <time>2021-11-25T13:16:37Z</time>
      </trkpt>
      <trkpt lat="49.37844" lon="-1.59352">
        <ele>5.8</ele>
        <time>2021-11-25T13:16:42Z</time>
      </trkpt>
      <trkpt lat="49.3785" lon="-1.5935">
        <ele>5.5</ele>
        <time>2021-11-25T13:16:48Z</time>
      </trkpt>
      <trkpt lat="49.37855" lon="-1.59351">
        <ele>5.6</ele>
        <time>2021-11-25T13:16:52Z</time>
      </trkpt>
      <trkpt lat="49.3786" lon="-1.59349">
        <ele>6.3</ele>
        <time>2021-11-25T13:17:00Z</time>
      </trkpt>
      <trkpt lat="49.37865" lon="-1.59349">
        <ele>6.8</ele>
        <time>2021-11-25T13:17:05Z</time>
      </trkpt>
      <trkpt lat="49.3787" lon="-1.5935">
        <ele>7.3</ele>
        <time>2021-11-25T13:17:10Z</time>
      </trkpt>
      <trkpt lat="49.37875" lon="-1.59349">
        <ele>8.1</ele>
        <time>2021-11-25T13:17:16Z</time>
      </trkpt>
      <trkpt lat="49.37881" lon="-1.59349">
        <ele>8.8</ele>
        <time>2021-11-25T13:17:21Z</time>
      </trkpt>
      <trkpt lat="49.37886" lon="-1.59348">
        <ele>9.3</ele>
        <time>2021-11-25T13:17:26Z</time>
      </trkpt>
      <trkpt lat="49.37892" lon="-1.5935">
        <ele>9.3</ele>
        <time>2021-11-25T13:17:32Z</time>
      </trkpt>
      <trkpt lat="49.37897" lon="-1.5935">
        <ele>9</ele>
        <time>2021-11-25T13:17:36Z</time>
      </trkpt>
      <trkpt lat="49.37901" lon="-1.59352">
        <ele>8.5</ele>
        <time>2021-11-25T13:17:41Z</time>
      </trkpt>
      <trkpt lat="49.37907" lon="-1.59351">
        <ele>8</ele>
        <time>2021-11-25T13:17:46Z</time>
      </trkpt>
      <trkpt lat="49.37912" lon="-1.59345">
        <ele>7.9</ele>
        <time>2021-11-25T13:17:52Z</time>
      </trkpt>
      <trkpt lat="49.37916" lon="-1.59339">
        <ele>8.1</ele>
        <time>2021-11-25T13:17:58Z</time>
      </trkpt>
      <trkpt lat="49.37919" lon="-1.59334">
        <ele>8.5</ele>
        <time>2021-11-25T13:18:04Z</time>
      </trkpt>
      <trkpt lat="49.37923" lon="-1.59326">
        <ele>8.7</ele>
        <time>2021-11-25T13:18:10Z</time>
      </trkpt>
      <trkpt lat="49.37927" lon="-1.5932">
        <ele>9.5</ele>
        <time>2021-11-25T13:18:19Z</time>
      </trkpt>
      <trkpt lat="49.3793" lon="-1.59313">
        <ele>10.9</ele>
        <time>2021-11-25T13:18:26Z</time>
      </trkpt>
      <trkpt lat="49.37933" lon="-1.59306">
        <ele>11.7</ele>
        <time>2021-11-25T13:18:33Z</time>
      </trkpt>
      <trkpt lat="49.37937" lon="-1.593">
        <ele>11.8</ele>
        <time>2021-11-25T13:18:39Z</time>
      </trkpt>
      <trkpt lat="49.37941" lon="-1.59294">
        <ele>11.7</ele>
        <time>2021-11-25T13:18:45Z</time>
      </trkpt>
      <trkpt lat="49.37942" lon="-1.59287">
        <ele>11.6</ele>
        <time>2021-11-25T13:18:50Z</time>
      </trkpt>
      <trkpt lat="49.37945" lon="-1.59281">
        <ele>11.4</ele>
        <time>2021-11-25T13:19:00Z</time>
      </trkpt>
      <trkpt lat="49.37948" lon="-1.59274">
        <ele>11.3</ele>
        <time>2021-11-25T13:19:08Z</time>
      </trkpt>
      <trkpt lat="49.37952" lon="-1.59268">
        <ele>11.3</ele>
        <time>2021-11-25T13:19:14Z</time>
      </trkpt>
      <trkpt lat="49.37955" lon="-1.5926">
        <ele>11.6</ele>
        <time>2021-11-25T13:19:20Z</time>
      </trkpt>
      <trkpt lat="49.37958" lon="-1.59253">
        <ele>12.4</ele>
        <time>2021-11-25T13:19:25Z</time>
      </trkpt>
      <trkpt lat="49.37962" lon="-1.59248">
        <ele>13</ele>
        <time>2021-11-25T13:19:30Z</time>
      </trkpt>
      <trkpt lat="49.37966" lon="-1.59242">
        <ele>13.3</ele>
        <time>2021-11-25T13:19:36Z</time>
      </trkpt>
      <trkpt lat="49.3797" lon="-1.59236">
        <ele>13.8</ele>
        <time>2021-11-25T13:19:41Z</time>
      </trkpt>
      <trkpt lat="49.37973" lon="-1.5923">
        <ele>14.5</ele>
        <time>2021-11-25T13:19:46Z</time>
      </trkpt>
      <trkpt lat="49.37976" lon="-1.59224">
        <ele>15.6</ele>
        <time>2021-11-25T13:19:54Z</time>
      </trkpt>
      <trkpt lat="49.3798" lon="-1.59218">
        <ele>16</ele>
        <time>2021-11-25T13:20:01Z</time>
      </trkpt>
      <trkpt lat="49.37985" lon="-1.59213">
        <ele>16.6</ele>
        <time>2021-11-25T13:20:09Z</time>
      </trkpt>
      <trkpt lat="49.3799" lon="-1.5921">
        <ele>18.8</ele>
        <time>2021-11-25T13:20:18Z</time>
      </trkpt>
      <trkpt lat="49.37993" lon="-1.59204">
        <ele>19.6</ele>
        <time>2021-11-25T13:20:23Z</time>
      </trkpt>
      <trkpt lat="49.37996" lon="-1.59198">
        <ele>20.3</ele>
        <time>2021-11-25T13:20:29Z</time>
      </trkpt>
      <trkpt lat="49.37995" lon="-1.59191">
        <ele>20.5</ele>
        <time>2021-11-25T13:20:35Z</time>
      </trkpt>
      <trkpt lat="49.37996" lon="-1.59183">
        <ele>20.1</ele>
        <time>2021-11-25T13:20:42Z</time>
      </trkpt>
      <trkpt lat="49.37998" lon="-1.59176">
        <ele>19.8</ele>
        <time>2021-11-25T13:20:47Z</time>
      </trkpt>
      <trkpt lat="49.38" lon="-1.59167">
        <ele>19.4</ele>
        <time>2021-11-25T13:20:53Z</time>
      </trkpt>
      <trkpt lat="49.38005" lon="-1.5916">
        <ele>18.8</ele>
        <time>2021-11-25T13:20:58Z</time>
      </trkpt>
      <trkpt lat="49.38008" lon="-1.59153">
        <ele>18.4</ele>
        <time>2021-11-25T13:21:03Z</time>
      </trkpt>
      <trkpt lat="49.38011" lon="-1.59147">
        <ele>18.4</ele>
        <time>2021-11-25T13:21:10Z</time>
      </trkpt>
      <trkpt lat="49.38015" lon="-1.5914">
        <ele>18.4</ele>
        <time>2021-11-25T13:21:17Z</time>
      </trkpt>
      <trkpt lat="49.38018" lon="-1.59133">
        <ele>18.6</ele>
        <time>2021-11-25T13:21:22Z</time>
      </trkpt>
      <trkpt lat="49.3802" lon="-1.59126">
        <ele>18.9</ele>
        <time>2021-11-25T13:21:26Z</time>
      </trkpt>
      <trkpt lat="49.38023" lon="-1.59121">
        <ele>18.9</ele>
        <time>2021-11-25T13:21:34Z</time>
      </trkpt>
      <trkpt lat="49.38027" lon="-1.59117">
        <ele>17.8</ele>
        <time>2021-11-25T13:21:42Z</time>
      </trkpt>
      <trkpt lat="49.38032" lon="-1.59113">
        <ele>16.5</ele>
        <time>2021-11-25T13:21:59Z</time>
      </trkpt>
      <trkpt lat="49.38033" lon="-1.59103">
        <ele>15.3</ele>
        <time>2021-11-25T13:22:34Z</time>
      </trkpt>
      <trkpt lat="49.38038" lon="-1.59102">
        <ele>14.2</ele>
        <time>2021-11-25T13:23:36Z</time>
      </trkpt>
      <trkpt lat="49.3804" lon="-1.59095">
        <ele>14.5</ele>
        <time>2021-11-25T13:23:47Z</time>
      </trkpt>
      <trkpt lat="49.38042" lon="-1.59085">
        <ele>14.3</ele>
        <time>2021-11-25T13:23:55Z</time>
      </trkpt>
      <trkpt lat="49.38045" lon="-1.59079">
        <ele>13</ele>
        <time>2021-11-25T13:24:02Z</time>
      </trkpt>
      <trkpt lat="49.38048" lon="-1.59074">
        <ele>12.3</ele>
        <time>2021-11-25T13:24:08Z</time>
      </trkpt>
      <trkpt lat="49.38051" lon="-1.59069">
        <ele>12</ele>
        <time>2021-11-25T13:24:13Z</time>
      </trkpt>
      <trkpt lat="49.38053" lon="-1.59062">
        <ele>12.2</ele>
        <time>2021-11-25T13:24:19Z</time>
      </trkpt>
      <trkpt lat="49.38056" lon="-1.59055">
        <ele>12.7</ele>
        <time>2021-11-25T13:24:25Z</time>
      </trkpt>
      <trkpt lat="49.38058" lon="-1.5905">
        <ele>13.2</ele>
        <time>2021-11-25T13:24:29Z</time>
      </trkpt>
      <trkpt lat="49.38062" lon="-1.59043">
        <ele>14.2</ele>
        <time>2021-11-25T13:24:35Z</time>
      </trkpt>
      <trkpt lat="49.38064" lon="-1.59036">
        <ele>15.6</ele>
        <time>2021-11-25T13:24:43Z</time>
      </trkpt>
      <trkpt lat="49.38066" lon="-1.59028">
        <ele>16.8</ele>
        <time>2021-11-25T13:24:49Z</time>
      </trkpt>
      <trkpt lat="49.38069" lon="-1.59022">
        <ele>17.8</ele>
        <time>2021-11-25T13:24:54Z</time>
      </trkpt>
      <trkpt lat="49.38073" lon="-1.59015">
        <ele>19</ele>
        <time>2021-11-25T13:25:00Z</time>
      </trkpt>
      <trkpt lat="49.38077" lon="-1.5901">
        <ele>19.7</ele>
        <time>2021-11-25T13:25:06Z</time>
      </trkpt>
      <trkpt lat="49.38079" lon="-1.59003">
        <ele>20</ele>
        <time>2021-11-25T13:25:12Z</time>
      </trkpt>
      <trkpt lat="49.38083" lon="-1.58997">
        <ele>20.5</ele>
        <time>2021-11-25T13:25:16Z</time>
      </trkpt>
      <trkpt lat="49.38086" lon="-1.58992">
        <ele>20.6</ele>
        <time>2021-11-25T13:25:20Z</time>
      </trkpt>
      <trkpt lat="49.38092" lon="-1.58988">
        <ele>20.3</ele>
        <time>2021-11-25T13:25:26Z</time>
      </trkpt>
      <trkpt lat="49.38096" lon="-1.58984">
        <ele>19.4</ele>
        <time>2021-11-25T13:25:30Z</time>
      </trkpt>
      <trkpt lat="49.38099" lon="-1.58978">
        <ele>18</ele>
        <time>2021-11-25T13:25:35Z</time>
      </trkpt>
      <trkpt lat="49.38103" lon="-1.5897">
        <ele>17.4</ele>
        <time>2021-11-25T13:25:41Z</time>
      </trkpt>
      <trkpt lat="49.38106" lon="-1.58962">
        <ele>16.4</ele>
        <time>2021-11-25T13:25:47Z</time>
      </trkpt>
      <trkpt lat="49.38109" lon="-1.58955">
        <ele>15.6</ele>
        <time>2021-11-25T13:26:01Z</time>
      </trkpt>
      <trkpt lat="49.38113" lon="-1.58949">
        <ele>15.5</ele>
        <time>2021-11-25T13:26:07Z</time>
      </trkpt>
      <trkpt lat="49.38117" lon="-1.58942">
        <ele>15.5</ele>
        <time>2021-11-25T13:26:13Z</time>
      </trkpt>
      <trkpt lat="49.38121" lon="-1.58933">
        <ele>15.5</ele>
        <time>2021-11-25T13:26:18Z</time>
      </trkpt>
      <trkpt lat="49.38123" lon="-1.58924">
        <ele>15.4</ele>
        <time>2021-11-25T13:26:24Z</time>
      </trkpt>
      <trkpt lat="49.38123" lon="-1.58914">
        <ele>15.5</ele>
        <time>2021-11-25T13:26:30Z</time>
      </trkpt>
      <trkpt lat="49.38127" lon="-1.5891">
        <ele>16.2</ele>
        <time>2021-11-25T13:26:36Z</time>
      </trkpt>
      <trkpt lat="49.38131" lon="-1.58904">
        <ele>17.1</ele>
        <time>2021-11-25T13:26:42Z</time>
      </trkpt>
      <trkpt lat="49.38135" lon="-1.58902">
        <ele>17.6</ele>
        <time>2021-11-25T13:26:52Z</time>
      </trkpt>
      <trkpt lat="49.3814" lon="-1.58898">
        <ele>17.7</ele>
        <time>2021-11-25T13:27:16Z</time>
      </trkpt>
      <trkpt lat="49.38141" lon="-1.58892">
        <ele>18.3</ele>
        <time>2021-11-25T13:27:21Z</time>
      </trkpt>
      <trkpt lat="49.38144" lon="-1.58886">
        <ele>18.4</ele>
        <time>2021-11-25T13:27:28Z</time>
      </trkpt>
      <trkpt lat="49.38148" lon="-1.58879">
        <ele>17.3</ele>
        <time>2021-11-25T13:27:35Z</time>
      </trkpt>
      <trkpt lat="49.38151" lon="-1.58873">
        <ele>16.1</ele>
        <time>2021-11-25T13:27:42Z</time>
      </trkpt>
      <trkpt lat="49.38156" lon="-1.58865">
        <ele>14.6</ele>
        <time>2021-11-25T13:27:48Z</time>
      </trkpt>
      <trkpt lat="49.3816" lon="-1.58859">
        <ele>13.8</ele>
        <time>2021-11-25T13:27:52Z</time>
      </trkpt>
      <trkpt lat="49.38164" lon="-1.58853">
        <ele>13.3</ele>
        <time>2021-11-25T13:27:58Z</time>
      </trkpt>
      <trkpt lat="49.38166" lon="-1.58846">
        <ele>12.3</ele>
        <time>2021-11-25T13:28:05Z</time>
      </trkpt>
      <trkpt lat="49.38169" lon="-1.58841">
        <ele>10.4</ele>
        <time>2021-11-25T13:28:17Z</time>
      </trkpt>
      <trkpt lat="49.38172" lon="-1.58834">
        <ele>10.6</ele>
        <time>2021-11-25T13:28:23Z</time>
      </trkpt>
      <trkpt lat="49.38176" lon="-1.58828">
        <ele>11.2</ele>
        <time>2021-11-25T13:28:27Z</time>
      </trkpt>
      <trkpt lat="49.3818" lon="-1.58821">
        <ele>11.9</ele>
        <time>2021-11-25T13:28:32Z</time>
      </trkpt>
      <trkpt lat="49.38183" lon="-1.58817">
        <ele>12.2</ele>
        <time>2021-11-25T13:28:36Z</time>
      </trkpt>
      <trkpt lat="49.38185" lon="-1.5881">
        <ele>12</ele>
        <time>2021-11-25T13:28:41Z</time>
      </trkpt>
      <trkpt lat="49.38187" lon="-1.58803">
        <ele>11.8</ele>
        <time>2021-11-25T13:28:45Z</time>
      </trkpt>
      <trkpt lat="49.38189" lon="-1.58796">
        <ele>11.6</ele>
        <time>2021-11-25T13:28:50Z</time>
      </trkpt>
      <trkpt lat="49.38193" lon="-1.58791">
        <ele>11.3</ele>
        <time>2021-11-25T13:28:56Z</time>
      </trkpt>
      <trkpt lat="49.38197" lon="-1.58785">
        <ele>10</ele>
        <time>2021-11-25T13:29:02Z</time>
      </trkpt>
      <trkpt lat="49.38199" lon="-1.58778">
        <ele>8.9</ele>
        <time>2021-11-25T13:29:08Z</time>
      </trkpt>
      <trkpt lat="49.38203" lon="-1.58773">
        <ele>8.5</ele>
        <time>2021-11-25T13:29:14Z</time>
      </trkpt>
      <trkpt lat="49.38207" lon="-1.58768">
        <ele>8.6</ele>
        <time>2021-11-25T13:29:19Z</time>
      </trkpt>
      <trkpt lat="49.3821" lon="-1.58758">
        <ele>8.5</ele>
        <time>2021-11-25T13:29:25Z</time>
      </trkpt>
      <trkpt lat="49.38212" lon="-1.58752">
        <ele>8.2</ele>
        <time>2021-11-25T13:29:29Z</time>
      </trkpt>
      <trkpt lat="49.38216" lon="-1.58745">
        <ele>7.5</ele>
        <time>2021-11-25T13:29:34Z</time>
      </trkpt>
      <trkpt lat="49.3822" lon="-1.58739">
        <ele>6.7</ele>
        <time>2021-11-25T13:29:38Z</time>
      </trkpt>
      <trkpt lat="49.38224" lon="-1.58734">
        <ele>6.4</ele>
        <time>2021-11-25T13:29:42Z</time>
      </trkpt>
      <trkpt lat="49.38226" lon="-1.58728">
        <ele>5.9</ele>
        <time>2021-11-25T13:29:47Z</time>
      </trkpt>
      <trkpt lat="49.38228" lon="-1.58722">
        <ele>5.5</ele>
        <time>2021-11-25T13:29:52Z</time>
      </trkpt>
      <trkpt lat="49.38232" lon="-1.58718">
        <ele>5.4</ele>
        <time>2021-11-25T13:29:58Z</time>
      </trkpt>
      <trkpt lat="49.38234" lon="-1.58712">
        <ele>5.6</ele>
        <time>2021-11-25T13:30:01Z</time>
      </trkpt>
      <trkpt lat="49.38237" lon="-1.58706">
        <ele>6</ele>
        <time>2021-11-25T13:30:04Z</time>
      </trkpt>
      <trkpt lat="49.3824" lon="-1.587">
        <ele>6.7</ele>
        <time>2021-11-25T13:30:08Z</time>
      </trkpt>
      <trkpt lat="49.38243" lon="-1.58694">
        <ele>7.2</ele>
        <time>2021-11-25T13:30:11Z</time>
      </trkpt>
      <trkpt lat="49.38247" lon="-1.58687">
        <ele>7.7</ele>
        <time>2021-11-25T13:30:17Z</time>
      </trkpt>
      <trkpt lat="49.38251" lon="-1.58681">
        <ele>7.8</ele>
        <time>2021-11-25T13:30:21Z</time>
      </trkpt>
      <trkpt lat="49.38254" lon="-1.58676">
        <ele>7.7</ele>
        <time>2021-11-25T13:30:26Z</time>
      </trkpt>
      <trkpt lat="49.38258" lon="-1.58666">
        <ele>7.6</ele>
        <time>2021-11-25T13:30:31Z</time>
      </trkpt>
      <trkpt lat="49.38262" lon="-1.58661">
        <ele>7.5</ele>
        <time>2021-11-25T13:30:37Z</time>
      </trkpt>
      <trkpt lat="49.38265" lon="-1.58652">
        <ele>7.7</ele>
        <time>2021-11-25T13:30:41Z</time>
      </trkpt>
      <trkpt lat="49.38268" lon="-1.58646">
        <ele>8</ele>
        <time>2021-11-25T13:30:44Z</time>
      </trkpt>
      <trkpt lat="49.38271" lon="-1.58639">
        <ele>8.8</ele>
        <time>2021-11-25T13:30:51Z</time>
      </trkpt>
      <trkpt lat="49.38275" lon="-1.58634">
        <ele>8.9</ele>
        <time>2021-11-25T13:30:57Z</time>
      </trkpt>
      <trkpt lat="49.38278" lon="-1.58627">
        <ele>8.1</ele>
        <time>2021-11-25T13:31:03Z</time>
      </trkpt>
      <trkpt lat="49.3828" lon="-1.5862">
        <ele>6.7</ele>
        <time>2021-11-25T13:31:10Z</time>
      </trkpt>
      <trkpt lat="49.38282" lon="-1.58613">
        <ele>6.4</ele>
        <time>2021-11-25T13:31:14Z</time>
      </trkpt>
      <trkpt lat="49.38286" lon="-1.58607">
        <ele>6.1</ele>
        <time>2021-11-25T13:31:18Z</time>
      </trkpt>
      <trkpt lat="49.38288" lon="-1.58601">
        <ele>5.3</ele>
        <time>2021-11-25T13:31:22Z</time>
      </trkpt>
      <trkpt lat="49.38293" lon="-1.58594">
        <ele>3.4</ele>
        <time>2021-11-25T13:31:29Z</time>
      </trkpt>
      <trkpt lat="49.38297" lon="-1.58588">
        <ele>3.1</ele>
        <time>2021-11-25T13:31:35Z</time>
      </trkpt>
      <trkpt lat="49.383" lon="-1.58582">
        <ele>3.6</ele>
        <time>2021-11-25T13:31:39Z</time>
      </trkpt>
      <trkpt lat="49.38303" lon="-1.58573">
        <ele>3.2</ele>
        <time>2021-11-25T13:31:47Z</time>
      </trkpt>
      <trkpt lat="49.38306" lon="-1.58567">
        <ele>2.3</ele>
        <time>2021-11-25T13:31:52Z</time>
      </trkpt>
      <trkpt lat="49.3831" lon="-1.58561">
        <ele>2.3</ele>
        <time>2021-11-25T13:31:56Z</time>
      </trkpt>
      <trkpt lat="49.38314" lon="-1.58554">
        <ele>2.9</ele>
        <time>2021-11-25T13:32:01Z</time>
      </trkpt>
      <trkpt lat="49.38317" lon="-1.58547">
        <ele>3.9</ele>
        <time>2021-11-25T13:32:07Z</time>
      </trkpt>
      <trkpt lat="49.38321" lon="-1.58541">
        <ele>4.5</ele>
        <time>2021-11-25T13:32:12Z</time>
      </trkpt>
      <trkpt lat="49.38325" lon="-1.58536">
        <ele>4.5</ele>
        <time>2021-11-25T13:32:17Z</time>
      </trkpt>
      <trkpt lat="49.38328" lon="-1.58531">
        <ele>4.4</ele>
        <time>2021-11-25T13:32:22Z</time>
      </trkpt>
      <trkpt lat="49.38332" lon="-1.58524">
        <ele>4.4</ele>
        <time>2021-11-25T13:32:26Z</time>
      </trkpt>
      <trkpt lat="49.38334" lon="-1.58517">
        <ele>4.2</ele>
        <time>2021-11-25T13:32:30Z</time>
      </trkpt>
      <trkpt lat="49.38337" lon="-1.58509">
        <ele>2.2</ele>
        <time>2021-11-25T13:32:37Z</time>
      </trkpt>
      <trkpt lat="49.38341" lon="-1.58503">
        <ele>0.7</ele>
        <time>2021-11-25T13:32:42Z</time>
      </trkpt>
      <trkpt lat="49.38343" lon="-1.58495">
        <ele>38.6</ele>
        <time>2021-11-25T13:32:46Z</time>
      </trkpt>
      <trkpt lat="49.38346" lon="-1.58489">
        <ele>-0.6</ele>
        <time>2021-11-25T13:32:50Z</time>
      </trkpt>
      <trkpt lat="49.38351" lon="-1.58483">
        <ele>-1.6</ele>
        <time>2021-11-25T13:32:56Z</time>
      </trkpt>
      <trkpt lat="49.38355" lon="-1.58476">
        <ele>-3</ele>
        <time>2021-11-25T13:33:01Z</time>
      </trkpt>
      <trkpt lat="49.38357" lon="-1.58467">
        <ele>-5.4</ele>
        <time>2021-11-25T13:33:07Z</time>
      </trkpt>
      <trkpt lat="49.38361" lon="-1.58458">
        <ele>-8.2</ele>
        <time>2021-11-25T13:33:13Z</time>
      </trkpt>
      <trkpt lat="49.38363" lon="-1.58452">
        <ele>-10</ele>
        <time>2021-11-25T13:33:16Z</time>
      </trkpt>
      <trkpt lat="49.38368" lon="-1.58451">
        <ele>-11.7</ele>
        <time>2021-11-25T13:33:31Z</time>
      </trkpt>
      <trkpt lat="49.3837" lon="-1.58458">
        <ele>-10.5</ele>
        <time>2021-11-25T13:33:40Z</time>
      </trkpt>
      <trkpt lat="49.38372" lon="-1.58465">
        <ele>-9.9</ele>
        <time>2021-11-25T13:33:45Z</time>
      </trkpt>
      <trkpt lat="49.38376" lon="-1.58471">
        <ele>-9.2</ele>
        <time>2021-11-25T13:33:53Z</time>
      </trkpt>
      <trkpt lat="49.38378" lon="-1.58476">
        <ele>-8.4</ele>
        <time>2021-11-25T13:34:01Z</time>
      </trkpt>
      <trkpt lat="49.38378" lon="-1.58484">
        <ele>-9.2</ele>
        <time>2021-11-25T13:34:15Z</time>
      </trkpt>
      <trkpt lat="49.38379" lon="-1.58493">
        <ele>-11.1</ele>
        <time>2021-11-25T13:35:08Z</time>
      </trkpt>
      <trkpt lat="49.38377" lon="-1.585">
        <ele>-11.1</ele>
        <time>2021-11-25T13:35:22Z</time>
      </trkpt>
      <trkpt lat="49.38377" lon="-1.58507">
        <ele>-11.1</ele>
        <time>2021-11-25T13:35:28Z</time>
      </trkpt>
      <trkpt lat="49.38375" lon="-1.58514">
        <ele>-11.1</ele>
        <time>2021-11-25T13:35:35Z</time>
      </trkpt>
      <trkpt lat="49.38374" lon="-1.58521">
        <ele>-9.4</ele>
        <time>2021-11-25T13:35:44Z</time>
      </trkpt>
      <trkpt lat="49.38374" lon="-1.58529">
        <ele>-7.6</ele>
        <time>2021-11-25T13:35:55Z</time>
      </trkpt>
      <trkpt lat="49.38375" lon="-1.58537">
        <ele>-7.8</ele>
        <time>2021-11-25T13:36:03Z</time>
      </trkpt>
      <trkpt lat="49.38376" lon="-1.58544">
        <ele>-8.1</ele>
        <time>2021-11-25T13:36:09Z</time>
      </trkpt>
      <trkpt lat="49.38375" lon="-1.58551">
        <ele>-8.2</ele>
        <time>2021-11-25T13:36:15Z</time>
      </trkpt>
      <trkpt lat="49.38376" lon="-1.58559">
        <ele>-8.9</ele>
        <time>2021-11-25T13:36:20Z</time>
      </trkpt>
      <trkpt lat="49.38377" lon="-1.58566">
        <ele>-9.5</ele>
        <time>2021-11-25T13:36:24Z</time>
      </trkpt>
      <trkpt lat="49.38377" lon="-1.58574">
        <ele>-10</ele>
        <time>2021-11-25T13:36:28Z</time>
      </trkpt>
      <trkpt lat="49.38378" lon="-1.58582">
        <ele>-10.1</ele>
        <time>2021-11-25T13:36:34Z</time>
      </trkpt>
      <trkpt lat="49.38378" lon="-1.58592">
        <ele>-10.1</ele>
        <time>2021-11-25T13:36:40Z</time>
      </trkpt>
      <trkpt lat="49.3838" lon="-1.58601">
        <ele>-10</ele>
        <time>2021-11-25T13:36:46Z</time>
      </trkpt>
      <trkpt lat="49.38381" lon="-1.58608">
        <ele>-10</ele>
        <time>2021-11-25T13:36:50Z</time>
      </trkpt>
      <trkpt lat="49.38381" lon="-1.58615">
        <ele>-9.9</ele>
        <time>2021-11-25T13:36:54Z</time>
      </trkpt>
      <trkpt lat="49.3838" lon="-1.58623">
        <ele>-10.1</ele>
        <time>2021-11-25T13:37:00Z</time>
      </trkpt>
      <trkpt lat="49.3838" lon="-1.5863">
        <ele>-10.6</ele>
        <time>2021-11-25T13:37:04Z</time>
      </trkpt>
      <trkpt lat="49.38382" lon="-1.58637">
        <ele>-11.1</ele>
        <time>2021-11-25T13:37:08Z</time>
      </trkpt>
      <trkpt lat="49.38382" lon="-1.58645">
        <ele>-11.2</ele>
        <time>2021-11-25T13:37:12Z</time>
      </trkpt>
      <trkpt lat="49.3838" lon="-1.58655">
        <ele>-10.5</ele>
        <time>2021-11-25T13:37:17Z</time>
      </trkpt>
      <trkpt lat="49.38381" lon="-1.58661">
        <ele>-9.3</ele>
        <time>2021-11-25T13:37:22Z</time>
      </trkpt>
      <trkpt lat="49.38384" lon="-1.58667">
        <ele>-8.5</ele>
        <time>2021-11-25T13:37:26Z</time>
      </trkpt>
      <trkpt lat="49.38385" lon="-1.58677">
        <ele>-8</ele>
        <time>2021-11-25T13:37:31Z</time>
      </trkpt>
      <trkpt lat="49.38388" lon="-1.58684">
        <ele>-7.4</ele>
        <time>2021-11-25T13:37:35Z</time>
      </trkpt>
      <trkpt lat="49.38393" lon="-1.58683">
        <ele>-6.5</ele>
        <time>2021-11-25T13:37:40Z</time>
      </trkpt>
      <trkpt lat="49.38399" lon="-1.58683">
        <ele>-5.2</ele>
        <time>2021-11-25T13:37:45Z</time>
      </trkpt>
      <trkpt lat="49.38404" lon="-1.58683">
        <ele>-3.8</ele>
        <time>2021-11-25T13:37:50Z</time>
      </trkpt>
      <trkpt lat="49.38409" lon="-1.58684">
        <ele>-3.6</ele>
        <time>2021-11-25T13:37:56Z</time>
      </trkpt>
      <trkpt lat="49.38415" lon="-1.58684">
        <ele>-3.7</ele>
        <time>2021-11-25T13:38:01Z</time>
      </trkpt>
      <trkpt lat="49.38421" lon="-1.58683">
        <ele>-4.7</ele>
        <time>2021-11-25T13:38:08Z</time>
      </trkpt>
      <trkpt lat="49.38426" lon="-1.58684">
        <ele>-5.7</ele>
        <time>2021-11-25T13:38:14Z</time>
      </trkpt>
      <trkpt lat="49.38432" lon="-1.58686">
        <ele>-6.4</ele>
        <time>2021-11-25T13:38:22Z</time>
      </trkpt>
      <trkpt lat="49.38437" lon="-1.58687">
        <ele>-6</ele>
        <time>2021-11-25T13:38:28Z</time>
      </trkpt>
      <trkpt lat="49.38442" lon="-1.58687">
        <ele>-4.6</ele>
        <time>2021-11-25T13:38:34Z</time>
      </trkpt>
      <trkpt lat="49.38438" lon="-1.58683">
        <ele>-5.4</ele>
        <time>2021-11-25T13:38:51Z</time>
      </trkpt>
      <trkpt lat="49.38434" lon="-1.58679">
        <ele>-7.3</ele>
        <time>2021-11-25T13:38:59Z</time>
      </trkpt>
      <trkpt lat="49.38429" lon="-1.5868">
        <ele>-8.1</ele>
        <time>2021-11-25T13:39:05Z</time>
      </trkpt>
      <trkpt lat="49.38424" lon="-1.58682">
        <ele>-7.9</ele>
        <time>2021-11-25T13:39:12Z</time>
      </trkpt>
      <trkpt lat="49.38418" lon="-1.58682">
        <ele>-7.1</ele>
        <time>2021-11-25T13:39:18Z</time>
      </trkpt>
      <trkpt lat="49.38414" lon="-1.58685">
        <ele>-7</ele>
        <time>2021-11-25T13:39:24Z</time>
      </trkpt>
      <trkpt lat="49.38409" lon="-1.58686">
        <ele>-7.6</ele>
        <time>2021-11-25T13:39:32Z</time>
      </trkpt>
      <trkpt lat="49.38403" lon="-1.58685">
        <ele>-8</ele>
        <time>2021-11-25T13:39:38Z</time>
      </trkpt>
      <trkpt lat="49.38399" lon="-1.58684">
        <ele>-8.4</ele>
        <time>2021-11-25T13:39:42Z</time>
      </trkpt>
      <trkpt lat="49.38393" lon="-1.58683">
        <ele>-9.5</ele>
        <time>2021-11-25T13:39:47Z</time>
      </trkpt>
      <trkpt lat="49.38386" lon="-1.58683">
        <ele>-10.4</ele>
        <time>2021-11-25T13:39:53Z</time>
      </trkpt>
      <trkpt lat="49.38382" lon="-1.58685">
        <ele>-10.8</ele>
        <time>2021-11-25T13:39:58Z</time>
      </trkpt>
      <trkpt lat="49.38376" lon="-1.58688">
        <ele>-11</ele>
        <time>2021-11-25T13:40:04Z</time>
      </trkpt>
      <trkpt lat="49.38373" lon="-1.58692">
        <ele>-10.8</ele>
        <time>2021-11-25T13:40:10Z</time>
      </trkpt>
      <trkpt lat="49.38367" lon="-1.58694">
        <ele>-10.7</ele>
        <time>2021-11-25T13:40:16Z</time>
      </trkpt>
      <trkpt lat="49.38361" lon="-1.58693">
        <ele>-10.8</ele>
        <time>2021-11-25T13:40:22Z</time>
      </trkpt>
      <trkpt lat="49.38357" lon="-1.58692">
        <ele>-10.9</ele>
        <time>2021-11-25T13:40:26Z</time>
      </trkpt>
      <trkpt lat="49.38353" lon="-1.58697">
        <ele>-10.8</ele>
        <time>2021-11-25T13:40:31Z</time>
      </trkpt>
      <trkpt lat="49.38352" lon="-1.58704">
        <ele>-10</ele>
        <time>2021-11-25T13:40:35Z</time>
      </trkpt>
      <trkpt lat="49.38352" lon="-1.58712">
        <ele>-8.4</ele>
        <time>2021-11-25T13:40:41Z</time>
      </trkpt>
      <trkpt lat="49.38351" lon="-1.58718">
        <ele>-7.7</ele>
        <time>2021-11-25T13:40:47Z</time>
      </trkpt>
      <trkpt lat="49.38351" lon="-1.58726">
        <ele>-7.6</ele>
        <time>2021-11-25T13:40:52Z</time>
      </trkpt>
      <trkpt lat="49.38349" lon="-1.58732">
        <ele>-7.6</ele>
        <time>2021-11-25T13:41:02Z</time>
      </trkpt>
      <trkpt lat="49.38349" lon="-1.5874">
        <ele>-6.9</ele>
        <time>2021-11-25T13:41:07Z</time>
      </trkpt>
      <trkpt lat="49.38351" lon="-1.58746">
        <ele>-5.4</ele>
        <time>2021-11-25T13:41:13Z</time>
      </trkpt>
      <trkpt lat="49.38351" lon="-1.58754">
        <ele>-2.5</ele>
        <time>2021-11-25T13:41:19Z</time>
      </trkpt>
      <trkpt lat="49.38351" lon="-1.58763">
        <ele>1</ele>
        <time>2021-11-25T13:41:26Z</time>
      </trkpt>
      <trkpt lat="49.3835" lon="-1.58772">
        <ele>2.6</ele>
        <time>2021-11-25T13:41:32Z</time>
      </trkpt>
      <trkpt lat="49.3835" lon="-1.5878">
        <ele>3.2</ele>
        <time>2021-11-25T13:41:37Z</time>
      </trkpt>
      <trkpt lat="49.38351" lon="-1.58789">
        <ele>3.9</ele>
        <time>2021-11-25T13:41:42Z</time>
      </trkpt>
      <trkpt lat="49.38352" lon="-1.58796">
        <ele>4.7</ele>
        <time>2021-11-25T13:41:46Z</time>
      </trkpt>
      <trkpt lat="49.38354" lon="-1.58803">
        <ele>5.7</ele>
        <time>2021-11-25T13:41:51Z</time>
      </trkpt>
      <trkpt lat="49.38354" lon="-1.58811">
        <ele>6.4</ele>
        <time>2021-11-25T13:41:58Z</time>
      </trkpt>
      <trkpt lat="49.38354" lon="-1.58819">
        <ele>7.4</ele>
        <time>2021-11-25T13:42:06Z</time>
      </trkpt>
      <trkpt lat="49.38354" lon="-1.58828">
        <ele>7.8</ele>
        <time>2021-11-25T13:42:13Z</time>
      </trkpt>
      <trkpt lat="49.38354" lon="-1.58836">
        <ele>8.8</ele>
        <time>2021-11-25T13:42:18Z</time>
      </trkpt>
      <trkpt lat="49.38354" lon="-1.58845">
        <ele>9.4</ele>
        <time>2021-11-25T13:42:22Z</time>
      </trkpt>
      <trkpt lat="49.38355" lon="-1.58852">
        <ele>10.2</ele>
        <time>2021-11-25T13:42:28Z</time>
      </trkpt>
      <trkpt lat="49.38356" lon="-1.5886">
        <ele>10.9</ele>
        <time>2021-11-25T13:42:32Z</time>
      </trkpt>
      <trkpt lat="49.38358" lon="-1.58869">
        <ele>13.2</ele>
        <time>2021-11-25T13:42:39Z</time>
      </trkpt>
      <trkpt lat="49.38357" lon="-1.58879">
        <ele>14.6</ele>
        <time>2021-11-25T13:42:44Z</time>
      </trkpt>
      <trkpt lat="49.38357" lon="-1.58887">
        <ele>14.9</ele>
        <time>2021-11-25T13:42:48Z</time>
      </trkpt>
      <trkpt lat="49.38353" lon="-1.58891">
        <ele>14.2</ele>
        <time>2021-11-25T13:42:57Z</time>
      </trkpt>
      <trkpt lat="49.38349" lon="-1.58898">
        <ele>12.9</ele>
        <time>2021-11-25T13:43:25Z</time>
      </trkpt>
      <trkpt lat="49.38351" lon="-1.58906">
        <ele>8.3</ele>
        <time>2021-11-25T13:43:56Z</time>
      </trkpt>
      <trkpt lat="49.38352" lon="-1.58913">
        <ele>7.9</ele>
        <time>2021-11-25T13:44:00Z</time>
      </trkpt>
      <trkpt lat="49.38352" lon="-1.5892">
        <ele>7.4</ele>
        <time>2021-11-25T13:44:06Z</time>
      </trkpt>
      <trkpt lat="49.38353" lon="-1.5893">
        <ele>7.8</ele>
        <time>2021-11-25T13:44:12Z</time>
      </trkpt>
      <trkpt lat="49.38352" lon="-1.58938">
        <ele>9</ele>
        <time>2021-11-25T13:44:17Z</time>
      </trkpt>
      <trkpt lat="49.38353" lon="-1.58946">
        <ele>9.8</ele>
        <time>2021-11-25T13:44:22Z</time>
      </trkpt>
      <trkpt lat="49.38353" lon="-1.58954">
        <ele>10.2</ele>
        <time>2021-11-25T13:44:27Z</time>
      </trkpt>
      <trkpt lat="49.38355" lon="-1.5896">
        <ele>10.6</ele>
        <time>2021-11-25T13:44:32Z</time>
      </trkpt>
      <trkpt lat="49.38355" lon="-1.58968">
        <ele>12.1</ele>
        <time>2021-11-25T13:44:37Z</time>
      </trkpt>
      <trkpt lat="49.38355" lon="-1.58975">
        <ele>13.2</ele>
        <time>2021-11-25T13:44:42Z</time>
      </trkpt>
      <trkpt lat="49.38354" lon="-1.58982">
        <ele>13.8</ele>
        <time>2021-11-25T13:44:50Z</time>
      </trkpt>
      <trkpt lat="49.38354" lon="-1.5899">
        <ele>13.5</ele>
        <time>2021-11-25T13:44:55Z</time>
      </trkpt>
      <trkpt lat="49.38354" lon="-1.58997">
        <ele>13</ele>
        <time>2021-11-25T13:44:59Z</time>
      </trkpt>
      <trkpt lat="49.38355" lon="-1.59006">
        <ele>12.8</ele>
        <time>2021-11-25T13:45:04Z</time>
      </trkpt>
      <trkpt lat="49.38356" lon="-1.59013">
        <ele>12.8</ele>
        <time>2021-11-25T13:45:08Z</time>
      </trkpt>
      <trkpt lat="49.38356" lon="-1.59023">
        <ele>12.6</ele>
        <time>2021-11-25T13:45:14Z</time>
      </trkpt>
      <trkpt lat="49.38355" lon="-1.59033">
        <ele>12.8</ele>
        <time>2021-11-25T13:45:20Z</time>
      </trkpt>
      <trkpt lat="49.38355" lon="-1.5904">
        <ele>13.3</ele>
        <time>2021-11-25T13:45:24Z</time>
      </trkpt>
      <trkpt lat="49.38355" lon="-1.59049">
        <ele>14.1</ele>
        <time>2021-11-25T13:45:30Z</time>
      </trkpt>
      <trkpt lat="49.38358" lon="-1.59055">
        <ele>15.4</ele>
        <time>2021-11-25T13:45:38Z</time>
      </trkpt>
      <trkpt lat="49.38359" lon="-1.59064">
        <ele>16.7</ele>
        <time>2021-11-25T13:45:46Z</time>
      </trkpt>
      <trkpt lat="49.38359" lon="-1.59075">
        <ele>16.9</ele>
        <time>2021-11-25T13:45:52Z</time>
      </trkpt>
      <trkpt lat="49.38358" lon="-1.59082">
        <ele>16.9</ele>
        <time>2021-11-25T13:45:56Z</time>
      </trkpt>
      <trkpt lat="49.38356" lon="-1.59091">
        <ele>16.5</ele>
        <time>2021-11-25T13:46:01Z</time>
      </trkpt>
      <trkpt lat="49.38355" lon="-1.59101">
        <ele>15.7</ele>
        <time>2021-11-25T13:46:07Z</time>
      </trkpt>
      <trkpt lat="49.38354" lon="-1.59108">
        <ele>14.9</ele>
        <time>2021-11-25T13:46:11Z</time>
      </trkpt>
      <trkpt lat="49.38354" lon="-1.59116">
        <ele>14.1</ele>
        <time>2021-11-25T13:46:16Z</time>
      </trkpt>
      <trkpt lat="49.38356" lon="-1.59124">
        <ele>13.4</ele>
        <time>2021-11-25T13:46:21Z</time>
      </trkpt>
      <trkpt lat="49.38357" lon="-1.59132">
        <ele>13.2</ele>
        <time>2021-11-25T13:46:26Z</time>
      </trkpt>
      <trkpt lat="49.38357" lon="-1.59139">
        <ele>13.1</ele>
        <time>2021-11-25T13:46:30Z</time>
      </trkpt>
      <trkpt lat="49.38357" lon="-1.5915">
        <ele>12.9</ele>
        <time>2021-11-25T13:46:35Z</time>
      </trkpt>
      <trkpt lat="49.3836" lon="-1.59157">
        <ele>12.4</ele>
        <time>2021-11-25T13:46:41Z</time>
      </trkpt>
      <trkpt lat="49.3836" lon="-1.59164">
        <ele>12.4</ele>
        <time>2021-11-25T13:46:48Z</time>
      </trkpt>
      <trkpt lat="49.38359" lon="-1.59172">
        <ele>13.2</ele>
        <time>2021-11-25T13:46:53Z</time>
      </trkpt>
      <trkpt lat="49.38356" lon="-1.59182">
        <ele>13.6</ele>
        <time>2021-11-25T13:46:58Z</time>
      </trkpt>
      <trkpt lat="49.38355" lon="-1.5919">
        <ele>13.4</ele>
        <time>2021-11-25T13:47:02Z</time>
      </trkpt>
      <trkpt lat="49.38356" lon="-1.59197">
        <ele>12.5</ele>
        <time>2021-11-25T13:47:07Z</time>
      </trkpt>
      <trkpt lat="49.38358" lon="-1.59207">
        <ele>11.2</ele>
        <time>2021-11-25T13:47:13Z</time>
      </trkpt>
      <trkpt lat="49.38358" lon="-1.59214">
        <ele>11</ele>
        <time>2021-11-25T13:47:18Z</time>
      </trkpt>
      <trkpt lat="49.38358" lon="-1.59223">
        <ele>11.4</ele>
        <time>2021-11-25T13:47:24Z</time>
      </trkpt>
      <trkpt lat="49.3836" lon="-1.59229">
        <ele>11.8</ele>
        <time>2021-11-25T13:47:29Z</time>
      </trkpt>
      <trkpt lat="49.38359" lon="-1.59239">
        <ele>12.1</ele>
        <time>2021-11-25T13:47:34Z</time>
      </trkpt>
      <trkpt lat="49.38359" lon="-1.59247">
        <ele>12.6</ele>
        <time>2021-11-25T13:47:38Z</time>
      </trkpt>
      <trkpt lat="49.38357" lon="-1.59254">
        <ele>13.5</ele>
        <time>2021-11-25T13:47:43Z</time>
      </trkpt>
      <trkpt lat="49.38357" lon="-1.59262">
        <ele>14.1</ele>
        <time>2021-11-25T13:47:47Z</time>
      </trkpt>
      <trkpt lat="49.38359" lon="-1.59272">
        <ele>14.2</ele>
        <time>2021-11-25T13:47:52Z</time>
      </trkpt>
      <trkpt lat="49.38359" lon="-1.59281">
        <ele>14.2</ele>
        <time>2021-11-25T13:47:58Z</time>
      </trkpt>
      <trkpt lat="49.38358" lon="-1.59289">
        <ele>14.6</ele>
        <time>2021-11-25T13:48:04Z</time>
      </trkpt>
      <trkpt lat="49.38357" lon="-1.59298">
        <ele>14.7</ele>
        <time>2021-11-25T13:48:10Z</time>
      </trkpt>
      <trkpt lat="49.38355" lon="-1.59306">
        <ele>12.5</ele>
        <time>2021-11-25T13:48:54Z</time>
      </trkpt>
      <trkpt lat="49.38355" lon="-1.59313">
        <ele>11</ele>
        <time>2021-11-25T13:49:18Z</time>
      </trkpt>
      <trkpt lat="49.38356" lon="-1.5932">
        <ele>12.3</ele>
        <time>2021-11-25T13:49:22Z</time>
      </trkpt>
      <trkpt lat="49.38357" lon="-1.59328">
        <ele>14</ele>
        <time>2021-11-25T13:49:26Z</time>
      </trkpt>
      <trkpt lat="49.38356" lon="-1.59338">
        <ele>14.9</ele>
        <time>2021-11-25T13:49:31Z</time>
      </trkpt>
      <trkpt lat="49.38355" lon="-1.59345">
        <ele>15.2</ele>
        <time>2021-11-25T13:49:35Z</time>
      </trkpt>
      <trkpt lat="49.38356" lon="-1.59354">
        <ele>15.5</ele>
        <time>2021-11-25T13:49:42Z</time>
      </trkpt>
      <trkpt lat="49.38352" lon="-1.59347">
        <ele>9.7</ele>
        <time>2021-11-25T13:51:07Z</time>
      </trkpt>
      <trkpt lat="49.38348" lon="-1.59343">
        <ele>9.7</ele>
        <time>2021-11-25T13:51:18Z</time>
      </trkpt>
      <trkpt lat="49.38352" lon="-1.59349">
        <ele>9.9</ele>
        <time>2021-11-25T13:51:59Z</time>
      </trkpt>
      <trkpt lat="49.38358" lon="-1.59348">
        <ele>9.5</ele>
        <time>2021-11-25T13:53:38Z</time>
      </trkpt>
      <trkpt lat="49.38363" lon="-1.59348">
        <ele>9.1</ele>
        <time>2021-11-25T13:53:41Z</time>
      </trkpt>
      <trkpt lat="49.38368" lon="-1.59348">
        <ele>8.7</ele>
        <time>2021-11-25T13:53:44Z</time>
      </trkpt>
      <trkpt lat="49.38375" lon="-1.59348">
        <ele>8.8</ele>
        <time>2021-11-25T13:53:48Z</time>
      </trkpt>
      <trkpt lat="49.38381" lon="-1.59351">
        <ele>8.9</ele>
        <time>2021-11-25T13:53:52Z</time>
      </trkpt>
      <trkpt lat="49.38385" lon="-1.5935">
        <ele>8.4</ele>
        <time>2021-11-25T13:53:56Z</time>
      </trkpt>
      <trkpt lat="49.38391" lon="-1.5935">
        <ele>7.4</ele>
        <time>2021-11-25T13:54:00Z</time>
      </trkpt>
      <trkpt lat="49.38395" lon="-1.59351">
        <ele>6.3</ele>
        <time>2021-11-25T13:54:04Z</time>
      </trkpt>
      <trkpt lat="49.38401" lon="-1.59349">
        <ele>5.3</ele>
        <time>2021-11-25T13:54:08Z</time>
      </trkpt>
      <trkpt lat="49.38406" lon="-1.59348">
        <ele>5</ele>
        <time>2021-11-25T13:54:12Z</time>
      </trkpt>
      <trkpt lat="49.38411" lon="-1.59349">
        <ele>5.1</ele>
        <time>2021-11-25T13:54:16Z</time>
      </trkpt>
      <trkpt lat="49.38417" lon="-1.59349">
        <ele>5.5</ele>
        <time>2021-11-25T13:54:20Z</time>
      </trkpt>
      <trkpt lat="49.38422" lon="-1.59349">
        <ele>5.8</ele>
        <time>2021-11-25T13:54:24Z</time>
      </trkpt>
      <trkpt lat="49.38429" lon="-1.59348">
        <ele>6</ele>
        <time>2021-11-25T13:54:29Z</time>
      </trkpt>
      <trkpt lat="49.38435" lon="-1.59348">
        <ele>5.9</ele>
        <time>2021-11-25T13:54:34Z</time>
      </trkpt>
      <trkpt lat="49.38442" lon="-1.59349">
        <ele>5.8</ele>
        <time>2021-11-25T13:54:40Z</time>
      </trkpt>
      <trkpt lat="49.38447" lon="-1.59349">
        <ele>5.8</ele>
        <time>2021-11-25T13:54:44Z</time>
      </trkpt>
      <trkpt lat="49.38452" lon="-1.59348">
        <ele>5.7</ele>
        <time>2021-11-25T13:54:48Z</time>
      </trkpt>
      <trkpt lat="49.38458" lon="-1.59349">
        <ele>5.6</ele>
        <time>2021-11-25T13:54:52Z</time>
      </trkpt>
      <trkpt lat="49.38464" lon="-1.59349">
        <ele>5.4</ele>
        <time>2021-11-25T13:54:56Z</time>
      </trkpt>
      <trkpt lat="49.38469" lon="-1.5935">
        <ele>5.2</ele>
        <time>2021-11-25T13:55:00Z</time>
      </trkpt>
      <trkpt lat="49.38473" lon="-1.59351">
        <ele>4.9</ele>
        <time>2021-11-25T13:55:04Z</time>
      </trkpt>
      <trkpt lat="49.38478" lon="-1.5935">
        <ele>4.6</ele>
        <time>2021-11-25T13:55:08Z</time>
      </trkpt>
      <trkpt lat="49.38484" lon="-1.59351">
        <ele>3.9</ele>
        <time>2021-11-25T13:55:12Z</time>
      </trkpt>
      <trkpt lat="49.3849" lon="-1.59352">
        <ele>3.4</ele>
        <time>2021-11-25T13:55:16Z</time>
      </trkpt>
      <trkpt lat="49.38495" lon="-1.59352">
        <ele>2.9</ele>
        <time>2021-11-25T13:55:20Z</time>
      </trkpt>
      <trkpt lat="49.38502" lon="-1.5935">
        <ele>2</ele>
        <time>2021-11-25T13:55:26Z</time>
      </trkpt>
      <trkpt lat="49.38507" lon="-1.59349">
        <ele>1.4</ele>
        <time>2021-11-25T13:55:30Z</time>
      </trkpt>
      <trkpt lat="49.38512" lon="-1.59348">
        <ele>0.5</ele>
        <time>2021-11-25T13:55:34Z</time>
      </trkpt>
      <trkpt lat="49.38516" lon="-1.59347">
        <ele>-0.1</ele>
        <time>2021-11-25T13:55:38Z</time>
      </trkpt>
      <trkpt lat="49.38521" lon="-1.59346">
        <ele>-0.2</ele>
        <time>2021-11-25T13:55:43Z</time>
      </trkpt>
      <trkpt lat="49.38528" lon="-1.59348">
        <ele>0.3</ele>
        <time>2021-11-25T13:55:48Z</time>
      </trkpt>
      <trkpt lat="49.38533" lon="-1.59348">
        <ele>1</ele>
        <time>2021-11-25T13:55:52Z</time>
      </trkpt>
      <trkpt lat="49.38538" lon="-1.59349">
        <ele>1.6</ele>
        <time>2021-11-25T13:55:56Z</time>
      </trkpt>
      <trkpt lat="49.38544" lon="-1.59348">
        <ele>1.6</ele>
        <time>2021-11-25T13:56:00Z</time>
      </trkpt>
      <trkpt lat="49.38549" lon="-1.59347">
        <ele>1.6</ele>
        <time>2021-11-25T13:56:04Z</time>
      </trkpt>
      <trkpt lat="49.38555" lon="-1.59346">
        <ele>1.6</ele>
        <time>2021-11-25T13:56:08Z</time>
      </trkpt>
      <trkpt lat="49.3856" lon="-1.59347">
        <ele>4.9</ele>
        <time>2021-11-25T13:56:48Z</time>
      </trkpt>
      <trkpt lat="49.38565" lon="-1.5935">
        <ele>4.8</ele>
        <time>2021-11-25T13:56:53Z</time>
      </trkpt>
      <trkpt lat="49.38571" lon="-1.5935">
        <ele>4.2</ele>
        <time>2021-11-25T13:57:00Z</time>
      </trkpt>
      <trkpt lat="49.38577" lon="-1.59349">
        <ele>3.3</ele>
        <time>2021-11-25T13:57:05Z</time>
      </trkpt>
      <trkpt lat="49.38582" lon="-1.59349">
        <ele>2.7</ele>
        <time>2021-11-25T13:57:10Z</time>
      </trkpt>
      <trkpt lat="49.38587" lon="-1.59349">
        <ele>2.4</ele>
        <time>2021-11-25T13:57:16Z</time>
      </trkpt>
      <trkpt lat="49.38591" lon="-1.59349">
        <ele>2</ele>
        <time>2021-11-25T13:57:22Z</time>
      </trkpt>
      <trkpt lat="49.38598" lon="-1.59352">
        <ele>1.6</ele>
        <time>2021-11-25T13:57:28Z</time>
      </trkpt>
      <trkpt lat="49.38603" lon="-1.59352">
        <ele>1.1</ele>
        <time>2021-11-25T13:57:32Z</time>
      </trkpt>
      <trkpt lat="49.38608" lon="-1.59351">
        <ele>0.2</ele>
        <time>2021-11-25T13:57:36Z</time>
      </trkpt>
      <trkpt lat="49.38613" lon="-1.59351">
        <ele>-0.5</ele>
        <time>2021-11-25T13:57:40Z</time>
      </trkpt>
      <trkpt lat="49.38619" lon="-1.5935">
        <ele>-1.5</ele>
        <time>2021-11-25T13:57:46Z</time>
      </trkpt>
      <trkpt lat="49.38626" lon="-1.59349">
        <ele>-2.6</ele>
        <time>2021-11-25T13:57:52Z</time>
      </trkpt>
      <trkpt lat="49.38631" lon="-1.59349">
        <ele>-3.3</ele>
        <time>2021-11-25T13:57:56Z</time>
      </trkpt>
      <trkpt lat="49.38636" lon="-1.59349">
        <ele>-4</ele>
        <time>2021-11-25T13:58:00Z</time>
      </trkpt>
      <trkpt lat="49.38641" lon="-1.59349">
        <ele>-4.6</ele>
        <time>2021-11-25T13:58:04Z</time>
      </trkpt>
      <trkpt lat="49.38646" lon="-1.59349">
        <ele>-4.6</ele>
        <time>2021-11-25T13:58:08Z</time>
      </trkpt>
      <trkpt lat="49.38651" lon="-1.59349">
        <ele>-4</ele>
        <time>2021-11-25T13:58:13Z</time>
      </trkpt>
      <trkpt lat="49.38657" lon="-1.5935">
        <ele>-3.6</ele>
        <time>2021-11-25T13:58:18Z</time>
      </trkpt>
      <trkpt lat="49.38663" lon="-1.59351">
        <ele>-3.3</ele>
        <time>2021-11-25T13:58:22Z</time>
      </trkpt>
      <trkpt lat="49.38668" lon="-1.5935">
        <ele>-3.2</ele>
        <time>2021-11-25T13:58:26Z</time>
      </trkpt>
      <trkpt lat="49.38673" lon="-1.59349">
        <ele>-3.2</ele>
        <time>2021-11-25T13:58:30Z</time>
      </trkpt>
      <trkpt lat="49.38678" lon="-1.59348">
        <ele>-3.8</ele>
        <time>2021-11-25T13:58:36Z</time>
      </trkpt>
      <trkpt lat="49.38682" lon="-1.59348">
        <ele>-4.2</ele>
        <time>2021-11-25T13:58:41Z</time>
      </trkpt>
      <trkpt lat="49.38689" lon="-1.59348">
        <ele>-4.2</ele>
        <time>2021-11-25T13:58:46Z</time>
      </trkpt>
      <trkpt lat="49.38694" lon="-1.59349">
        <ele>-4.1</ele>
        <time>2021-11-25T13:58:50Z</time>
      </trkpt>
      <trkpt lat="49.38692" lon="-1.59357">
        <ele>-4.2</ele>
        <time>2021-11-25T13:59:01Z</time>
      </trkpt>
      <trkpt lat="49.38695" lon="-1.59365">
        <ele>-4.9</ele>
        <time>2021-11-25T13:59:18Z</time>
      </trkpt>
      <trkpt lat="49.38695" lon="-1.59373">
        <ele>-5.2</ele>
        <time>2021-11-25T13:59:23Z</time>
      </trkpt>
      <trkpt lat="49.38694" lon="-1.5938">
        <ele>-5.2</ele>
        <time>2021-11-25T13:59:29Z</time>
      </trkpt>
      <trkpt lat="49.38692" lon="-1.59386">
        <ele>-5</ele>
        <time>2021-11-25T13:59:34Z</time>
      </trkpt>
      <trkpt lat="49.38691" lon="-1.59393">
        <ele>-4.7</ele>
        <time>2021-11-25T13:59:38Z</time>
      </trkpt>
      <trkpt lat="49.3869" lon="-1.59401">
        <ele>-4.2</ele>
        <time>2021-11-25T13:59:44Z</time>
      </trkpt>
      <trkpt lat="49.38686" lon="-1.59407">
        <ele>-4.1</ele>
        <time>2021-11-25T13:59:48Z</time>
      </trkpt>
      <trkpt lat="49.38685" lon="-1.59415">
        <ele>-4.3</ele>
        <time>2021-11-25T13:59:54Z</time>
      </trkpt>
      <trkpt lat="49.38683" lon="-1.59424">
        <ele>-5</ele>
        <time>2021-11-25T14:00:02Z</time>
      </trkpt>
      <trkpt lat="49.38684" lon="-1.59431">
        <ele>-5.9</ele>
        <time>2021-11-25T14:00:13Z</time>
      </trkpt>
      <trkpt lat="49.38684" lon="-1.5944">
        <ele>-6.5</ele>
        <time>2021-11-25T14:00:21Z</time>
      </trkpt>
      <trkpt lat="49.38683" lon="-1.59447">
        <ele>-6.9</ele>
        <time>2021-11-25T14:00:26Z</time>
      </trkpt>
      <trkpt lat="49.38682" lon="-1.59455">
        <ele>-7.2</ele>
        <time>2021-11-25T14:00:31Z</time>
      </trkpt>
      <trkpt lat="49.3868" lon="-1.59464">
        <ele>-7.4</ele>
        <time>2021-11-25T14:00:36Z</time>
      </trkpt>
      <trkpt lat="49.38679" lon="-1.59471">
        <ele>-7.6</ele>
        <time>2021-11-25T14:00:41Z</time>
      </trkpt>
      <trkpt lat="49.38677" lon="-1.59478">
        <ele>-7.7</ele>
        <time>2021-11-25T14:00:45Z</time>
      </trkpt>
      <trkpt lat="49.38675" lon="-1.59485">
        <ele>-7.7</ele>
        <time>2021-11-25T14:00:49Z</time>
      </trkpt>
      <trkpt lat="49.38673" lon="-1.59492">
        <ele>-7.7</ele>
        <time>2021-11-25T14:00:55Z</time>
      </trkpt>
      <trkpt lat="49.38673" lon="-1.59501">
        <ele>-7.7</ele>
        <time>2021-11-25T14:00:59Z</time>
      </trkpt>
      <trkpt lat="49.38674" lon="-1.59511">
        <ele>-7.6</ele>
        <time>2021-11-25T14:01:03Z</time>
      </trkpt>
      <trkpt lat="49.38671" lon="-1.59519">
        <ele>-7.5</ele>
        <time>2021-11-25T14:01:07Z</time>
      </trkpt>
      <trkpt lat="49.38669" lon="-1.59526">
        <ele>-7.2</ele>
        <time>2021-11-25T14:01:11Z</time>
      </trkpt>
      <trkpt lat="49.38667" lon="-1.59535">
        <ele>-6.8</ele>
        <time>2021-11-25T14:01:17Z</time>
      </trkpt>
      <trkpt lat="49.38667" lon="-1.59545">
        <ele>-6.5</ele>
        <time>2021-11-25T14:01:23Z</time>
      </trkpt>
      <trkpt lat="49.38666" lon="-1.59554">
        <ele>-6.2</ele>
        <time>2021-11-25T14:01:28Z</time>
      </trkpt>
      <trkpt lat="49.38666" lon="-1.59562">
        <ele>-5.8</ele>
        <time>2021-11-25T14:01:34Z</time>
      </trkpt>
      <trkpt lat="49.38665" lon="-1.59572">
        <ele>-5.3</ele>
        <time>2021-11-25T14:01:40Z</time>
      </trkpt>
      <trkpt lat="49.38665" lon="-1.59579">
        <ele>-5</ele>
        <time>2021-11-25T14:01:44Z</time>
      </trkpt>
      <trkpt lat="49.38666" lon="-1.59587">
        <ele>-4.3</ele>
        <time>2021-11-25T14:01:48Z</time>
      </trkpt>
      <trkpt lat="49.38665" lon="-1.59595">
        <ele>-3.6</ele>
        <time>2021-11-25T14:01:53Z</time>
      </trkpt>
      <trkpt lat="49.38664" lon="-1.59602">
        <ele>-3.1</ele>
        <time>2021-11-25T14:01:59Z</time>
      </trkpt>
      <trkpt lat="49.38662" lon="-1.59609">
        <ele>-2.7</ele>
        <time>2021-11-25T14:02:05Z</time>
      </trkpt>
      <trkpt lat="49.38662" lon="-1.59617">
        <ele>-2.2</ele>
        <time>2021-11-25T14:02:11Z</time>
      </trkpt>
      <trkpt lat="49.38661" lon="-1.59625">
        <ele>-2</ele>
        <time>2021-11-25T14:02:15Z</time>
      </trkpt>
      <trkpt lat="49.3866" lon="-1.59632">
        <ele>-1.8</ele>
        <time>2021-11-25T14:02:19Z</time>
      </trkpt>
      <trkpt lat="49.38659" lon="-1.59641">
        <ele>-1.6</ele>
        <time>2021-11-25T14:02:24Z</time>
      </trkpt>
      <trkpt lat="49.38658" lon="-1.59649">
        <ele>-1.4</ele>
        <time>2021-11-25T14:02:28Z</time>
      </trkpt>
      <trkpt lat="49.38656" lon="-1.59655">
        <ele>-1.1</ele>
        <time>2021-11-25T14:02:32Z</time>
      </trkpt>
      <trkpt lat="49.38654" lon="-1.59665">
        <ele>-0.5</ele>
        <time>2021-11-25T14:02:38Z</time>
      </trkpt>
      <trkpt lat="49.38653" lon="-1.59672">
        <ele>47</ele>
        <time>2021-11-25T14:02:42Z</time>
      </trkpt>
      <trkpt lat="49.38651" lon="-1.59681">
        <ele>0.2</ele>
        <time>2021-11-25T14:02:48Z</time>
      </trkpt>
      <trkpt lat="49.38651" lon="-1.59691">
        <ele>0.1</ele>
        <time>2021-11-25T14:02:55Z</time>
      </trkpt>
      <trkpt lat="49.3865" lon="-1.59699">
        <ele>0.4</ele>
        <time>2021-11-25T14:03:01Z</time>
      </trkpt>
      <trkpt lat="49.3865" lon="-1.59707">
        <ele>1.9</ele>
        <time>2021-11-25T14:03:07Z</time>
      </trkpt>
      <trkpt lat="49.38651" lon="-1.59714">
        <ele>2.9</ele>
        <time>2021-11-25T14:03:11Z</time>
      </trkpt>
      <trkpt lat="49.3865" lon="-1.59722">
        <ele>3.8</ele>
        <time>2021-11-25T14:03:16Z</time>
      </trkpt>
      <trkpt lat="49.38646" lon="-1.59731">
        <ele>5</ele>
        <time>2021-11-25T14:03:23Z</time>
      </trkpt>
      <trkpt lat="49.38643" lon="-1.59737">
        <ele>5.1</ele>
        <time>2021-11-25T14:03:26Z</time>
      </trkpt>
      <trkpt lat="49.38641" lon="-1.59745">
        <ele>4.8</ele>
        <time>2021-11-25T14:03:30Z</time>
      </trkpt>
      <trkpt lat="49.3864" lon="-1.59754">
        <ele>4</ele>
        <time>2021-11-25T14:03:34Z</time>
      </trkpt>
      <trkpt lat="49.38639" lon="-1.59764">
        <ele>3.5</ele>
        <time>2021-11-25T14:03:39Z</time>
      </trkpt>
      <trkpt lat="49.38638" lon="-1.59771">
        <ele>3.6</ele>
        <time>2021-11-25T14:03:43Z</time>
      </trkpt>
      <trkpt lat="49.38638" lon="-1.59779">
        <ele>3.8</ele>
        <time>2021-11-25T14:03:47Z</time>
      </trkpt>
      <trkpt lat="49.38636" lon="-1.59786">
        <ele>4.3</ele>
        <time>2021-11-25T14:03:51Z</time>
      </trkpt>
      <trkpt lat="49.38634" lon="-1.59794">
        <ele>4.7</ele>
        <time>2021-11-25T14:03:56Z</time>
      </trkpt>
      <trkpt lat="49.38631" lon="-1.598">
        <ele>5.1</ele>
        <time>2021-11-25T14:04:04Z</time>
      </trkpt>
      <trkpt lat="49.38626" lon="-1.59802">
        <ele>5.2</ele>
        <time>2021-11-25T14:04:08Z</time>
      </trkpt>
      <trkpt lat="49.38622" lon="-1.59801">
        <ele>5.3</ele>
        <time>2021-11-25T14:04:12Z</time>
      </trkpt>
      <trkpt lat="49.38617" lon="-1.59799">
        <ele>5.5</ele>
        <time>2021-11-25T14:04:17Z</time>
      </trkpt>
      <trkpt lat="49.38612" lon="-1.598">
        <ele>5.6</ele>
        <time>2021-11-25T14:04:22Z</time>
      </trkpt>
      <trkpt lat="49.38607" lon="-1.598">
        <ele>5.7</ele>
        <time>2021-11-25T14:04:26Z</time>
      </trkpt>
      <trkpt lat="49.38602" lon="-1.598">
        <ele>5.7</ele>
        <time>2021-11-25T14:04:30Z</time>
      </trkpt>
      <trkpt lat="49.38598" lon="-1.59799">
        <ele>5.8</ele>
        <time>2021-11-25T14:04:34Z</time>
      </trkpt>
      <trkpt lat="49.38593" lon="-1.59799">
        <ele>5.8</ele>
        <time>2021-11-25T14:04:38Z</time>
      </trkpt>
      <trkpt lat="49.38588" lon="-1.59801">
        <ele>5.9</ele>
        <time>2021-11-25T14:04:42Z</time>
      </trkpt>
      <trkpt lat="49.38583" lon="-1.59799">
        <ele>6</ele>
        <time>2021-11-25T14:04:46Z</time>
      </trkpt>
      <trkpt lat="49.38579" lon="-1.59798">
        <ele>6.5</ele>
        <time>2021-11-25T14:04:52Z</time>
      </trkpt>
      <trkpt lat="49.38574" lon="-1.59796">
        <ele>6.7</ele>
        <time>2021-11-25T14:04:58Z</time>
      </trkpt>
      <trkpt lat="49.38569" lon="-1.59796">
        <ele>6.1</ele>
        <time>2021-11-25T14:05:02Z</time>
      </trkpt>
      <trkpt lat="49.38564" lon="-1.59797">
        <ele>5.4</ele>
        <time>2021-11-25T14:05:06Z</time>
      </trkpt>
      <trkpt lat="49.3856" lon="-1.59799">
        <ele>4.7</ele>
        <time>2021-11-25T14:05:10Z</time>
      </trkpt>
      <trkpt lat="49.38554" lon="-1.59798">
        <ele>3.8</ele>
        <time>2021-11-25T14:05:14Z</time>
      </trkpt>
      <trkpt lat="49.38548" lon="-1.59797">
        <ele>2.7</ele>
        <time>2021-11-25T14:05:19Z</time>
      </trkpt>
      <trkpt lat="49.38543" lon="-1.59796">
        <ele>1.5</ele>
        <time>2021-11-25T14:05:24Z</time>
      </trkpt>
      <trkpt lat="49.38537" lon="-1.59798">
        <ele>0.7</ele>
        <time>2021-11-25T14:05:30Z</time>
      </trkpt>
      <trkpt lat="49.38532" lon="-1.598">
        <ele>0.2</ele>
        <time>2021-11-25T14:05:36Z</time>
      </trkpt>
      <trkpt lat="49.38527" lon="-1.59798">
        <ele>-0.2</ele>
        <time>2021-11-25T14:05:40Z</time>
      </trkpt>
      <trkpt lat="49.38522" lon="-1.59796">
        <ele>-0.5</ele>
        <time>2021-11-25T14:05:44Z</time>
      </trkpt>
      <trkpt lat="49.38517" lon="-1.59795">
        <ele>-0.9</ele>
        <time>2021-11-25T14:05:48Z</time>
      </trkpt>
      <trkpt lat="49.38512" lon="-1.59793">
        <ele>-1.2</ele>
        <time>2021-11-25T14:05:52Z</time>
      </trkpt>
      <trkpt lat="49.38507" lon="-1.59792">
        <ele>-1.5</ele>
        <time>2021-11-25T14:05:57Z</time>
      </trkpt>
      <trkpt lat="49.38502" lon="-1.59792">
        <ele>-1.6</ele>
        <time>2021-11-25T14:06:02Z</time>
      </trkpt>
      <trkpt lat="49.38497" lon="-1.59793">
        <ele>-1.6</ele>
        <time>2021-11-25T14:06:08Z</time>
      </trkpt>
      <trkpt lat="49.38491" lon="-1.59793">
        <ele>-1.5</ele>
        <time>2021-11-25T14:06:12Z</time>
      </trkpt>
      <trkpt lat="49.38487" lon="-1.59792">
        <ele>-1.4</ele>
        <time>2021-11-25T14:06:16Z</time>
      </trkpt>
      <trkpt lat="49.3848" lon="-1.59792">
        <ele>-0.8</ele>
        <time>2021-11-25T14:06:22Z</time>
      </trkpt>
      <trkpt lat="49.38475" lon="-1.59792">
        <ele>-0.1</ele>
        <time>2021-11-25T14:06:28Z</time>
      </trkpt>
      <trkpt lat="49.38469" lon="-1.5979">
        <ele>-0.2</ele>
        <time>2021-11-25T14:06:35Z</time>
      </trkpt>
      <trkpt lat="49.38463" lon="-1.59788">
        <ele>-0.8</ele>
        <time>2021-11-25T14:06:40Z</time>
      </trkpt>
      <trkpt lat="49.38458" lon="-1.59789">
        <ele>-1.1</ele>
        <time>2021-11-25T14:06:46Z</time>
      </trkpt>
      <trkpt lat="49.38453" lon="-1.59788">
        <ele>-1.2</ele>
        <time>2021-11-25T14:06:52Z</time>
      </trkpt>
      <trkpt lat="49.38447" lon="-1.59787">
        <ele>-1</ele>
        <time>2021-11-25T14:06:58Z</time>
      </trkpt>
      <trkpt lat="49.38442" lon="-1.59789">
        <ele>-0.5</ele>
        <time>2021-11-25T14:07:02Z</time>
      </trkpt>
      <trkpt lat="49.38436" lon="-1.5979">
        <ele>0.2</ele>
        <time>2021-11-25T14:07:06Z</time>
      </trkpt>
      <trkpt lat="49.38431" lon="-1.59789">
        <ele>1.3</ele>
        <time>2021-11-25T14:07:11Z</time>
      </trkpt>
      <trkpt lat="49.38425" lon="-1.59787">
        <ele>2.3</ele>
        <time>2021-11-25T14:07:17Z</time>
      </trkpt>
      <trkpt lat="49.38419" lon="-1.59786">
        <ele>2.5</ele>
        <time>2021-11-25T14:07:22Z</time>
      </trkpt>
      <trkpt lat="49.38413" lon="-1.59785">
        <ele>2.1</ele>
        <time>2021-11-25T14:07:28Z</time>
      </trkpt>
      <trkpt lat="49.38408" lon="-1.59785">
        <ele>2</ele>
        <time>2021-11-25T14:07:34Z</time>
      </trkpt>
      <trkpt lat="49.38402" lon="-1.59785">
        <ele>2</ele>
        <time>2021-11-25T14:07:39Z</time>
      </trkpt>
      <trkpt lat="49.38397" lon="-1.59783">
        <ele>2.1</ele>
        <time>2021-11-25T14:07:44Z</time>
      </trkpt>
      <trkpt lat="49.38392" lon="-1.59788">
        <ele>2.5</ele>
        <time>2021-11-25T14:07:51Z</time>
      </trkpt>
      <trkpt lat="49.38387" lon="-1.59789">
        <ele>9.4</ele>
        <time>2021-11-25T14:09:17Z</time>
      </trkpt>
      <trkpt lat="49.38379" lon="-1.59786">
        <ele>9.2</ele>
        <time>2021-11-25T14:09:24Z</time>
      </trkpt>
      <trkpt lat="49.38374" lon="-1.59784">
        <ele>8.4</ele>
        <time>2021-11-25T14:09:28Z</time>
      </trkpt>
      <trkpt lat="49.38368" lon="-1.59784">
        <ele>7.4</ele>
        <time>2021-11-25T14:09:34Z</time>
      </trkpt>
      <trkpt lat="49.38363" lon="-1.59782">
        <ele>7.3</ele>
        <time>2021-11-25T14:09:40Z</time>
      </trkpt>
      <trkpt lat="49.38359" lon="-1.59781">
        <ele>7.5</ele>
        <time>2021-11-25T14:09:44Z</time>
      </trkpt>
      <trkpt lat="49.38354" lon="-1.59781">
        <ele>8</ele>
        <time>2021-11-25T14:09:50Z</time>
      </trkpt>
      <trkpt lat="49.38349" lon="-1.5978">
        <ele>9.1</ele>
        <time>2021-11-25T14:09:56Z</time>
      </trkpt>
      <trkpt lat="49.38344" lon="-1.5978">
        <ele>9.9</ele>
        <time>2021-11-25T14:10:01Z</time>
      </trkpt>
      <trkpt lat="49.38338" lon="-1.59779">
        <ele>10.3</ele>
        <time>2021-11-25T14:10:07Z</time>
      </trkpt>
      <trkpt lat="49.38332" lon="-1.5978">
        <ele>10.6</ele>
        <time>2021-11-25T14:10:12Z</time>
      </trkpt>
      <trkpt lat="49.38326" lon="-1.59781">
        <ele>10.5</ele>
        <time>2021-11-25T14:10:18Z</time>
      </trkpt>
      <trkpt lat="49.38319" lon="-1.59782">
        <ele>10.2</ele>
        <time>2021-11-25T14:10:24Z</time>
      </trkpt>
      <trkpt lat="49.38314" lon="-1.5978">
        <ele>9.9</ele>
        <time>2021-11-25T14:10:28Z</time>
      </trkpt>
      <trkpt lat="49.38309" lon="-1.59779">
        <ele>9.7</ele>
        <time>2021-11-25T14:10:32Z</time>
      </trkpt>
      <trkpt lat="49.38304" lon="-1.59778">
        <ele>9.7</ele>
        <time>2021-11-25T14:10:36Z</time>
      </trkpt>
      <trkpt lat="49.38298" lon="-1.59777">
        <ele>9.9</ele>
        <time>2021-11-25T14:10:42Z</time>
      </trkpt>
      <trkpt lat="49.38293" lon="-1.5978">
        <ele>10.1</ele>
        <time>2021-11-25T14:10:49Z</time>
      </trkpt>
      <trkpt lat="49.38288" lon="-1.59779">
        <ele>10</ele>
        <time>2021-11-25T14:10:54Z</time>
      </trkpt>
      <trkpt lat="49.38283" lon="-1.59778">
        <ele>9.6</ele>
        <time>2021-11-25T14:10:58Z</time>
      </trkpt>
      <trkpt lat="49.38278" lon="-1.59777">
        <ele>9.3</ele>
        <time>2021-11-25T14:11:02Z</time>
      </trkpt>
      <trkpt lat="49.38272" lon="-1.59776">
        <ele>9.2</ele>
        <time>2021-11-25T14:11:08Z</time>
      </trkpt>
      <trkpt lat="49.38267" lon="-1.59775">
        <ele>9.3</ele>
        <time>2021-11-25T14:11:12Z</time>
      </trkpt>
      <trkpt lat="49.38261" lon="-1.59776">
        <ele>9.9</ele>
        <time>2021-11-25T14:11:18Z</time>
      </trkpt>
      <trkpt lat="49.38256" lon="-1.59777">
        <ele>10.2</ele>
        <time>2021-11-25T14:11:23Z</time>
      </trkpt>
      <trkpt lat="49.38253" lon="-1.59782">
        <ele>10.4</ele>
        <time>2021-11-25T14:11:28Z</time>
      </trkpt>
      <trkpt lat="49.38251" lon="-1.59789">
        <ele>10.7</ele>
        <time>2021-11-25T14:11:33Z</time>
      </trkpt>
      <trkpt lat="49.38251" lon="-1.59797">
        <ele>10.9</ele>
        <time>2021-11-25T14:11:39Z</time>
      </trkpt>
      <trkpt lat="49.38249" lon="-1.59805">
        <ele>11.2</ele>
        <time>2021-11-25T14:11:44Z</time>
      </trkpt>
      <trkpt lat="49.38247" lon="-1.59817">
        <ele>11.4</ele>
        <time>2021-11-25T14:11:48Z</time>
      </trkpt>
      <trkpt lat="49.38248" lon="-1.59824">
        <ele>12.2</ele>
        <time>2021-11-25T14:11:52Z</time>
      </trkpt>
      <trkpt lat="49.3825" lon="-1.59831">
        <ele>12.8</ele>
        <time>2021-11-25T14:11:56Z</time>
      </trkpt>
      <trkpt lat="49.3825" lon="-1.59841">
        <ele>13.6</ele>
        <time>2021-11-25T14:12:02Z</time>
      </trkpt>
      <trkpt lat="49.3825" lon="-1.59848">
        <ele>13.9</ele>
        <time>2021-11-25T14:12:08Z</time>
      </trkpt>
      <trkpt lat="49.3825" lon="-1.59855">
        <ele>13.8</ele>
        <time>2021-11-25T14:12:13Z</time>
      </trkpt>
      <trkpt lat="49.38249" lon="-1.59864">
        <ele>13.7</ele>
        <time>2021-11-25T14:12:19Z</time>
      </trkpt>
      <trkpt lat="49.38249" lon="-1.59871">
        <ele>13.7</ele>
        <time>2021-11-25T14:12:23Z</time>
      </trkpt>
      <trkpt lat="49.38249" lon="-1.59881">
        <ele>13.8</ele>
        <time>2021-11-25T14:12:28Z</time>
      </trkpt>
      <trkpt lat="49.3825" lon="-1.59889">
        <ele>13.8</ele>
        <time>2021-11-25T14:12:32Z</time>
      </trkpt>
      <trkpt lat="49.38251" lon="-1.59896">
        <ele>13.8</ele>
        <time>2021-11-25T14:12:36Z</time>
      </trkpt>
      <trkpt lat="49.3825" lon="-1.59907">
        <ele>13.4</ele>
        <time>2021-11-25T14:12:42Z</time>
      </trkpt>
      <trkpt lat="49.38249" lon="-1.59915">
        <ele>13.1</ele>
        <time>2021-11-25T14:12:46Z</time>
      </trkpt>
      <trkpt lat="49.3825" lon="-1.59924">
        <ele>12.8</ele>
        <time>2021-11-25T14:12:50Z</time>
      </trkpt>
      <trkpt lat="49.38251" lon="-1.59933">
        <ele>12.8</ele>
        <time>2021-11-25T14:12:56Z</time>
      </trkpt>
      <trkpt lat="49.38252" lon="-1.59941">
        <ele>12.8</ele>
        <time>2021-11-25T14:13:02Z</time>
      </trkpt>
      <trkpt lat="49.38252" lon="-1.59949">
        <ele>12.9</ele>
        <time>2021-11-25T14:13:06Z</time>
      </trkpt>
      <trkpt lat="49.38251" lon="-1.59956">
        <ele>12.8</ele>
        <time>2021-11-25T14:13:10Z</time>
      </trkpt>
      <trkpt lat="49.38252" lon="-1.59964">
        <ele>12.6</ele>
        <time>2021-11-25T14:13:14Z</time>
      </trkpt>
      <trkpt lat="49.38252" lon="-1.59974">
        <ele>12.7</ele>
        <time>2021-11-25T14:13:19Z</time>
      </trkpt>
      <trkpt lat="49.38251" lon="-1.59981">
        <ele>13</ele>
        <time>2021-11-25T14:13:23Z</time>
      </trkpt>
      <trkpt lat="49.3825" lon="-1.59992">
        <ele>13.3</ele>
        <time>2021-11-25T14:13:28Z</time>
      </trkpt>
      <trkpt lat="49.3825" lon="-1.6">
        <ele>13.4</ele>
        <time>2021-11-25T14:13:32Z</time>
      </trkpt>
      <trkpt lat="49.3825" lon="-1.60008">
        <ele>13.4</ele>
        <time>2021-11-25T14:13:36Z</time>
      </trkpt>
      <trkpt lat="49.3825" lon="-1.60015">
        <ele>13.3</ele>
        <time>2021-11-25T14:13:40Z</time>
      </trkpt>
      <trkpt lat="49.38251" lon="-1.60023">
        <ele>13.2</ele>
        <time>2021-11-25T14:13:44Z</time>
      </trkpt>
      <trkpt lat="49.38253" lon="-1.6003">
        <ele>13</ele>
        <time>2021-11-25T14:13:48Z</time>
      </trkpt>
      <trkpt lat="49.38253" lon="-1.6004">
        <ele>12.5</ele>
        <time>2021-11-25T14:13:53Z</time>
      </trkpt>
      <trkpt lat="49.38256" lon="-1.6005">
        <ele>12</ele>
        <time>2021-11-25T14:13:58Z</time>
      </trkpt>
      <trkpt lat="49.38261" lon="-1.60055">
        <ele>11.4</ele>
        <time>2021-11-25T14:14:04Z</time>
      </trkpt>
      <trkpt lat="49.38267" lon="-1.60055">
        <ele>10.9</ele>
        <time>2021-11-25T14:14:08Z</time>
      </trkpt>
      <trkpt lat="49.38273" lon="-1.60057">
        <ele>10.8</ele>
        <time>2021-11-25T14:14:12Z</time>
      </trkpt>
      <trkpt lat="49.38278" lon="-1.60059">
        <ele>10.9</ele>
        <time>2021-11-25T14:14:16Z</time>
      </trkpt>
      <trkpt lat="49.38283" lon="-1.60061">
        <ele>11.3</ele>
        <time>2021-11-25T14:14:20Z</time>
      </trkpt>
      <trkpt lat="49.38288" lon="-1.60062">
        <ele>12.1</ele>
        <time>2021-11-25T14:14:24Z</time>
      </trkpt>
      <trkpt lat="49.38294" lon="-1.60062">
        <ele>15</ele>
        <time>2021-11-25T14:15:17Z</time>
      </trkpt>
      <trkpt lat="49.38299" lon="-1.60061">
        <ele>15.9</ele>
        <time>2021-11-25T14:15:22Z</time>
      </trkpt>
      <trkpt lat="49.38305" lon="-1.60059">
        <ele>17.4</ele>
        <time>2021-11-25T14:15:28Z</time>
      </trkpt>
      <trkpt lat="49.38311" lon="-1.60061">
        <ele>19</ele>
        <time>2021-11-25T14:15:36Z</time>
      </trkpt>
      <trkpt lat="49.38316" lon="-1.6006">
        <ele>20.3</ele>
        <time>2021-11-25T14:15:41Z</time>
      </trkpt>
      <trkpt lat="49.38322" lon="-1.60062">
        <ele>21.6</ele>
        <time>2021-11-25T14:15:46Z</time>
      </trkpt>
      <trkpt lat="49.38328" lon="-1.60067">
        <ele>22.8</ele>
        <time>2021-11-25T14:15:52Z</time>
      </trkpt>
      <trkpt lat="49.38333" lon="-1.60068">
        <ele>23</ele>
        <time>2021-11-25T14:15:56Z</time>
      </trkpt>
      <trkpt lat="49.38337" lon="-1.60071">
        <ele>23</ele>
        <time>2021-11-25T14:16:00Z</time>
      </trkpt>
      <trkpt lat="49.38342" lon="-1.60074">
        <ele>23</ele>
        <time>2021-11-25T14:16:04Z</time>
      </trkpt>
      <trkpt lat="49.38347" lon="-1.60077">
        <ele>23.2</ele>
        <time>2021-11-25T14:16:08Z</time>
      </trkpt>
      <trkpt lat="49.38352" lon="-1.60079">
        <ele>23.5</ele>
        <time>2021-11-25T14:16:15Z</time>
      </trkpt>
      <trkpt lat="49.38357" lon="-1.60082">
        <ele>22.5</ele>
        <time>2021-11-25T14:16:22Z</time>
      </trkpt>
      <trkpt lat="49.38362" lon="-1.60084">
        <ele>21.5</ele>
        <time>2021-11-25T14:16:26Z</time>
      </trkpt>
      <trkpt lat="49.38368" lon="-1.60087">
        <ele>21.1</ele>
        <time>2021-11-25T14:16:30Z</time>
      </trkpt>
      <trkpt lat="49.38373" lon="-1.60089">
        <ele>20.4</ele>
        <time>2021-11-25T14:16:36Z</time>
      </trkpt>
      <trkpt lat="49.38378" lon="-1.60089">
        <ele>19.2</ele>
        <time>2021-11-25T14:16:42Z</time>
      </trkpt>
      <trkpt lat="49.38384" lon="-1.60089">
        <ele>18.4</ele>
        <time>2021-11-25T14:16:46Z</time>
      </trkpt>
      <trkpt lat="49.38389" lon="-1.60089">
        <ele>18.3</ele>
        <time>2021-11-25T14:16:50Z</time>
      </trkpt>
      <trkpt lat="49.38394" lon="-1.60091">
        <ele>18.4</ele>
        <time>2021-11-25T14:16:55Z</time>
      </trkpt>
      <trkpt lat="49.38398" lon="-1.60094">
        <ele>18.4</ele>
        <time>2021-11-25T14:17:00Z</time>
      </trkpt>
      <trkpt lat="49.38403" lon="-1.60094">
        <ele>18.3</ele>
        <time>2021-11-25T14:17:04Z</time>
      </trkpt>
      <trkpt lat="49.38409" lon="-1.60096">
        <ele>18.1</ele>
        <time>2021-11-25T14:17:08Z</time>
      </trkpt>
      <trkpt lat="49.38413" lon="-1.60098">
        <ele>17.7</ele>
        <time>2021-11-25T14:17:12Z</time>
      </trkpt>
      <trkpt lat="49.38418" lon="-1.60098">
        <ele>16.8</ele>
        <time>2021-11-25T14:17:17Z</time>
      </trkpt>
      <trkpt lat="49.38423" lon="-1.60098">
        <ele>15.6</ele>
        <time>2021-11-25T14:17:22Z</time>
      </trkpt>
      <trkpt lat="49.38428" lon="-1.601">
        <ele>14.6</ele>
        <time>2021-11-25T14:17:28Z</time>
      </trkpt>
      <trkpt lat="49.38433" lon="-1.60103">
        <ele>14.2</ele>
        <time>2021-11-25T14:17:32Z</time>
      </trkpt>
      <trkpt lat="49.38438" lon="-1.60106">
        <ele>14.1</ele>
        <time>2021-11-25T14:17:37Z</time>
      </trkpt>
      <trkpt lat="49.38445" lon="-1.60107">
        <ele>14.1</ele>
        <time>2021-11-25T14:17:42Z</time>
      </trkpt>
      <trkpt lat="49.38449" lon="-1.60108">
        <ele>14.1</ele>
        <time>2021-11-25T14:17:47Z</time>
      </trkpt>
      <trkpt lat="49.38455" lon="-1.60111">
        <ele>14.1</ele>
        <time>2021-11-25T14:17:52Z</time>
      </trkpt>
      <trkpt lat="49.3846" lon="-1.60113">
        <ele>14.1</ele>
        <time>2021-11-25T14:17:56Z</time>
      </trkpt>
      <trkpt lat="49.38465" lon="-1.60114">
        <ele>14.1</ele>
        <time>2021-11-25T14:18:00Z</time>
      </trkpt>
      <trkpt lat="49.38471" lon="-1.60116">
        <ele>14.1</ele>
        <time>2021-11-25T14:18:04Z</time>
      </trkpt>
      <trkpt lat="49.38477" lon="-1.60119">
        <ele>14.1</ele>
        <time>2021-11-25T14:18:08Z</time>
      </trkpt>
      <trkpt lat="49.38482" lon="-1.60121">
        <ele>14.1</ele>
        <time>2021-11-25T14:18:12Z</time>
      </trkpt>
      <trkpt lat="49.38487" lon="-1.60125">
        <ele>14.1</ele>
        <time>2021-11-25T14:18:16Z</time>
      </trkpt>
      <trkpt lat="49.38491" lon="-1.60128">
        <ele>14.2</ele>
        <time>2021-11-25T14:18:20Z</time>
      </trkpt>
      <trkpt lat="49.38498" lon="-1.60129">
        <ele>14.1</ele>
        <time>2021-11-25T14:18:26Z</time>
      </trkpt>
      <trkpt lat="49.38502" lon="-1.60131">
        <ele>13.8</ele>
        <time>2021-11-25T14:18:31Z</time>
      </trkpt>
      <trkpt lat="49.38507" lon="-1.60134">
        <ele>13.3</ele>
        <time>2021-11-25T14:18:36Z</time>
      </trkpt>
      <trkpt lat="49.38513" lon="-1.60135">
        <ele>13</ele>
        <time>2021-11-25T14:18:40Z</time>
      </trkpt>
      <trkpt lat="49.38518" lon="-1.60135">
        <ele>12.3</ele>
        <time>2021-11-25T14:18:44Z</time>
      </trkpt>
      <trkpt lat="49.38524" lon="-1.60136">
        <ele>11.6</ele>
        <time>2021-11-25T14:18:48Z</time>
      </trkpt>
      <trkpt lat="49.38528" lon="-1.60138">
        <ele>10.8</ele>
        <time>2021-11-25T14:18:52Z</time>
      </trkpt>
      <trkpt lat="49.38535" lon="-1.60137">
        <ele>9.4</ele>
        <time>2021-11-25T14:18:58Z</time>
      </trkpt>
      <trkpt lat="49.38541" lon="-1.60136">
        <ele>8.4</ele>
        <time>2021-11-25T14:19:02Z</time>
      </trkpt>
      <trkpt lat="49.38546" lon="-1.60137">
        <ele>7.5</ele>
        <time>2021-11-25T14:19:08Z</time>
      </trkpt>
      <trkpt lat="49.38551" lon="-1.60137">
        <ele>6.4</ele>
        <time>2021-11-25T14:19:12Z</time>
      </trkpt>
      <trkpt lat="49.38556" lon="-1.60138">
        <ele>5.8</ele>
        <time>2021-11-25T14:19:16Z</time>
      </trkpt>
      <trkpt lat="49.38561" lon="-1.6014">
        <ele>4.8</ele>
        <time>2021-11-25T14:19:20Z</time>
      </trkpt>
      <trkpt lat="49.38568" lon="-1.60141">
        <ele>4</ele>
        <time>2021-11-25T14:19:25Z</time>
      </trkpt>
      <trkpt lat="49.38573" lon="-1.60139">
        <ele>3.6</ele>
        <time>2021-11-25T14:19:28Z</time>
      </trkpt>
      <trkpt lat="49.38577" lon="-1.60137">
        <ele>3.5</ele>
        <time>2021-11-25T14:19:31Z</time>
      </trkpt>
      <trkpt lat="49.38582" lon="-1.60134">
        <ele>3.7</ele>
        <time>2021-11-25T14:19:35Z</time>
      </trkpt>
      <trkpt lat="49.38584" lon="-1.60125">
        <ele>3.6</ele>
        <time>2021-11-25T14:19:42Z</time>
      </trkpt>
      <trkpt lat="49.38585" lon="-1.60116">
        <ele>3.3</ele>
        <time>2021-11-25T14:19:48Z</time>
      </trkpt>
      <trkpt lat="49.38585" lon="-1.60109">
        <ele>3.3</ele>
        <time>2021-11-25T14:19:52Z</time>
      </trkpt>
      <trkpt lat="49.38586" lon="-1.60101">
        <ele>3.3</ele>
        <time>2021-11-25T14:19:56Z</time>
      </trkpt>
      <trkpt lat="49.38587" lon="-1.60093">
        <ele>3.4</ele>
        <time>2021-11-25T14:19:59Z</time>
      </trkpt>
      <trkpt lat="49.38587" lon="-1.60084">
        <ele>3.8</ele>
        <time>2021-11-25T14:20:02Z</time>
      </trkpt>
      <trkpt lat="49.38589" lon="-1.60075">
        <ele>4.7</ele>
        <time>2021-11-25T14:20:07Z</time>
      </trkpt>
      <trkpt lat="49.38591" lon="-1.60066">
        <ele>5.9</ele>
        <time>2021-11-25T14:20:13Z</time>
      </trkpt>
      <trkpt lat="49.38593" lon="-1.60059">
        <ele>7</ele>
        <time>2021-11-25T14:20:17Z</time>
      </trkpt>
      <trkpt lat="49.38594" lon="-1.6005">
        <ele>8.5</ele>
        <time>2021-11-25T14:20:22Z</time>
      </trkpt>
      <trkpt lat="49.38596" lon="-1.60042">
        <ele>9.9</ele>
        <time>2021-11-25T14:20:28Z</time>
      </trkpt>
      <trkpt lat="49.38598" lon="-1.60034">
        <ele>10</ele>
        <time>2021-11-25T14:20:34Z</time>
      </trkpt>
      <trkpt lat="49.38599" lon="-1.60025">
        <ele>9.5</ele>
        <time>2021-11-25T14:20:40Z</time>
      </trkpt>
      <trkpt lat="49.38601" lon="-1.60017">
        <ele>8.8</ele>
        <time>2021-11-25T14:20:46Z</time>
      </trkpt>
      <trkpt lat="49.38603" lon="-1.6001">
        <ele>8.5</ele>
        <time>2021-11-25T14:20:50Z</time>
      </trkpt>
      <trkpt lat="49.38605" lon="-1.60004">
        <ele>8.3</ele>
        <time>2021-11-25T14:20:54Z</time>
      </trkpt>
      <trkpt lat="49.38609" lon="-1.59997">
        <ele>8</ele>
        <time>2021-11-25T14:21:04Z</time>
      </trkpt>
      <trkpt lat="49.38611" lon="-1.5999">
        <ele>8</ele>
        <time>2021-11-25T14:21:08Z</time>
      </trkpt>
      <trkpt lat="49.38614" lon="-1.59983">
        <ele>8</ele>
        <time>2021-11-25T14:21:14Z</time>
      </trkpt>
      <trkpt lat="49.38616" lon="-1.59977">
        <ele>5.9</ele>
        <time>2021-11-25T14:21:22Z</time>
      </trkpt>
      <trkpt lat="49.38618" lon="-1.5997">
        <ele>4.6</ele>
        <time>2021-11-25T14:21:26Z</time>
      </trkpt>
      <trkpt lat="49.38621" lon="-1.59964">
        <ele>4.3</ele>
        <time>2021-11-25T14:21:32Z</time>
      </trkpt>
      <trkpt lat="49.38623" lon="-1.59956">
        <ele>4</ele>
        <time>2021-11-25T14:21:37Z</time>
      </trkpt>
      <trkpt lat="49.38625" lon="-1.59949">
        <ele>3.8</ele>
        <time>2021-11-25T14:21:42Z</time>
      </trkpt>
      <trkpt lat="49.38626" lon="-1.59942">
        <ele>3.6</ele>
        <time>2021-11-25T14:21:46Z</time>
      </trkpt>
      <trkpt lat="49.38626" lon="-1.59935">
        <ele>3.9</ele>
        <time>2021-11-25T14:21:50Z</time>
      </trkpt>
      <trkpt lat="49.38625" lon="-1.59928">
        <ele>4.5</ele>
        <time>2021-11-25T14:21:54Z</time>
      </trkpt>
      <trkpt lat="49.38625" lon="-1.5992">
        <ele>5.6</ele>
        <time>2021-11-25T14:21:58Z</time>
      </trkpt>
      <trkpt lat="49.38624" lon="-1.59912">
        <ele>7.9</ele>
        <time>2021-11-25T14:22:02Z</time>
      </trkpt>
      <trkpt lat="49.38624" lon="-1.59904">
        <ele>10.1</ele>
        <time>2021-11-25T14:22:07Z</time>
      </trkpt>
      <trkpt lat="49.38626" lon="-1.59896">
        <ele>11.8</ele>
        <time>2021-11-25T14:22:13Z</time>
      </trkpt>
      <trkpt lat="49.38628" lon="-1.59888">
        <ele>11.9</ele>
        <time>2021-11-25T14:22:18Z</time>
      </trkpt>
      <trkpt lat="49.3863" lon="-1.59881">
        <ele>11.4</ele>
        <time>2021-11-25T14:22:22Z</time>
      </trkpt>
      <trkpt lat="49.38631" lon="-1.59872">
        <ele>11</ele>
        <time>2021-11-25T14:22:26Z</time>
      </trkpt>
      <trkpt lat="49.38631" lon="-1.59865">
        <ele>11.1</ele>
        <time>2021-11-25T14:22:30Z</time>
      </trkpt>
      <trkpt lat="49.38632" lon="-1.59858">
        <ele>11.4</ele>
        <time>2021-11-25T14:22:35Z</time>
      </trkpt>
      <trkpt lat="49.38632" lon="-1.59849">
        <ele>12.1</ele>
        <time>2021-11-25T14:22:40Z</time>
      </trkpt>
      <trkpt lat="49.38633" lon="-1.59842">
        <ele>12.8</ele>
        <time>2021-11-25T14:22:44Z</time>
      </trkpt>
      <trkpt lat="49.38634" lon="-1.59833">
        <ele>12.9</ele>
        <time>2021-11-25T14:22:50Z</time>
      </trkpt>
      <trkpt lat="49.38634" lon="-1.59824">
        <ele>12.8</ele>
        <time>2021-11-25T14:22:54Z</time>
      </trkpt>
      <trkpt lat="49.38633" lon="-1.59816">
        <ele>13</ele>
        <time>2021-11-25T14:22:58Z</time>
      </trkpt>
      <trkpt lat="49.38639" lon="-1.59811">
        <ele>16</ele>
        <time>2021-11-25T14:23:06Z</time>
      </trkpt>
      <trkpt lat="49.38644" lon="-1.59812">
        <ele>17.4</ele>
        <time>2021-11-25T14:23:10Z</time>
      </trkpt>
      <trkpt lat="49.38649" lon="-1.59809">
        <ele>16.8</ele>
        <time>2021-11-25T14:23:16Z</time>
      </trkpt>
      <trkpt lat="49.38654" lon="-1.59807">
        <ele>13.4</ele>
        <time>2021-11-25T14:23:34Z</time>
      </trkpt>
      <trkpt lat="49.3866" lon="-1.59807">
        <ele>11.5</ele>
        <time>2021-11-25T14:23:40Z</time>
      </trkpt>
      <trkpt lat="49.38666" lon="-1.59811">
        <ele>9.1</ele>
        <time>2021-11-25T14:23:46Z</time>
      </trkpt>
      <trkpt lat="49.3867" lon="-1.59815">
        <ele>7.8</ele>
        <time>2021-11-25T14:23:52Z</time>
      </trkpt>
      <trkpt lat="49.38675" lon="-1.59812">
        <ele>10.1</ele>
        <time>2021-11-25T14:25:26Z</time>
      </trkpt>
      <trkpt lat="49.3868" lon="-1.59814">
        <ele>10.7</ele>
        <time>2021-11-25T14:25:30Z</time>
      </trkpt>
      <trkpt lat="49.38687" lon="-1.59816">
        <ele>10.9</ele>
        <time>2021-11-25T14:25:36Z</time>
      </trkpt>
      <trkpt lat="49.38691" lon="-1.59815">
        <ele>10.4</ele>
        <time>2021-11-25T14:25:40Z</time>
      </trkpt>
      <trkpt lat="49.38696" lon="-1.59814">
        <ele>9.3</ele>
        <time>2021-11-25T14:25:44Z</time>
      </trkpt>
      <trkpt lat="49.38702" lon="-1.59814">
        <ele>8.6</ele>
        <time>2021-11-25T14:25:48Z</time>
      </trkpt>
      <trkpt lat="49.38707" lon="-1.59813">
        <ele>7.9</ele>
        <time>2021-11-25T14:25:58Z</time>
      </trkpt>
      <trkpt lat="49.38713" lon="-1.59814">
        <ele>8.8</ele>
        <time>2021-11-25T14:26:04Z</time>
      </trkpt>
      <trkpt lat="49.38719" lon="-1.59817">
        <ele>10.1</ele>
        <time>2021-11-25T14:26:08Z</time>
      </trkpt>
      <trkpt lat="49.38725" lon="-1.59818">
        <ele>10.8</ele>
        <time>2021-11-25T14:26:11Z</time>
      </trkpt>
      <trkpt lat="49.38729" lon="-1.59819">
        <ele>11.4</ele>
        <time>2021-11-25T14:26:14Z</time>
      </trkpt>
      <trkpt lat="49.38734" lon="-1.59819">
        <ele>11.9</ele>
        <time>2021-11-25T14:26:18Z</time>
      </trkpt>
      <trkpt lat="49.38738" lon="-1.59819">
        <ele>11.9</ele>
        <time>2021-11-25T14:26:22Z</time>
      </trkpt>
      <trkpt lat="49.38746" lon="-1.5982">
        <ele>11.8</ele>
        <time>2021-11-25T14:26:26Z</time>
      </trkpt>
      <trkpt lat="49.38753" lon="-1.59822">
        <ele>11.6</ele>
        <time>2021-11-25T14:26:30Z</time>
      </trkpt>
      <trkpt lat="49.3876" lon="-1.59823">
        <ele>11.4</ele>
        <time>2021-11-25T14:26:34Z</time>
      </trkpt>
      <trkpt lat="49.38764" lon="-1.59822">
        <ele>11.3</ele>
        <time>2021-11-25T14:26:38Z</time>
      </trkpt>
      <trkpt lat="49.38769" lon="-1.5982">
        <ele>12.4</ele>
        <time>2021-11-25T14:26:48Z</time>
      </trkpt>
      <trkpt lat="49.38772" lon="-1.59827">
        <ele>1.5</ele>
        <time>2021-11-25T14:28:56Z</time>
      </trkpt>
      <trkpt lat="49.38777" lon="-1.59826">
        <ele>-1.3</ele>
        <time>2021-11-25T14:29:01Z</time>
      </trkpt>
      <trkpt lat="49.38784" lon="-1.59823">
        <ele>-1</ele>
        <time>2021-11-25T14:29:06Z</time>
      </trkpt>
      <trkpt lat="49.38788" lon="-1.59824">
        <ele>0.2</ele>
        <time>2021-11-25T14:29:14Z</time>
      </trkpt>
      <trkpt lat="49.38793" lon="-1.59829">
        <ele>0.9</ele>
        <time>2021-11-25T14:29:20Z</time>
      </trkpt>
      <trkpt lat="49.38792" lon="-1.59838">
        <ele>2</ele>
        <time>2021-11-25T14:29:30Z</time>
      </trkpt>
      <trkpt lat="49.38792" lon="-1.59847">
        <ele>3.9</ele>
        <time>2021-11-25T14:29:46Z</time>
      </trkpt>
      <trkpt lat="49.38791" lon="-1.59854">
        <ele>6.3</ele>
        <time>2021-11-25T14:29:52Z</time>
      </trkpt>
      <trkpt lat="49.3879" lon="-1.59862">
        <ele>7.4</ele>
        <time>2021-11-25T14:29:56Z</time>
      </trkpt>
      <trkpt lat="49.38786" lon="-1.5987">
        <ele>8.6</ele>
        <time>2021-11-25T14:30:02Z</time>
      </trkpt>
      <trkpt lat="49.38784" lon="-1.59877">
        <ele>9.6</ele>
        <time>2021-11-25T14:30:07Z</time>
      </trkpt>
      <trkpt lat="49.38782" lon="-1.59884">
        <ele>10.4</ele>
        <time>2021-11-25T14:30:12Z</time>
      </trkpt>
      <trkpt lat="49.38778" lon="-1.5989">
        <ele>10.6</ele>
        <time>2021-11-25T14:30:16Z</time>
      </trkpt>
      <trkpt lat="49.38775" lon="-1.59896">
        <ele>10.4</ele>
        <time>2021-11-25T14:30:20Z</time>
      </trkpt>
      <trkpt lat="49.38772" lon="-1.59904">
        <ele>9.5</ele>
        <time>2021-11-25T14:30:26Z</time>
      </trkpt>
      <trkpt lat="49.38771" lon="-1.59911">
        <ele>8.6</ele>
        <time>2021-11-25T14:30:30Z</time>
      </trkpt>
      <trkpt lat="49.38769" lon="-1.59918">
        <ele>7.1</ele>
        <time>2021-11-25T14:30:35Z</time>
      </trkpt>
      <trkpt lat="49.38767" lon="-1.59927">
        <ele>5.5</ele>
        <time>2021-11-25T14:30:40Z</time>
      </trkpt>
      <trkpt lat="49.38764" lon="-1.59935">
        <ele>4.8</ele>
        <time>2021-11-25T14:30:46Z</time>
      </trkpt>
      <trkpt lat="49.38762" lon="-1.59943">
        <ele>3.9</ele>
        <time>2021-11-25T14:30:52Z</time>
      </trkpt>
      <trkpt lat="49.38761" lon="-1.59951">
        <ele>2.5</ele>
        <time>2021-11-25T14:30:56Z</time>
      </trkpt>
      <trkpt lat="49.38759" lon="-1.59958">
        <ele>1.1</ele>
        <time>2021-11-25T14:31:01Z</time>
      </trkpt>
      <trkpt lat="49.38761" lon="-1.59965">
        <ele>-0.4</ele>
        <time>2021-11-25T14:31:07Z</time>
      </trkpt>
      <trkpt lat="49.38765" lon="-1.5997">
        <ele>-2.6</ele>
        <time>2021-11-25T14:31:14Z</time>
      </trkpt>
      <trkpt lat="49.3877" lon="-1.59975">
        <ele>-3.4</ele>
        <time>2021-11-25T14:31:22Z</time>
      </trkpt>
      <trkpt lat="49.38773" lon="-1.59981">
        <ele>-3.8</ele>
        <time>2021-11-25T14:31:27Z</time>
      </trkpt>
      <trkpt lat="49.38776" lon="-1.59986">
        <ele>-3.9</ele>
        <time>2021-11-25T14:31:32Z</time>
      </trkpt>
      <trkpt lat="49.38781" lon="-1.59992">
        <ele>-3.9</ele>
        <time>2021-11-25T14:31:38Z</time>
      </trkpt>
      <trkpt lat="49.38785" lon="-1.59996">
        <ele>-3.8</ele>
        <time>2021-11-25T14:31:42Z</time>
      </trkpt>
      <trkpt lat="49.38789" lon="-1.60001">
        <ele>-3.6</ele>
        <time>2021-11-25T14:31:46Z</time>
      </trkpt>
      <trkpt lat="49.38791" lon="-1.6001">
        <ele>-3.1</ele>
        <time>2021-11-25T14:31:52Z</time>
      </trkpt>
      <trkpt lat="49.38787" lon="-1.60016">
        <ele>-1</ele>
        <time>2021-11-25T14:32:04Z</time>
      </trkpt>
      <trkpt lat="49.38784" lon="-1.6002">
        <ele>-0.1</ele>
        <time>2021-11-25T14:32:11Z</time>
      </trkpt>
      <trkpt lat="49.38781" lon="-1.60029">
        <ele>-0.3</ele>
        <time>2021-11-25T14:32:18Z</time>
      </trkpt>
      <trkpt lat="49.38787" lon="-1.60028">
        <ele>0.1</ele>
        <time>2021-11-25T14:32:40Z</time>
      </trkpt>
      <trkpt lat="49.38784" lon="-1.60036">
        <ele>0.2</ele>
        <time>2021-11-25T14:33:00Z</time>
      </trkpt>
      <trkpt lat="49.38786" lon="-1.60043">
        <ele>2.9</ele>
        <time>2021-11-25T14:33:19Z</time>
      </trkpt>
      <trkpt lat="49.38783" lon="-1.60049">
        <ele>3.7</ele>
        <time>2021-11-25T14:33:26Z</time>
      </trkpt>
      <trkpt lat="49.3878" lon="-1.60056">
        <ele>4.4</ele>
        <time>2021-11-25T14:33:32Z</time>
      </trkpt>
      <trkpt lat="49.38778" lon="-1.60065">
        <ele>5</ele>
        <time>2021-11-25T14:33:38Z</time>
      </trkpt>
      <trkpt lat="49.38778" lon="-1.60072">
        <ele>5.2</ele>
        <time>2021-11-25T14:33:42Z</time>
      </trkpt>
      <trkpt lat="49.38776" lon="-1.60081">
        <ele>5.4</ele>
        <time>2021-11-25T14:33:48Z</time>
      </trkpt>
      <trkpt lat="49.38776" lon="-1.60089">
        <ele>5.6</ele>
        <time>2021-11-25T14:33:53Z</time>
      </trkpt>
      <trkpt lat="49.38774" lon="-1.60097">
        <ele>6</ele>
        <time>2021-11-25T14:33:58Z</time>
      </trkpt>
      <trkpt lat="49.38772" lon="-1.60106">
        <ele>6.5</ele>
        <time>2021-11-25T14:34:04Z</time>
      </trkpt>
      <trkpt lat="49.38772" lon="-1.60113">
        <ele>6.6</ele>
        <time>2021-11-25T14:34:10Z</time>
      </trkpt>
      <trkpt lat="49.38772" lon="-1.6012">
        <ele>6.6</ele>
        <time>2021-11-25T14:34:16Z</time>
      </trkpt>
      <trkpt lat="49.3877" lon="-1.6013">
        <ele>6.4</ele>
        <time>2021-11-25T14:34:22Z</time>
      </trkpt>
      <trkpt lat="49.38768" lon="-1.60137">
        <ele>6.4</ele>
        <time>2021-11-25T14:34:26Z</time>
      </trkpt>
      <trkpt lat="49.38768" lon="-1.60145">
        <ele>6.2</ele>
        <time>2021-11-25T14:34:31Z</time>
      </trkpt>
      <trkpt lat="49.38769" lon="-1.60153">
        <ele>5.9</ele>
        <time>2021-11-25T14:34:36Z</time>
      </trkpt>
      <trkpt lat="49.38767" lon="-1.60161">
        <ele>4.5</ele>
        <time>2021-11-25T14:35:08Z</time>
      </trkpt>
      <trkpt lat="49.38764" lon="-1.60167">
        <ele>5</ele>
        <time>2021-11-25T14:35:12Z</time>
      </trkpt>
      <trkpt lat="49.38763" lon="-1.60174">
        <ele>5.6</ele>
        <time>2021-11-25T14:35:16Z</time>
      </trkpt>
      <trkpt lat="49.38763" lon="-1.60183">
        <ele>5.9</ele>
        <time>2021-11-25T14:35:22Z</time>
      </trkpt>
      <trkpt lat="49.38762" lon="-1.60191">
        <ele>5.6</ele>
        <time>2021-11-25T14:35:29Z</time>
      </trkpt>
      <trkpt lat="49.38767" lon="-1.60198">
        <ele>5.1</ele>
        <time>2021-11-25T14:35:37Z</time>
      </trkpt>
      <trkpt lat="49.38772" lon="-1.60201">
        <ele>5.2</ele>
        <time>2021-11-25T14:35:48Z</time>
      </trkpt>
      <trkpt lat="49.38777" lon="-1.60203">
        <ele>5.6</ele>
        <time>2021-11-25T14:35:53Z</time>
      </trkpt>
      <trkpt lat="49.38781" lon="-1.60206">
        <ele>6.2</ele>
        <time>2021-11-25T14:35:57Z</time>
      </trkpt>
      <trkpt lat="49.38786" lon="-1.60209">
        <ele>7.7</ele>
        <time>2021-11-25T14:36:03Z</time>
      </trkpt>
      <trkpt lat="49.38792" lon="-1.6021">
        <ele>8.9</ele>
        <time>2021-11-25T14:36:10Z</time>
      </trkpt>
      <trkpt lat="49.38798" lon="-1.60213">
        <ele>9</ele>
        <time>2021-11-25T14:36:16Z</time>
      </trkpt>
      <trkpt lat="49.38803" lon="-1.60213">
        <ele>6.3</ele>
        <time>2021-11-25T14:36:34Z</time>
      </trkpt>
      <trkpt lat="49.38809" lon="-1.60215">
        <ele>6</ele>
        <time>2021-11-25T14:36:40Z</time>
      </trkpt>
      <trkpt lat="49.38815" lon="-1.60216">
        <ele>6.4</ele>
        <time>2021-11-25T14:36:46Z</time>
      </trkpt>
      <trkpt lat="49.38821" lon="-1.60218">
        <ele>7.8</ele>
        <time>2021-11-25T14:36:52Z</time>
      </trkpt>
      <trkpt lat="49.38827" lon="-1.60219">
        <ele>9.8</ele>
        <time>2021-11-25T14:36:58Z</time>
      </trkpt>
      <trkpt lat="49.38832" lon="-1.60218">
        <ele>11.5</ele>
        <time>2021-11-25T14:37:04Z</time>
      </trkpt>
      <trkpt lat="49.38837" lon="-1.6022">
        <ele>13.1</ele>
        <time>2021-11-25T14:37:10Z</time>
      </trkpt>
      <trkpt lat="49.38842" lon="-1.60222">
        <ele>13.7</ele>
        <time>2021-11-25T14:37:14Z</time>
      </trkpt>
      <trkpt lat="49.38847" lon="-1.60224">
        <ele>14.6</ele>
        <time>2021-11-25T14:37:18Z</time>
      </trkpt>
      <trkpt lat="49.38851" lon="-1.60227">
        <ele>15.2</ele>
        <time>2021-11-25T14:37:22Z</time>
      </trkpt>
      <trkpt lat="49.38856" lon="-1.60228">
        <ele>16.6</ele>
        <time>2021-11-25T14:37:26Z</time>
      </trkpt>
      <trkpt lat="49.38862" lon="-1.6023">
        <ele>17.1</ele>
        <time>2021-11-25T14:37:32Z</time>
      </trkpt>
      <trkpt lat="49.38866" lon="-1.6023">
        <ele>16.8</ele>
        <time>2021-11-25T14:37:38Z</time>
      </trkpt>
      <trkpt lat="49.38871" lon="-1.60231">
        <ele>16.9</ele>
        <time>2021-11-25T14:37:44Z</time>
      </trkpt>
      <trkpt lat="49.38876" lon="-1.60233">
        <ele>17.5</ele>
        <time>2021-11-25T14:37:52Z</time>
      </trkpt>
      <trkpt lat="49.38882" lon="-1.60235">
        <ele>17.6</ele>
        <time>2021-11-25T14:37:58Z</time>
      </trkpt>
      <trkpt lat="49.38887" lon="-1.60237">
        <ele>17.6</ele>
        <time>2021-11-25T14:38:02Z</time>
      </trkpt>
      <trkpt lat="49.38893" lon="-1.60238">
        <ele>17.8</ele>
        <time>2021-11-25T14:38:07Z</time>
      </trkpt>
      <trkpt lat="49.38899" lon="-1.60238">
        <ele>18</ele>
        <time>2021-11-25T14:38:12Z</time>
      </trkpt>
      <trkpt lat="49.38903" lon="-1.60239">
        <ele>18</ele>
        <time>2021-11-25T14:38:16Z</time>
      </trkpt>
      <trkpt lat="49.38908" lon="-1.60244">
        <ele>17.6</ele>
        <time>2021-11-25T14:38:20Z</time>
      </trkpt>
      <trkpt lat="49.38911" lon="-1.60252">
        <ele>16.6</ele>
        <time>2021-11-25T14:38:26Z</time>
      </trkpt>
      <trkpt lat="49.38911" lon="-1.60259">
        <ele>15.8</ele>
        <time>2021-11-25T14:38:31Z</time>
      </trkpt>
      <trkpt lat="49.38909" lon="-1.60265">
        <ele>14.8</ele>
        <time>2021-11-25T14:38:36Z</time>
      </trkpt>
      <trkpt lat="49.38908" lon="-1.60273">
        <ele>14</ele>
        <time>2021-11-25T14:38:40Z</time>
      </trkpt>
      <trkpt lat="49.38908" lon="-1.6028">
        <ele>12.9</ele>
        <time>2021-11-25T14:38:44Z</time>
      </trkpt>
      <trkpt lat="49.38908" lon="-1.60288">
        <ele>12.3</ele>
        <time>2021-11-25T14:38:49Z</time>
      </trkpt>
      <trkpt lat="49.38907" lon="-1.60296">
        <ele>12.6</ele>
        <time>2021-11-25T14:38:56Z</time>
      </trkpt>
      <trkpt lat="49.38906" lon="-1.60303">
        <ele>12.8</ele>
        <time>2021-11-25T14:39:02Z</time>
      </trkpt>
      <trkpt lat="49.38906" lon="-1.60312">
        <ele>13</ele>
        <time>2021-11-25T14:39:08Z</time>
      </trkpt>
      <trkpt lat="49.38907" lon="-1.60321">
        <ele>13.7</ele>
        <time>2021-11-25T14:39:14Z</time>
      </trkpt>
      <trkpt lat="49.38908" lon="-1.60328">
        <ele>14.6</ele>
        <time>2021-11-25T14:39:18Z</time>
      </trkpt>
      <trkpt lat="49.38909" lon="-1.60336">
        <ele>15.5</ele>
        <time>2021-11-25T14:39:22Z</time>
      </trkpt>
      <trkpt lat="49.38912" lon="-1.60342">
        <ele>15.6</ele>
        <time>2021-11-25T14:39:43Z</time>
      </trkpt>
      <trkpt lat="49.38915" lon="-1.60347">
        <ele>16.5</ele>
        <time>2021-11-25T14:39:52Z</time>
      </trkpt>
      <trkpt lat="49.38916" lon="-1.60354">
        <ele>15.7</ele>
        <time>2021-11-25T14:40:02Z</time>
      </trkpt>
      <trkpt lat="49.38916" lon="-1.60361">
        <ele>16.1</ele>
        <time>2021-11-25T14:40:18Z</time>
      </trkpt>
      <trkpt lat="49.38916" lon="-1.60369">
        <ele>17.3</ele>
        <time>2021-11-25T14:40:25Z</time>
      </trkpt>
      <trkpt lat="49.38916" lon="-1.60376">
        <ele>18</ele>
        <time>2021-11-25T14:40:30Z</time>
      </trkpt>
      <trkpt lat="49.3892" lon="-1.60381">
        <ele>18.5</ele>
        <time>2021-11-25T14:40:36Z</time>
      </trkpt>
      <trkpt lat="49.38926" lon="-1.60383">
        <ele>18.7</ele>
        <time>2021-11-25T14:40:42Z</time>
      </trkpt>
      <trkpt lat="49.38928" lon="-1.6039">
        <ele>17.2</ele>
        <time>2021-11-25T14:41:34Z</time>
      </trkpt>
      <trkpt lat="49.38926" lon="-1.604">
        <ele>17.9</ele>
        <time>2021-11-25T14:41:40Z</time>
      </trkpt>
      <trkpt lat="49.38927" lon="-1.60407">
        <ele>19.2</ele>
        <time>2021-11-25T14:41:46Z</time>
      </trkpt>
      <trkpt lat="49.38931" lon="-1.60409">
        <ele>19.4</ele>
        <time>2021-11-25T14:41:50Z</time>
      </trkpt>
      <trkpt lat="49.38937" lon="-1.60412">
        <ele>19.5</ele>
        <time>2021-11-25T14:41:56Z</time>
      </trkpt>
      <trkpt lat="49.38942" lon="-1.60416">
        <ele>19.3</ele>
        <time>2021-11-25T14:42:00Z</time>
      </trkpt>
      <trkpt lat="49.38946" lon="-1.60422">
        <ele>19.1</ele>
        <time>2021-11-25T14:42:05Z</time>
      </trkpt>
      <trkpt lat="49.38949" lon="-1.6043">
        <ele>18.7</ele>
        <time>2021-11-25T14:42:10Z</time>
      </trkpt>
      <trkpt lat="49.38953" lon="-1.60436">
        <ele>18.5</ele>
        <time>2021-11-25T14:42:14Z</time>
      </trkpt>
      <trkpt lat="49.38953" lon="-1.60444">
        <ele>18.5</ele>
        <time>2021-11-25T14:42:20Z</time>
      </trkpt>
      <trkpt lat="49.38953" lon="-1.60451">
        <ele>18.5</ele>
        <time>2021-11-25T14:42:25Z</time>
      </trkpt>
      <trkpt lat="49.38954" lon="-1.60459">
        <ele>18</ele>
        <time>2021-11-25T14:42:32Z</time>
      </trkpt>
      <trkpt lat="49.38956" lon="-1.60465">
        <ele>17.5</ele>
        <time>2021-11-25T14:42:37Z</time>
      </trkpt>
      <trkpt lat="49.38954" lon="-1.60473">
        <ele>16.8</ele>
        <time>2021-11-25T14:42:42Z</time>
      </trkpt>
      <trkpt lat="49.38951" lon="-1.60478">
        <ele>15.9</ele>
        <time>2021-11-25T14:43:00Z</time>
      </trkpt>
      <trkpt lat="49.38946" lon="-1.60482">
        <ele>16.1</ele>
        <time>2021-11-25T14:43:06Z</time>
      </trkpt>
      <trkpt lat="49.38944" lon="-1.6049">
        <ele>16.1</ele>
        <time>2021-11-25T14:43:32Z</time>
      </trkpt>
      <trkpt lat="49.38944" lon="-1.60498">
        <ele>15.5</ele>
        <time>2021-11-25T14:43:42Z</time>
      </trkpt>
      <trkpt lat="49.38943" lon="-1.60505">
        <ele>15.3</ele>
        <time>2021-11-25T14:43:48Z</time>
      </trkpt>
      <trkpt lat="49.38943" lon="-1.60512">
        <ele>15.3</ele>
        <time>2021-11-25T14:43:54Z</time>
      </trkpt>
      <trkpt lat="49.38944" lon="-1.6052">
        <ele>15.5</ele>
        <time>2021-11-25T14:43:59Z</time>
      </trkpt>
      <trkpt lat="49.38945" lon="-1.60529">
        <ele>15.8</ele>
        <time>2021-11-25T14:44:04Z</time>
      </trkpt>
      <trkpt lat="49.38945" lon="-1.60536">
        <ele>16</ele>
        <time>2021-11-25T14:44:10Z</time>
      </trkpt>
      <trkpt lat="49.38945" lon="-1.60545">
        <ele>15.2</ele>
        <time>2021-11-25T14:44:16Z</time>
      </trkpt>
      <trkpt lat="49.38944" lon="-1.60555">
        <ele>14.1</ele>
        <time>2021-11-25T14:44:22Z</time>
      </trkpt>
      <trkpt lat="49.38944" lon="-1.60562">
        <ele>13.3</ele>
        <time>2021-11-25T14:44:26Z</time>
      </trkpt>
      <trkpt lat="49.38945" lon="-1.60569">
        <ele>12</ele>
        <time>2021-11-25T14:44:30Z</time>
      </trkpt>
      <trkpt lat="49.38944" lon="-1.60578">
        <ele>11.4</ele>
        <time>2021-11-25T14:44:36Z</time>
      </trkpt>
      <trkpt lat="49.38942" lon="-1.60585">
        <ele>11.5</ele>
        <time>2021-11-25T14:44:42Z</time>
      </trkpt>
      <trkpt lat="49.38938" lon="-1.60591">
        <ele>12.1</ele>
        <time>2021-11-25T14:44:48Z</time>
      </trkpt>
      <trkpt lat="49.38934" lon="-1.60596">
        <ele>13.2</ele>
        <time>2021-11-25T14:44:54Z</time>
      </trkpt>
      <trkpt lat="49.38932" lon="-1.60602">
        <ele>15.1</ele>
        <time>2021-11-25T14:45:02Z</time>
      </trkpt>
      <trkpt lat="49.38933" lon="-1.60612">
        <ele>15</ele>
        <time>2021-11-25T14:45:08Z</time>
      </trkpt>
      <trkpt lat="49.38934" lon="-1.6062">
        <ele>14.5</ele>
        <time>2021-11-25T14:45:12Z</time>
      </trkpt>
      <trkpt lat="49.38934" lon="-1.60627">
        <ele>13.9</ele>
        <time>2021-11-25T14:45:16Z</time>
      </trkpt>
      <trkpt lat="49.38934" lon="-1.60636">
        <ele>12.3</ele>
        <time>2021-11-25T14:45:22Z</time>
      </trkpt>
      <trkpt lat="49.38934" lon="-1.60646">
        <ele>10.9</ele>
        <time>2021-11-25T14:45:28Z</time>
      </trkpt>
      <trkpt lat="49.38932" lon="-1.60654">
        <ele>9.9</ele>
        <time>2021-11-25T14:45:34Z</time>
      </trkpt>
      <trkpt lat="49.3893" lon="-1.60662">
        <ele>9.2</ele>
        <time>2021-11-25T14:45:40Z</time>
      </trkpt>
      <trkpt lat="49.38933" lon="-1.60671">
        <ele>8.1</ele>
        <time>2021-11-25T14:45:52Z</time>
      </trkpt>
      <trkpt lat="49.38933" lon="-1.6068">
        <ele>7.8</ele>
        <time>2021-11-25T14:45:58Z</time>
      </trkpt>
      <trkpt lat="49.38929" lon="-1.60685">
        <ele>7.9</ele>
        <time>2021-11-25T14:46:02Z</time>
      </trkpt>
      <trkpt lat="49.38924" lon="-1.60685">
        <ele>8.5</ele>
        <time>2021-11-25T14:46:07Z</time>
      </trkpt>
      <trkpt lat="49.38924" lon="-1.60694">
        <ele>11.8</ele>
        <time>2021-11-25T14:46:20Z</time>
      </trkpt>
      <trkpt lat="49.38924" lon="-1.60702">
        <ele>12.4</ele>
        <time>2021-11-25T14:46:24Z</time>
      </trkpt>
      <trkpt lat="49.38925" lon="-1.60709">
        <ele>12.9</ele>
        <time>2021-11-25T14:46:28Z</time>
      </trkpt>
      <trkpt lat="49.38924" lon="-1.60717">
        <ele>13.8</ele>
        <time>2021-11-25T14:46:33Z</time>
      </trkpt>
      <trkpt lat="49.38923" lon="-1.60724">
        <ele>14.9</ele>
        <time>2021-11-25T14:46:38Z</time>
      </trkpt>
      <trkpt lat="49.38922" lon="-1.60734">
        <ele>15.7</ele>
        <time>2021-11-25T14:46:44Z</time>
      </trkpt>
      <trkpt lat="49.3892" lon="-1.60741">
        <ele>15.9</ele>
        <time>2021-11-25T14:46:49Z</time>
      </trkpt>
      <trkpt lat="49.38918" lon="-1.60748">
        <ele>15.5</ele>
        <time>2021-11-25T14:46:54Z</time>
      </trkpt>
      <trkpt lat="49.38918" lon="-1.60756">
        <ele>15.2</ele>
        <time>2021-11-25T14:46:59Z</time>
      </trkpt>
      <trkpt lat="49.38919" lon="-1.60764">
        <ele>15</ele>
        <time>2021-11-25T14:47:04Z</time>
      </trkpt>
      <trkpt lat="49.38919" lon="-1.60773">
        <ele>14.9</ele>
        <time>2021-11-25T14:47:10Z</time>
      </trkpt>
      <trkpt lat="49.38921" lon="-1.6078">
        <ele>14.6</ele>
        <time>2021-11-25T14:47:16Z</time>
      </trkpt>
      <trkpt lat="49.38923" lon="-1.60787">
        <ele>13.9</ele>
        <time>2021-11-25T14:47:20Z</time>
      </trkpt>
      <trkpt lat="49.38922" lon="-1.60795">
        <ele>13</ele>
        <time>2021-11-25T14:47:25Z</time>
      </trkpt>
      <trkpt lat="49.38918" lon="-1.60803">
        <ele>12.6</ele>
        <time>2021-11-25T14:47:30Z</time>
      </trkpt>
      <trkpt lat="49.38915" lon="-1.6081">
        <ele>12.7</ele>
        <time>2021-11-25T14:47:36Z</time>
      </trkpt>
      <trkpt lat="49.38913" lon="-1.60817">
        <ele>13.3</ele>
        <time>2021-11-25T14:47:41Z</time>
      </trkpt>
      <trkpt lat="49.38909" lon="-1.60825">
        <ele>13.3</ele>
        <time>2021-11-25T14:47:46Z</time>
      </trkpt>
      <trkpt lat="49.38908" lon="-1.60832">
        <ele>13.2</ele>
        <time>2021-11-25T14:47:50Z</time>
      </trkpt>
      <trkpt lat="49.38906" lon="-1.60839">
        <ele>12.8</ele>
        <time>2021-11-25T14:47:55Z</time>
      </trkpt>
      <trkpt lat="49.38904" lon="-1.60847">
        <ele>11.7</ele>
        <time>2021-11-25T14:48:10Z</time>
      </trkpt>
      <trkpt lat="49.38901" lon="-1.60853">
        <ele>11.7</ele>
        <time>2021-11-25T14:48:14Z</time>
      </trkpt>
      <trkpt lat="49.38899" lon="-1.60861">
        <ele>11.4</ele>
        <time>2021-11-25T14:48:19Z</time>
      </trkpt>
      <trkpt lat="49.38898" lon="-1.6087">
        <ele>10.7</ele>
        <time>2021-11-25T14:48:25Z</time>
      </trkpt>
      <trkpt lat="49.38894" lon="-1.60876">
        <ele>9.7</ele>
        <time>2021-11-25T14:48:35Z</time>
      </trkpt>
      <trkpt lat="49.38891" lon="-1.60881">
        <ele>9.5</ele>
        <time>2021-11-25T14:48:40Z</time>
      </trkpt>
      <trkpt lat="49.3889" lon="-1.60888">
        <ele>9.6</ele>
        <time>2021-11-25T14:48:44Z</time>
      </trkpt>
      <trkpt lat="49.38889" lon="-1.60895">
        <ele>10.6</ele>
        <time>2021-11-25T14:48:50Z</time>
      </trkpt>
      <trkpt lat="49.38887" lon="-1.60904">
        <ele>12</ele>
        <time>2021-11-25T14:48:56Z</time>
      </trkpt>
      <trkpt lat="49.38884" lon="-1.60911">
        <ele>12.9</ele>
        <time>2021-11-25T14:48:59Z</time>
      </trkpt>
      <trkpt lat="49.38882" lon="-1.60918">
        <ele>13.6</ele>
        <time>2021-11-25T14:49:04Z</time>
      </trkpt>
      <trkpt lat="49.38877" lon="-1.60915">
        <ele>13</ele>
        <time>2021-11-25T14:49:18Z</time>
      </trkpt>
      <trkpt lat="49.38873" lon="-1.6091">
        <ele>12.4</ele>
        <time>2021-11-25T14:49:24Z</time>
      </trkpt>
      <trkpt lat="49.38866" lon="-1.60909">
        <ele>12.3</ele>
        <time>2021-11-25T14:49:30Z</time>
      </trkpt>
      <trkpt lat="49.38861" lon="-1.60913">
        <ele>12.3</ele>
        <time>2021-11-25T14:49:34Z</time>
      </trkpt>
      <trkpt lat="49.38855" lon="-1.60917">
        <ele>12</ele>
        <time>2021-11-25T14:49:40Z</time>
      </trkpt>
      <trkpt lat="49.3885" lon="-1.60917">
        <ele>11.6</ele>
        <time>2021-11-25T14:49:44Z</time>
      </trkpt>
      <trkpt lat="49.38846" lon="-1.60913">
        <ele>11.6</ele>
        <time>2021-11-25T14:49:50Z</time>
      </trkpt>
      <trkpt lat="49.38841" lon="-1.60911">
        <ele>12.6</ele>
        <time>2021-11-25T14:49:55Z</time>
      </trkpt>
      <trkpt lat="49.38835" lon="-1.60911">
        <ele>13.5</ele>
        <time>2021-11-25T14:50:02Z</time>
      </trkpt>
      <trkpt lat="49.38829" lon="-1.60911">
        <ele>13.5</ele>
        <time>2021-11-25T14:50:08Z</time>
      </trkpt>
      <trkpt lat="49.38824" lon="-1.60911">
        <ele>13.4</ele>
        <time>2021-11-25T14:50:12Z</time>
      </trkpt>
      <trkpt lat="49.3882" lon="-1.6091">
        <ele>13.6</ele>
        <time>2021-11-25T14:50:16Z</time>
      </trkpt>
      <trkpt lat="49.38813" lon="-1.6091">
        <ele>14.3</ele>
        <time>2021-11-25T14:50:22Z</time>
      </trkpt>
      <trkpt lat="49.38809" lon="-1.60908">
        <ele>15</ele>
        <time>2021-11-25T14:50:26Z</time>
      </trkpt>
      <trkpt lat="49.38804" lon="-1.60905">
        <ele>15.3</ele>
        <time>2021-11-25T14:50:30Z</time>
      </trkpt>
      <trkpt lat="49.38799" lon="-1.60906">
        <ele>15.4</ele>
        <time>2021-11-25T14:50:36Z</time>
      </trkpt>
      <trkpt lat="49.38794" lon="-1.60908">
        <ele>15.1</ele>
        <time>2021-11-25T14:50:40Z</time>
      </trkpt>
      <trkpt lat="49.38789" lon="-1.60908">
        <ele>14.5</ele>
        <time>2021-11-25T14:50:44Z</time>
      </trkpt>
      <trkpt lat="49.38783" lon="-1.60911">
        <ele>13.4</ele>
        <time>2021-11-25T14:50:50Z</time>
      </trkpt>
      <trkpt lat="49.38778" lon="-1.60913">
        <ele>12.3</ele>
        <time>2021-11-25T14:50:56Z</time>
      </trkpt>
      <trkpt lat="49.38772" lon="-1.60907">
        <ele>12.2</ele>
        <time>2021-11-25T14:51:02Z</time>
      </trkpt>
      <trkpt lat="49.38769" lon="-1.60902">
        <ele>12.6</ele>
        <time>2021-11-25T14:51:06Z</time>
      </trkpt>
      <trkpt lat="49.38765" lon="-1.60896">
        <ele>13.3</ele>
        <time>2021-11-25T14:51:12Z</time>
      </trkpt>
      <trkpt lat="49.38761" lon="-1.60894">
        <ele>13.3</ele>
        <time>2021-11-25T14:51:17Z</time>
      </trkpt>
      <trkpt lat="49.38756" lon="-1.60895">
        <ele>13.1</ele>
        <time>2021-11-25T14:51:22Z</time>
      </trkpt>
      <trkpt lat="49.38751" lon="-1.60898">
        <ele>10.5</ele>
        <time>2021-11-25T14:51:36Z</time>
      </trkpt>
      <trkpt lat="49.38746" lon="-1.60901">
        <ele>10.3</ele>
        <time>2021-11-25T14:51:40Z</time>
      </trkpt>
      <trkpt lat="49.38741" lon="-1.60903">
        <ele>10.3</ele>
        <time>2021-11-25T14:51:44Z</time>
      </trkpt>
      <trkpt lat="49.38736" lon="-1.60905">
        <ele>10.2</ele>
        <time>2021-11-25T14:51:48Z</time>
      </trkpt>
      <trkpt lat="49.3873" lon="-1.60907">
        <ele>10.1</ele>
        <time>2021-11-25T14:51:52Z</time>
      </trkpt>
      <trkpt lat="49.38725" lon="-1.6091">
        <ele>9.5</ele>
        <time>2021-11-25T14:51:56Z</time>
      </trkpt>
      <trkpt lat="49.3872" lon="-1.6091">
        <ele>8.1</ele>
        <time>2021-11-25T14:52:02Z</time>
      </trkpt>
      <trkpt lat="49.38715" lon="-1.60909">
        <ele>6.9</ele>
        <time>2021-11-25T14:52:08Z</time>
      </trkpt>
      <trkpt lat="49.38709" lon="-1.60908">
        <ele>6.2</ele>
        <time>2021-11-25T14:52:14Z</time>
      </trkpt>
      <trkpt lat="49.38703" lon="-1.60906">
        <ele>6.1</ele>
        <time>2021-11-25T14:52:18Z</time>
      </trkpt>
      <trkpt lat="49.38698" lon="-1.60904">
        <ele>6.6</ele>
        <time>2021-11-25T14:52:22Z</time>
      </trkpt>
      <trkpt lat="49.38694" lon="-1.60902">
        <ele>8.3</ele>
        <time>2021-11-25T14:52:26Z</time>
      </trkpt>
      <trkpt lat="49.38688" lon="-1.60897">
        <ele>10.2</ele>
        <time>2021-11-25T14:52:31Z</time>
      </trkpt>
      <trkpt lat="49.38684" lon="-1.60891">
        <ele>11.5</ele>
        <time>2021-11-25T14:52:35Z</time>
      </trkpt>
      <trkpt lat="49.38681" lon="-1.60886">
        <ele>12.5</ele>
        <time>2021-11-25T14:52:40Z</time>
      </trkpt>
      <trkpt lat="49.38677" lon="-1.60881">
        <ele>12.9</ele>
        <time>2021-11-25T14:52:46Z</time>
      </trkpt>
      <trkpt lat="49.38672" lon="-1.60877">
        <ele>13</ele>
        <time>2021-11-25T14:52:52Z</time>
      </trkpt>
      <trkpt lat="49.38673" lon="-1.60867">
        <ele>13.4</ele>
        <time>2021-11-25T14:52:58Z</time>
      </trkpt>
      <trkpt lat="49.38676" lon="-1.6086">
        <ele>14.5</ele>
        <time>2021-11-25T14:53:05Z</time>
      </trkpt>
      <trkpt lat="49.38678" lon="-1.60854">
        <ele>15.2</ele>
        <time>2021-11-25T14:53:10Z</time>
      </trkpt>
      <trkpt lat="49.38679" lon="-1.60843">
        <ele>15.9</ele>
        <time>2021-11-25T14:53:16Z</time>
      </trkpt>
      <trkpt lat="49.38682" lon="-1.60836">
        <ele>16.3</ele>
        <time>2021-11-25T14:53:20Z</time>
      </trkpt>
      <trkpt lat="49.38686" lon="-1.60832">
        <ele>16.6</ele>
        <time>2021-11-25T14:53:24Z</time>
      </trkpt>
      <trkpt lat="49.3869" lon="-1.60828">
        <ele>16.7</ele>
        <time>2021-11-25T14:53:36Z</time>
      </trkpt>
      <trkpt lat="49.38695" lon="-1.60824">
        <ele>16.6</ele>
        <time>2021-11-25T14:53:49Z</time>
      </trkpt>
      <trkpt lat="49.387" lon="-1.60826">
        <ele>16.2</ele>
        <time>2021-11-25T14:53:54Z</time>
      </trkpt>
      <trkpt lat="49.38704" lon="-1.60821">
        <ele>14.6</ele>
        <time>2021-11-25T14:54:02Z</time>
      </trkpt>
      <trkpt lat="49.38705" lon="-1.60829">
        <ele>10.3</ele>
        <time>2021-11-25T14:54:25Z</time>
      </trkpt>
      <trkpt lat="49.38704" lon="-1.60837">
        <ele>9.4</ele>
        <time>2021-11-25T14:54:31Z</time>
      </trkpt>
      <trkpt lat="49.38702" lon="-1.60846">
        <ele>9.7</ele>
        <time>2021-11-25T14:54:36Z</time>
      </trkpt>
      <trkpt lat="49.387" lon="-1.60853">
        <ele>10.2</ele>
        <time>2021-11-25T14:54:40Z</time>
      </trkpt>
      <trkpt lat="49.387" lon="-1.6086">
        <ele>11.3</ele>
        <time>2021-11-25T14:54:44Z</time>
      </trkpt>
      <trkpt lat="49.387" lon="-1.60869">
        <ele>14.1</ele>
        <time>2021-11-25T14:54:52Z</time>
      </trkpt>
      <trkpt lat="49.38701" lon="-1.60862">
        <ele>15.5</ele>
        <time>2021-11-25T14:55:01Z</time>
      </trkpt>
      <trkpt lat="49.38702" lon="-1.60852">
        <ele>15</ele>
        <time>2021-11-25T14:55:06Z</time>
      </trkpt>
      <trkpt lat="49.38702" lon="-1.60844">
        <ele>14.2</ele>
        <time>2021-11-25T14:55:10Z</time>
      </trkpt>
      <trkpt lat="49.38703" lon="-1.60838">
        <ele>13.8</ele>
        <time>2021-11-25T14:55:16Z</time>
      </trkpt>
      <trkpt lat="49.38703" lon="-1.60831">
        <ele>14.5</ele>
        <time>2021-11-25T14:55:30Z</time>
      </trkpt>
      <trkpt lat="49.38705" lon="-1.60823">
        <ele>14.4</ele>
        <time>2021-11-25T14:55:35Z</time>
      </trkpt>
      <trkpt lat="49.38706" lon="-1.60812">
        <ele>14.4</ele>
        <time>2021-11-25T14:55:40Z</time>
      </trkpt>
      <trkpt lat="49.38709" lon="-1.60806">
        <ele>14.3</ele>
        <time>2021-11-25T14:55:46Z</time>
      </trkpt>
      <trkpt lat="49.38714" lon="-1.60805">
        <ele>13.8</ele>
        <time>2021-11-25T14:55:52Z</time>
      </trkpt>
      <trkpt lat="49.38714" lon="-1.60797">
        <ele>8.6</ele>
        <time>2021-11-25T14:56:20Z</time>
      </trkpt>
      <trkpt lat="49.38714" lon="-1.60789">
        <ele>8</ele>
        <time>2021-11-25T14:56:26Z</time>
      </trkpt>
      <trkpt lat="49.38714" lon="-1.60782">
        <ele>7.3</ele>
        <time>2021-11-25T14:56:30Z</time>
      </trkpt>
      <trkpt lat="49.38714" lon="-1.60774">
        <ele>6.5</ele>
        <time>2021-11-25T14:56:34Z</time>
      </trkpt>
      <trkpt lat="49.38714" lon="-1.60766">
        <ele>5.8</ele>
        <time>2021-11-25T14:56:38Z</time>
      </trkpt>
      <trkpt lat="49.38714" lon="-1.60759">
        <ele>3.6</ele>
        <time>2021-11-25T14:56:44Z</time>
      </trkpt>
      <trkpt lat="49.38714" lon="-1.60751">
        <ele>2.5</ele>
        <time>2021-11-25T14:56:49Z</time>
      </trkpt>
      <trkpt lat="49.38714" lon="-1.60742">
        <ele>2.7</ele>
        <time>2021-11-25T14:56:55Z</time>
      </trkpt>
      <trkpt lat="49.38713" lon="-1.60734">
        <ele>3.2</ele>
        <time>2021-11-25T14:57:00Z</time>
      </trkpt>
      <trkpt lat="49.38709" lon="-1.60728">
        <ele>2.9</ele>
        <time>2021-11-25T14:57:10Z</time>
      </trkpt>
      <trkpt lat="49.38705" lon="-1.60724">
        <ele>3.5</ele>
        <time>2021-11-25T14:57:16Z</time>
      </trkpt>
      <trkpt lat="49.38701" lon="-1.60721">
        <ele>4</ele>
        <time>2021-11-25T14:57:20Z</time>
      </trkpt>
      <trkpt lat="49.38699" lon="-1.60715">
        <ele>4</ele>
        <time>2021-11-25T14:57:25Z</time>
      </trkpt>
      <trkpt lat="49.38697" lon="-1.60708">
        <ele>3.3</ele>
        <time>2021-11-25T14:57:30Z</time>
      </trkpt>
      <trkpt lat="49.38697" lon="-1.60701">
        <ele>2.9</ele>
        <time>2021-11-25T14:57:34Z</time>
      </trkpt>
      <trkpt lat="49.38698" lon="-1.60693">
        <ele>2.4</ele>
        <time>2021-11-25T14:57:40Z</time>
      </trkpt>
      <trkpt lat="49.38698" lon="-1.60684">
        <ele>2.3</ele>
        <time>2021-11-25T14:57:46Z</time>
      </trkpt>
      <trkpt lat="49.38697" lon="-1.60675">
        <ele>4</ele>
        <time>2021-11-25T14:57:54Z</time>
      </trkpt>
      <trkpt lat="49.38699" lon="-1.60668">
        <ele>6.5</ele>
        <time>2021-11-25T14:58:04Z</time>
      </trkpt>
      <trkpt lat="49.38703" lon="-1.60662">
        <ele>6.4</ele>
        <time>2021-11-25T14:58:12Z</time>
      </trkpt>
      <trkpt lat="49.38708" lon="-1.60661">
        <ele>4.1</ele>
        <time>2021-11-25T14:59:13Z</time>
      </trkpt>
      <trkpt lat="49.38708" lon="-1.60654">
        <ele>4.4</ele>
        <time>2021-11-25T14:59:22Z</time>
      </trkpt>
      <trkpt lat="49.38708" lon="-1.60644">
        <ele>3.8</ele>
        <time>2021-11-25T14:59:29Z</time>
      </trkpt>
      <trkpt lat="49.38706" lon="-1.60634">
        <ele>3.2</ele>
        <time>2021-11-25T14:59:34Z</time>
      </trkpt>
      <trkpt lat="49.38703" lon="-1.60628">
        <ele>2.8</ele>
        <time>2021-11-25T14:59:40Z</time>
      </trkpt>
      <trkpt lat="49.38699" lon="-1.6062">
        <ele>-1</ele>
        <time>2021-11-25T15:00:12Z</time>
      </trkpt>
      <trkpt lat="49.38697" lon="-1.60613">
        <ele>-1.1</ele>
        <time>2021-11-25T15:00:16Z</time>
      </trkpt>
      <trkpt lat="49.38697" lon="-1.60604">
        <ele>-1.1</ele>
        <time>2021-11-25T15:00:22Z</time>
      </trkpt>
      <trkpt lat="49.38697" lon="-1.60594">
        <ele>-0.6</ele>
        <time>2021-11-25T15:00:28Z</time>
      </trkpt>
      <trkpt lat="49.38697" lon="-1.60585">
        <ele>1.1</ele>
        <time>2021-11-25T15:00:34Z</time>
      </trkpt>
      <trkpt lat="49.387" lon="-1.60579">
        <ele>3.3</ele>
        <time>2021-11-25T15:00:41Z</time>
      </trkpt>
      <trkpt lat="49.38705" lon="-1.60575">
        <ele>5</ele>
        <time>2021-11-25T15:00:48Z</time>
      </trkpt>
      <trkpt lat="49.38705" lon="-1.60565">
        <ele>5.8</ele>
        <time>2021-11-25T15:00:54Z</time>
      </trkpt>
      <trkpt lat="49.38707" lon="-1.60559">
        <ele>6.5</ele>
        <time>2021-11-25T15:00:58Z</time>
      </trkpt>
      <trkpt lat="49.3871" lon="-1.60553">
        <ele>7</ele>
        <time>2021-11-25T15:01:02Z</time>
      </trkpt>
      <trkpt lat="49.38715" lon="-1.60546">
        <ele>7.2</ele>
        <time>2021-11-25T15:01:07Z</time>
      </trkpt>
      <trkpt lat="49.38717" lon="-1.60539">
        <ele>7.5</ele>
        <time>2021-11-25T15:01:13Z</time>
      </trkpt>
      <trkpt lat="49.38719" lon="-1.60533">
        <ele>7.7</ele>
        <time>2021-11-25T15:01:17Z</time>
      </trkpt>
      <trkpt lat="49.38721" lon="-1.60525">
        <ele>7.7</ele>
        <time>2021-11-25T15:01:22Z</time>
      </trkpt>
      <trkpt lat="49.38724" lon="-1.6052">
        <ele>7.6</ele>
        <time>2021-11-25T15:01:26Z</time>
      </trkpt>
      <trkpt lat="49.38727" lon="-1.60514">
        <ele>7.3</ele>
        <time>2021-11-25T15:01:31Z</time>
      </trkpt>
      <trkpt lat="49.3873" lon="-1.60506">
        <ele>6.4</ele>
        <time>2021-11-25T15:01:38Z</time>
      </trkpt>
      <trkpt lat="49.3873" lon="-1.60496">
        <ele>5.8</ele>
        <time>2021-11-25T15:01:46Z</time>
      </trkpt>
      <trkpt lat="49.38732" lon="-1.60487">
        <ele>5.7</ele>
        <time>2021-11-25T15:01:50Z</time>
      </trkpt>
      <trkpt lat="49.38733" lon="-1.6048">
        <ele>5.7</ele>
        <time>2021-11-25T15:01:54Z</time>
      </trkpt>
      <trkpt lat="49.38734" lon="-1.60471">
        <ele>5.5</ele>
        <time>2021-11-25T15:01:59Z</time>
      </trkpt>
      <trkpt lat="49.38735" lon="-1.60461">
        <ele>5</ele>
        <time>2021-11-25T15:02:04Z</time>
      </trkpt>
      <trkpt lat="49.38737" lon="-1.60454">
        <ele>4.8</ele>
        <time>2021-11-25T15:02:10Z</time>
      </trkpt>
      <trkpt lat="49.38738" lon="-1.60446">
        <ele>5.3</ele>
        <time>2021-11-25T15:02:17Z</time>
      </trkpt>
      <trkpt lat="49.38738" lon="-1.60437">
        <ele>6.1</ele>
        <time>2021-11-25T15:02:23Z</time>
      </trkpt>
      <trkpt lat="49.3874" lon="-1.6043">
        <ele>7.1</ele>
        <time>2021-11-25T15:02:28Z</time>
      </trkpt>
      <trkpt lat="49.3874" lon="-1.60422">
        <ele>7.5</ele>
        <time>2021-11-25T15:02:32Z</time>
      </trkpt>
      <trkpt lat="49.3874" lon="-1.60414">
        <ele>7.7</ele>
        <time>2021-11-25T15:02:37Z</time>
      </trkpt>
      <trkpt lat="49.38741" lon="-1.60406">
        <ele>7.7</ele>
        <time>2021-11-25T15:02:42Z</time>
      </trkpt>
      <trkpt lat="49.3874" lon="-1.60399">
        <ele>7.8</ele>
        <time>2021-11-25T15:02:47Z</time>
      </trkpt>
      <trkpt lat="49.3874" lon="-1.60392">
        <ele>8.1</ele>
        <time>2021-11-25T15:02:52Z</time>
      </trkpt>
      <trkpt lat="49.38742" lon="-1.60386">
        <ele>8.8</ele>
        <time>2021-11-25T15:02:58Z</time>
      </trkpt>
      <trkpt lat="49.38747" lon="-1.60381">
        <ele>8.5</ele>
        <time>2021-11-25T15:03:20Z</time>
      </trkpt>
      <trkpt lat="49.38749" lon="-1.60375">
        <ele>7.7</ele>
        <time>2021-11-25T15:03:23Z</time>
      </trkpt>
      <trkpt lat="49.38749" lon="-1.60367">
        <ele>6.1</ele>
        <time>2021-11-25T15:03:30Z</time>
      </trkpt>
      <trkpt lat="49.3875" lon="-1.6036">
        <ele>5.3</ele>
        <time>2021-11-25T15:03:36Z</time>
      </trkpt>
      <trkpt lat="49.38749" lon="-1.6035">
        <ele>5.6</ele>
        <time>2021-11-25T15:03:46Z</time>
      </trkpt>
      <trkpt lat="49.38749" lon="-1.60343">
        <ele>5.8</ele>
        <time>2021-11-25T15:03:50Z</time>
      </trkpt>
      <trkpt lat="49.3875" lon="-1.60336">
        <ele>6.1</ele>
        <time>2021-11-25T15:03:54Z</time>
      </trkpt>
      <trkpt lat="49.38752" lon="-1.60327">
        <ele>6.4</ele>
        <time>2021-11-25T15:03:58Z</time>
      </trkpt>
      <trkpt lat="49.38754" lon="-1.60318">
        <ele>6.8</ele>
        <time>2021-11-25T15:04:02Z</time>
      </trkpt>
      <trkpt lat="49.38755" lon="-1.60308">
        <ele>7.4</ele>
        <time>2021-11-25T15:04:08Z</time>
      </trkpt>
      <trkpt lat="49.38756" lon="-1.60301">
        <ele>8.6</ele>
        <time>2021-11-25T15:04:14Z</time>
      </trkpt>
      <trkpt lat="49.38758" lon="-1.60293">
        <ele>9.6</ele>
        <time>2021-11-25T15:04:20Z</time>
      </trkpt>
      <trkpt lat="49.38759" lon="-1.60286">
        <ele>10.3</ele>
        <time>2021-11-25T15:04:24Z</time>
      </trkpt>
      <trkpt lat="49.3876" lon="-1.60277">
        <ele>10.7</ele>
        <time>2021-11-25T15:04:28Z</time>
      </trkpt>
      <trkpt lat="49.3876" lon="-1.60269">
        <ele>10.5</ele>
        <time>2021-11-25T15:04:32Z</time>
      </trkpt>
      <trkpt lat="49.38761" lon="-1.60258">
        <ele>9.6</ele>
        <time>2021-11-25T15:04:37Z</time>
      </trkpt>
      <trkpt lat="49.38761" lon="-1.60251">
        <ele>8.8</ele>
        <time>2021-11-25T15:04:40Z</time>
      </trkpt>
      <trkpt lat="49.38762" lon="-1.60243">
        <ele>8</ele>
        <time>2021-11-25T15:04:44Z</time>
      </trkpt>
      <trkpt lat="49.38762" lon="-1.60235">
        <ele>7.8</ele>
        <time>2021-11-25T15:04:48Z</time>
      </trkpt>
      <trkpt lat="49.38763" lon="-1.60228">
        <ele>7.7</ele>
        <time>2021-11-25T15:04:52Z</time>
      </trkpt>
      <trkpt lat="49.38763" lon="-1.60221">
        <ele>7.9</ele>
        <time>2021-11-25T15:04:56Z</time>
      </trkpt>
      <trkpt lat="49.38761" lon="-1.60215">
        <ele>7.8</ele>
        <time>2021-11-25T15:05:10Z</time>
      </trkpt>
      <trkpt lat="49.38765" lon="-1.60216">
        <ele>5.5</ele>
        <time>2021-11-25T15:05:42Z</time>
      </trkpt>
      <trkpt lat="49.38767" lon="-1.6021">
        <ele>5.1</ele>
        <time>2021-11-25T15:05:46Z</time>
      </trkpt>
      <trkpt lat="49.38764" lon="-1.60202">
        <ele>2.1</ele>
        <time>2021-11-25T15:07:58Z</time>
      </trkpt>
      <trkpt lat="49.38759" lon="-1.602">
        <ele>1.1</ele>
        <time>2021-11-25T15:08:01Z</time>
      </trkpt>
      <trkpt lat="49.38752" lon="-1.60198">
        <ele>-0.3</ele>
        <time>2021-11-25T15:08:06Z</time>
      </trkpt>
      <trkpt lat="49.38748" lon="-1.60198">
        <ele>-1.2</ele>
        <time>2021-11-25T15:08:11Z</time>
      </trkpt>
      <trkpt lat="49.38743" lon="-1.60195">
        <ele>-1</ele>
        <time>2021-11-25T15:08:16Z</time>
      </trkpt>
      <trkpt lat="49.38737" lon="-1.60192">
        <ele>-0.6</ele>
        <time>2021-11-25T15:08:20Z</time>
      </trkpt>
      <trkpt lat="49.38732" lon="-1.60188">
        <ele>0.4</ele>
        <time>2021-11-25T15:08:23Z</time>
      </trkpt>
      <trkpt lat="49.38727" lon="-1.60185">
        <ele>2.3</ele>
        <time>2021-11-25T15:08:27Z</time>
      </trkpt>
      <trkpt lat="49.38722" lon="-1.60183">
        <ele>3.7</ele>
        <time>2021-11-25T15:08:31Z</time>
      </trkpt>
      <trkpt lat="49.38717" lon="-1.60182">
        <ele>5.9</ele>
        <time>2021-11-25T15:08:35Z</time>
      </trkpt>
      <trkpt lat="49.38711" lon="-1.60179">
        <ele>7.6</ele>
        <time>2021-11-25T15:08:40Z</time>
      </trkpt>
      <trkpt lat="49.38705" lon="-1.60176">
        <ele>8.8</ele>
        <time>2021-11-25T15:08:46Z</time>
      </trkpt>
      <trkpt lat="49.38701" lon="-1.60172">
        <ele>9.6</ele>
        <time>2021-11-25T15:08:50Z</time>
      </trkpt>
      <trkpt lat="49.38695" lon="-1.6017">
        <ele>10.2</ele>
        <time>2021-11-25T15:08:55Z</time>
      </trkpt>
      <trkpt lat="49.38691" lon="-1.60169">
        <ele>10.9</ele>
        <time>2021-11-25T15:08:59Z</time>
      </trkpt>
      <trkpt lat="49.38686" lon="-1.60168">
        <ele>11.4</ele>
        <time>2021-11-25T15:09:02Z</time>
      </trkpt>
      <trkpt lat="49.38681" lon="-1.60168">
        <ele>11.9</ele>
        <time>2021-11-25T15:09:05Z</time>
      </trkpt>
      <trkpt lat="49.38676" lon="-1.60167">
        <ele>12.4</ele>
        <time>2021-11-25T15:09:08Z</time>
      </trkpt>
      <trkpt lat="49.38671" lon="-1.60167">
        <ele>12.8</ele>
        <time>2021-11-25T15:09:11Z</time>
      </trkpt>
      <trkpt lat="49.38665" lon="-1.60165">
        <ele>13.4</ele>
        <time>2021-11-25T15:09:16Z</time>
      </trkpt>
      <trkpt lat="49.3866" lon="-1.60163">
        <ele>14.7</ele>
        <time>2021-11-25T15:09:20Z</time>
      </trkpt>
      <trkpt lat="49.38653" lon="-1.60163">
        <ele>16</ele>
        <time>2021-11-25T15:09:25Z</time>
      </trkpt>
      <trkpt lat="49.38648" lon="-1.60161">
        <ele>16.7</ele>
        <time>2021-11-25T15:09:29Z</time>
      </trkpt>
      <trkpt lat="49.38641" lon="-1.60161">
        <ele>16.5</ele>
        <time>2021-11-25T15:09:34Z</time>
      </trkpt>
      <trkpt lat="49.38637" lon="-1.60158">
        <ele>16</ele>
        <time>2021-11-25T15:09:41Z</time>
      </trkpt>
      <trkpt lat="49.38632" lon="-1.60156">
        <ele>15.3</ele>
        <time>2021-11-25T15:09:48Z</time>
      </trkpt>
      <trkpt lat="49.38627" lon="-1.60154">
        <ele>14.6</ele>
        <time>2021-11-25T15:09:55Z</time>
      </trkpt>
      <trkpt lat="49.38622" lon="-1.60153">
        <ele>13.8</ele>
        <time>2021-11-25T15:09:56Z</time>
      </trkpt>
      <trkpt lat="49.38617" lon="-1.60152">
        <ele>13.4</ele>
        <time>2021-11-25T15:10:01Z</time>
      </trkpt>
      <trkpt lat="49.38611" lon="-1.6015">
        <ele>13.4</ele>
        <time>2021-11-25T15:10:06Z</time>
      </trkpt>
      <trkpt lat="49.38606" lon="-1.60146">
        <ele>13.4</ele>
        <time>2021-11-25T15:10:14Z</time>
      </trkpt>
      <trkpt lat="49.38602" lon="-1.60144">
        <ele>13.5</ele>
        <time>2021-11-25T15:10:14Z</time>
      </trkpt>
      <trkpt lat="49.38597" lon="-1.60142">
        <ele>13.3</ele>
        <time>2021-11-25T15:10:19Z</time>
      </trkpt>
      <trkpt lat="49.3859" lon="-1.60144">
        <ele>12.6</ele>
        <time>2021-11-25T15:10:27Z</time>
      </trkpt>
      <trkpt lat="49.38584" lon="-1.60145">
        <ele>11.2</ele>
        <time>2021-11-25T15:10:28Z</time>
      </trkpt>
      <trkpt lat="49.38579" lon="-1.60145">
        <ele>9.3</ele>
        <time>2021-11-25T15:10:34Z</time>
      </trkpt>
      <trkpt lat="49.38575" lon="-1.6015">
        <ele>7.3</ele>
        <time>2021-11-25T15:10:42Z</time>
      </trkpt>
      <trkpt lat="49.38577" lon="-1.60157">
        <ele>5.5</ele>
        <time>2021-11-25T15:10:48Z</time>
      </trkpt>
      <trkpt lat="49.38575" lon="-1.60165">
        <ele>4.4</ele>
        <time>2021-11-25T15:10:54Z</time>
      </trkpt>
      <trkpt lat="49.38574" lon="-1.60174">
        <ele>3.5</ele>
        <time>2021-11-25T15:10:58Z</time>
      </trkpt>
      <trkpt lat="49.38576" lon="-1.60181">
        <ele>-1</ele>
        <time>2021-11-25T15:11:22Z</time>
      </trkpt>
      <trkpt lat="49.38576" lon="-1.60188">
        <ele>-2.8</ele>
        <time>2021-11-25T15:11:28Z</time>
      </trkpt>
      <trkpt lat="49.38574" lon="-1.60195">
        <ele>-4.8</ele>
        <time>2021-11-25T15:11:34Z</time>
      </trkpt>
      <trkpt lat="49.38576" lon="-1.60202">
        <ele>-6.7</ele>
        <time>2021-11-25T15:13:04Z</time>
      </trkpt>
      <trkpt lat="49.38576" lon="-1.60212">
        <ele>-0.4</ele>
        <time>2021-11-25T15:14:22Z</time>
      </trkpt>
      <trkpt lat="49.38572" lon="-1.60219">
        <ele>-0.4</ele>
        <time>2021-11-25T15:14:26Z</time>
      </trkpt>
      <trkpt lat="49.3857" lon="-1.60225">
        <ele>-0.3</ele>
        <time>2021-11-25T15:14:30Z</time>
      </trkpt>
      <trkpt lat="49.38569" lon="-1.60235">
        <ele>0.1</ele>
        <time>2021-11-25T15:14:36Z</time>
      </trkpt>
      <trkpt lat="49.38568" lon="-1.60242">
        <ele>1</ele>
        <time>2021-11-25T15:14:41Z</time>
      </trkpt>
      <trkpt lat="49.38567" lon="-1.6025">
        <ele>2</ele>
        <time>2021-11-25T15:14:46Z</time>
      </trkpt>
      <trkpt lat="49.38567" lon="-1.60258">
        <ele>3.2</ele>
        <time>2021-11-25T15:14:50Z</time>
      </trkpt>
      <trkpt lat="49.38566" lon="-1.60265">
        <ele>4</ele>
        <time>2021-11-25T15:14:54Z</time>
      </trkpt>
      <trkpt lat="49.38564" lon="-1.60272">
        <ele>5.2</ele>
        <time>2021-11-25T15:15:00Z</time>
      </trkpt>
      <trkpt lat="49.38561" lon="-1.60279">
        <ele>5.9</ele>
        <time>2021-11-25T15:15:07Z</time>
      </trkpt>
      <trkpt lat="49.3856" lon="-1.60286">
        <ele>5.8</ele>
        <time>2021-11-25T15:15:12Z</time>
      </trkpt>
      <trkpt lat="49.38558" lon="-1.60293">
        <ele>5.7</ele>
        <time>2021-11-25T15:15:16Z</time>
      </trkpt>
      <trkpt lat="49.38559" lon="-1.60301">
        <ele>5.3</ele>
        <time>2021-11-25T15:15:30Z</time>
      </trkpt>
      <trkpt lat="49.38561" lon="-1.6031">
        <ele>4.3</ele>
        <time>2021-11-25T15:15:36Z</time>
      </trkpt>
      <trkpt lat="49.3856" lon="-1.60319">
        <ele>3.6</ele>
        <time>2021-11-25T15:15:42Z</time>
      </trkpt>
      <trkpt lat="49.38559" lon="-1.60326">
        <ele>3.1</ele>
        <time>2021-11-25T15:15:47Z</time>
      </trkpt>
      <trkpt lat="49.38556" lon="-1.60336">
        <ele>2.9</ele>
        <time>2021-11-25T15:15:54Z</time>
      </trkpt>
      <trkpt lat="49.38555" lon="-1.60344">
        <ele>2.6</ele>
        <time>2021-11-25T15:15:58Z</time>
      </trkpt>
      <trkpt lat="49.38554" lon="-1.60352">
        <ele>2</ele>
        <time>2021-11-25T15:16:02Z</time>
      </trkpt>
      <trkpt lat="49.38555" lon="-1.60359">
        <ele>1.4</ele>
        <time>2021-11-25T15:16:08Z</time>
      </trkpt>
      <trkpt lat="49.38554" lon="-1.60369">
        <ele>0.7</ele>
        <time>2021-11-25T15:16:16Z</time>
      </trkpt>
      <trkpt lat="49.38552" lon="-1.60376">
        <ele>0.6</ele>
        <time>2021-11-25T15:16:20Z</time>
      </trkpt>
      <trkpt lat="49.38551" lon="-1.60383">
        <ele>1</ele>
        <time>2021-11-25T15:16:26Z</time>
      </trkpt>
      <trkpt lat="49.3855" lon="-1.60392">
        <ele>1.3</ele>
        <time>2021-11-25T15:16:30Z</time>
      </trkpt>
      <trkpt lat="49.3855" lon="-1.60402">
        <ele>1.4</ele>
        <time>2021-11-25T15:16:34Z</time>
      </trkpt>
      <trkpt lat="49.38549" lon="-1.60409">
        <ele>1.3</ele>
        <time>2021-11-25T15:16:37Z</time>
      </trkpt>
      <trkpt lat="49.38547" lon="-1.60416">
        <ele>1.3</ele>
        <time>2021-11-25T15:16:40Z</time>
      </trkpt>
      <trkpt lat="49.38545" lon="-1.60424">
        <ele>1.4</ele>
        <time>2021-11-25T15:16:44Z</time>
      </trkpt>
      <trkpt lat="49.38543" lon="-1.60433">
        <ele>1.8</ele>
        <time>2021-11-25T15:16:49Z</time>
      </trkpt>
      <trkpt lat="49.38541" lon="-1.6044">
        <ele>2.3</ele>
        <time>2021-11-25T15:16:55Z</time>
      </trkpt>
      <trkpt lat="49.38539" lon="-1.60448">
        <ele>2.3</ele>
        <time>2021-11-25T15:17:00Z</time>
      </trkpt>
      <trkpt lat="49.38539" lon="-1.60459">
        <ele>2.2</ele>
        <time>2021-11-25T15:17:06Z</time>
      </trkpt>
      <trkpt lat="49.38539" lon="-1.60467">
        <ele>2.2</ele>
        <time>2021-11-25T15:17:10Z</time>
      </trkpt>
      <trkpt lat="49.38538" lon="-1.60474">
        <ele>2.3</ele>
        <time>2021-11-25T15:17:14Z</time>
      </trkpt>
      <trkpt lat="49.38536" lon="-1.60481">
        <ele>2.7</ele>
        <time>2021-11-25T15:17:19Z</time>
      </trkpt>
      <trkpt lat="49.38534" lon="-1.60488">
        <ele>3.2</ele>
        <time>2021-11-25T15:17:24Z</time>
      </trkpt>
      <trkpt lat="49.38533" lon="-1.60495">
        <ele>3.2</ele>
        <time>2021-11-25T15:17:32Z</time>
      </trkpt>
      <trkpt lat="49.38532" lon="-1.60502">
        <ele>2.9</ele>
        <time>2021-11-25T15:17:37Z</time>
      </trkpt>
      <trkpt lat="49.3853" lon="-1.60511">
        <ele>2.5</ele>
        <time>2021-11-25T15:17:43Z</time>
      </trkpt>
      <trkpt lat="49.38531" lon="-1.60519">
        <ele>2.4</ele>
        <time>2021-11-25T15:17:48Z</time>
      </trkpt>
      <trkpt lat="49.38533" lon="-1.60526">
        <ele>2.5</ele>
        <time>2021-11-25T15:17:53Z</time>
      </trkpt>
      <trkpt lat="49.38532" lon="-1.60534">
        <ele>2.4</ele>
        <time>2021-11-25T15:18:01Z</time>
      </trkpt>
      <trkpt lat="49.3853" lon="-1.60541">
        <ele>2.2</ele>
        <time>2021-11-25T15:18:07Z</time>
      </trkpt>
      <trkpt lat="49.38528" lon="-1.60549">
        <ele>1.4</ele>
        <time>2021-11-25T15:18:18Z</time>
      </trkpt>
      <trkpt lat="49.38527" lon="-1.60556">
        <ele>0.6</ele>
        <time>2021-11-25T15:18:23Z</time>
      </trkpt>
      <trkpt lat="49.38528" lon="-1.60567">
        <ele>51</ele>
        <time>2021-11-25T15:18:30Z</time>
      </trkpt>
      <trkpt lat="49.38528" lon="-1.60577">
        <ele>-0.4</ele>
        <time>2021-11-25T15:18:34Z</time>
      </trkpt>
      <trkpt lat="49.38528" lon="-1.60585">
        <ele>-0.9</ele>
        <time>2021-11-25T15:18:38Z</time>
      </trkpt>
      <trkpt lat="49.38527" lon="-1.60595">
        <ele>-1.5</ele>
        <time>2021-11-25T15:18:44Z</time>
      </trkpt>
      <trkpt lat="49.38525" lon="-1.60602">
        <ele>-1.5</ele>
        <time>2021-11-25T15:18:49Z</time>
      </trkpt>
      <trkpt lat="49.38525" lon="-1.6061">
        <ele>-0.9</ele>
        <time>2021-11-25T15:19:00Z</time>
      </trkpt>
      <trkpt lat="49.38523" lon="-1.60617">
        <ele>-1</ele>
        <time>2021-11-25T15:19:04Z</time>
      </trkpt>
      <trkpt lat="49.38521" lon="-1.60623">
        <ele>-1.3</ele>
        <time>2021-11-25T15:19:08Z</time>
      </trkpt>
      <trkpt lat="49.38519" lon="-1.60632">
        <ele>-1.9</ele>
        <time>2021-11-25T15:19:14Z</time>
      </trkpt>
      <trkpt lat="49.3852" lon="-1.60642">
        <ele>-2.6</ele>
        <time>2021-11-25T15:19:20Z</time>
      </trkpt>
      <trkpt lat="49.38521" lon="-1.60651">
        <ele>-3.1</ele>
        <time>2021-11-25T15:19:25Z</time>
      </trkpt>
      <trkpt lat="49.38522" lon="-1.60658">
        <ele>-3.4</ele>
        <time>2021-11-25T15:19:29Z</time>
      </trkpt>
      <trkpt lat="49.3852" lon="-1.60666">
        <ele>-3.4</ele>
        <time>2021-11-25T15:19:34Z</time>
      </trkpt>
      <trkpt lat="49.3852" lon="-1.60673">
        <ele>-3.1</ele>
        <time>2021-11-25T15:19:38Z</time>
      </trkpt>
      <trkpt lat="49.38519" lon="-1.6068">
        <ele>-2.7</ele>
        <time>2021-11-25T15:19:41Z</time>
      </trkpt>
      <trkpt lat="49.38518" lon="-1.60688">
        <ele>-2</ele>
        <time>2021-11-25T15:19:44Z</time>
      </trkpt>
      <trkpt lat="49.38516" lon="-1.60696">
        <ele>-1.1</ele>
        <time>2021-11-25T15:19:48Z</time>
      </trkpt>
      <trkpt lat="49.38513" lon="-1.60704">
        <ele>0.5</ele>
        <time>2021-11-25T15:19:52Z</time>
      </trkpt>
      <trkpt lat="49.38511" lon="-1.6071">
        <ele>1.8</ele>
        <time>2021-11-25T15:19:56Z</time>
      </trkpt>
      <trkpt lat="49.38509" lon="-1.60717">
        <ele>2.6</ele>
        <time>2021-11-25T15:20:02Z</time>
      </trkpt>
      <trkpt lat="49.38507" lon="-1.60726">
        <ele>2.8</ele>
        <time>2021-11-25T15:20:08Z</time>
      </trkpt>
      <trkpt lat="49.38506" lon="-1.60736">
        <ele>3</ele>
        <time>2021-11-25T15:20:13Z</time>
      </trkpt>
      <trkpt lat="49.38505" lon="-1.60743">
        <ele>3.3</ele>
        <time>2021-11-25T15:20:17Z</time>
      </trkpt>
      <trkpt lat="49.38503" lon="-1.60752">
        <ele>3.8</ele>
        <time>2021-11-25T15:20:22Z</time>
      </trkpt>
      <trkpt lat="49.38498" lon="-1.60759">
        <ele>4.1</ele>
        <time>2021-11-25T15:20:28Z</time>
      </trkpt>
      <trkpt lat="49.38497" lon="-1.60767">
        <ele>4.2</ele>
        <time>2021-11-25T15:20:34Z</time>
      </trkpt>
      <trkpt lat="49.38493" lon="-1.60772">
        <ele>4.1</ele>
        <time>2021-11-25T15:20:40Z</time>
      </trkpt>
      <trkpt lat="49.38489" lon="-1.60767">
        <ele>4.6</ele>
        <time>2021-11-25T15:20:46Z</time>
      </trkpt>
      <trkpt lat="49.38486" lon="-1.60761">
        <ele>5.3</ele>
        <time>2021-11-25T15:20:50Z</time>
      </trkpt>
      <trkpt lat="49.38483" lon="-1.60755">
        <ele>6.8</ele>
        <time>2021-11-25T15:20:55Z</time>
      </trkpt>
      <trkpt lat="49.38478" lon="-1.60746">
        <ele>8</ele>
        <time>2021-11-25T15:21:00Z</time>
      </trkpt>
      <trkpt lat="49.38473" lon="-1.60741">
        <ele>8.4</ele>
        <time>2021-11-25T15:21:04Z</time>
      </trkpt>
      <trkpt lat="49.3847" lon="-1.60735">
        <ele>8</ele>
        <time>2021-11-25T15:21:12Z</time>
      </trkpt>
      <trkpt lat="49.38466" lon="-1.60733">
        <ele>6.9</ele>
        <time>2021-11-25T15:21:19Z</time>
      </trkpt>
      <trkpt lat="49.38461" lon="-1.60735">
        <ele>7.6</ele>
        <time>2021-11-25T15:21:28Z</time>
      </trkpt>
      <trkpt lat="49.38456" lon="-1.60735">
        <ele>9</ele>
        <time>2021-11-25T15:21:38Z</time>
      </trkpt>
      <trkpt lat="49.38451" lon="-1.60731">
        <ele>9.5</ele>
        <time>2021-11-25T15:21:43Z</time>
      </trkpt>
      <trkpt lat="49.38444" lon="-1.60729">
        <ele>9.4</ele>
        <time>2021-11-25T15:21:49Z</time>
      </trkpt>
      <trkpt lat="49.38439" lon="-1.60729">
        <ele>8.6</ele>
        <time>2021-11-25T15:21:55Z</time>
      </trkpt>
      <trkpt lat="49.38433" lon="-1.60726">
        <ele>6.6</ele>
        <time>2021-11-25T15:22:04Z</time>
      </trkpt>
      <trkpt lat="49.38428" lon="-1.60725">
        <ele>5.8</ele>
        <time>2021-11-25T15:22:08Z</time>
      </trkpt>
      <trkpt lat="49.38424" lon="-1.60722">
        <ele>5.8</ele>
        <time>2021-11-25T15:22:12Z</time>
      </trkpt>
      <trkpt lat="49.38417" lon="-1.60717">
        <ele>5.1</ele>
        <time>2021-11-25T15:22:34Z</time>
      </trkpt>
      <trkpt lat="49.38412" lon="-1.60712">
        <ele>5.7</ele>
        <time>2021-11-25T15:22:40Z</time>
      </trkpt>
      <trkpt lat="49.38407" lon="-1.6071">
        <ele>7.1</ele>
        <time>2021-11-25T15:22:46Z</time>
      </trkpt>
      <trkpt lat="49.38403" lon="-1.60707">
        <ele>7.6</ele>
        <time>2021-11-25T15:22:54Z</time>
      </trkpt>
      <trkpt lat="49.38398" lon="-1.60703">
        <ele>7</ele>
        <time>2021-11-25T15:22:59Z</time>
      </trkpt>
      <trkpt lat="49.38394" lon="-1.607">
        <ele>6.4</ele>
        <time>2021-11-25T15:23:04Z</time>
      </trkpt>
      <trkpt lat="49.3839" lon="-1.60696">
        <ele>6.2</ele>
        <time>2021-11-25T15:23:10Z</time>
      </trkpt>
      <trkpt lat="49.38386" lon="-1.60691">
        <ele>6.5</ele>
        <time>2021-11-25T15:23:16Z</time>
      </trkpt>
      <trkpt lat="49.38381" lon="-1.60685">
        <ele>7.6</ele>
        <time>2021-11-25T15:23:22Z</time>
      </trkpt>
      <trkpt lat="49.38377" lon="-1.6068">
        <ele>8.7</ele>
        <time>2021-11-25T15:23:26Z</time>
      </trkpt>
      <trkpt lat="49.38372" lon="-1.60674">
        <ele>8.9</ele>
        <time>2021-11-25T15:23:31Z</time>
      </trkpt>
      <trkpt lat="49.38368" lon="-1.60667">
        <ele>8.8</ele>
        <time>2021-11-25T15:23:36Z</time>
      </trkpt>
      <trkpt lat="49.38365" lon="-1.60661">
        <ele>8.4</ele>
        <time>2021-11-25T15:23:41Z</time>
      </trkpt>
      <trkpt lat="49.38362" lon="-1.60654">
        <ele>8.3</ele>
        <time>2021-11-25T15:23:46Z</time>
      </trkpt>
      <trkpt lat="49.38358" lon="-1.6065">
        <ele>8.5</ele>
        <time>2021-11-25T15:23:50Z</time>
      </trkpt>
      <trkpt lat="49.38354" lon="-1.60643">
        <ele>9.2</ele>
        <time>2021-11-25T15:23:56Z</time>
      </trkpt>
      <trkpt lat="49.38349" lon="-1.60639">
        <ele>9.8</ele>
        <time>2021-11-25T15:24:01Z</time>
      </trkpt>
      <trkpt lat="49.38345" lon="-1.60632">
        <ele>10</ele>
        <time>2021-11-25T15:24:07Z</time>
      </trkpt>
      <trkpt lat="49.38342" lon="-1.60627">
        <ele>10.7</ele>
        <time>2021-11-25T15:24:18Z</time>
      </trkpt>
      <trkpt lat="49.38341" lon="-1.60619">
        <ele>12</ele>
        <time>2021-11-25T15:24:25Z</time>
      </trkpt>
      <trkpt lat="49.38342" lon="-1.60611">
        <ele>12.5</ele>
        <time>2021-11-25T15:24:29Z</time>
      </trkpt>
      <trkpt lat="49.38343" lon="-1.60602">
        <ele>12.8</ele>
        <time>2021-11-25T15:24:34Z</time>
      </trkpt>
      <trkpt lat="49.38343" lon="-1.60595">
        <ele>12.8</ele>
        <time>2021-11-25T15:24:38Z</time>
      </trkpt>
      <trkpt lat="49.38345" lon="-1.60588">
        <ele>12.7</ele>
        <time>2021-11-25T15:24:41Z</time>
      </trkpt>
      <trkpt lat="49.38346" lon="-1.60576">
        <ele>12.6</ele>
        <time>2021-11-25T15:24:46Z</time>
      </trkpt>
      <trkpt lat="49.38347" lon="-1.60566">
        <ele>12.5</ele>
        <time>2021-11-25T15:24:50Z</time>
      </trkpt>
      <trkpt lat="49.38342" lon="-1.60562">
        <ele>8.1</ele>
        <time>2021-11-25T15:25:23Z</time>
      </trkpt>
      <trkpt lat="49.38337" lon="-1.60562">
        <ele>7.4</ele>
        <time>2021-11-25T15:25:30Z</time>
      </trkpt>
      <trkpt lat="49.38332" lon="-1.60562">
        <ele>8.3</ele>
        <time>2021-11-25T15:25:36Z</time>
      </trkpt>
      <trkpt lat="49.38327" lon="-1.60557">
        <ele>9.5</ele>
        <time>2021-11-25T15:25:43Z</time>
      </trkpt>
      <trkpt lat="49.38323" lon="-1.60552">
        <ele>10.1</ele>
        <time>2021-11-25T15:25:48Z</time>
      </trkpt>
      <trkpt lat="49.38321" lon="-1.60546">
        <ele>10.2</ele>
        <time>2021-11-25T15:25:54Z</time>
      </trkpt>
      <trkpt lat="49.38318" lon="-1.60539">
        <ele>9.9</ele>
        <time>2021-11-25T15:26:00Z</time>
      </trkpt>
      <trkpt lat="49.38313" lon="-1.60536">
        <ele>9.3</ele>
        <time>2021-11-25T15:26:04Z</time>
      </trkpt>
      <trkpt lat="49.38308" lon="-1.60536">
        <ele>9</ele>
        <time>2021-11-25T15:26:07Z</time>
      </trkpt>
      <trkpt lat="49.38303" lon="-1.60535">
        <ele>8.6</ele>
        <time>2021-11-25T15:26:11Z</time>
      </trkpt>
      <trkpt lat="49.38298" lon="-1.60533">
        <ele>8.5</ele>
        <time>2021-11-25T15:26:16Z</time>
      </trkpt>
      <trkpt lat="49.38293" lon="-1.60527">
        <ele>8.6</ele>
        <time>2021-11-25T15:26:24Z</time>
      </trkpt>
      <trkpt lat="49.38288" lon="-1.60519">
        <ele>9</ele>
        <time>2021-11-25T15:26:30Z</time>
      </trkpt>
      <trkpt lat="49.38284" lon="-1.60515">
        <ele>9.4</ele>
        <time>2021-11-25T15:26:34Z</time>
      </trkpt>
      <trkpt lat="49.38279" lon="-1.60511">
        <ele>9.9</ele>
        <time>2021-11-25T15:26:40Z</time>
      </trkpt>
      <trkpt lat="49.38274" lon="-1.60505">
        <ele>10.4</ele>
        <time>2021-11-25T15:26:46Z</time>
      </trkpt>
      <trkpt lat="49.3827" lon="-1.60499">
        <ele>10.3</ele>
        <time>2021-11-25T15:26:50Z</time>
      </trkpt>
      <trkpt lat="49.38266" lon="-1.60492">
        <ele>10.2</ele>
        <time>2021-11-25T15:26:54Z</time>
      </trkpt>
      <trkpt lat="49.38263" lon="-1.60485">
        <ele>9.8</ele>
        <time>2021-11-25T15:26:59Z</time>
      </trkpt>
      <trkpt lat="49.38261" lon="-1.60478">
        <ele>9.1</ele>
        <time>2021-11-25T15:27:04Z</time>
      </trkpt>
      <trkpt lat="49.38256" lon="-1.60473">
        <ele>8.1</ele>
        <time>2021-11-25T15:27:10Z</time>
      </trkpt>
      <trkpt lat="49.38255" lon="-1.60466">
        <ele>6</ele>
        <time>2021-11-25T15:27:18Z</time>
      </trkpt>
      <trkpt lat="49.38252" lon="-1.6046">
        <ele>4.9</ele>
        <time>2021-11-25T15:27:26Z</time>
      </trkpt>
      <trkpt lat="49.38247" lon="-1.60463">
        <ele>4.7</ele>
        <time>2021-11-25T15:27:34Z</time>
      </trkpt>
      <trkpt lat="49.38242" lon="-1.60463">
        <ele>5</ele>
        <time>2021-11-25T15:27:38Z</time>
      </trkpt>
      <trkpt lat="49.38238" lon="-1.60459">
        <ele>5.2</ele>
        <time>2021-11-25T15:27:43Z</time>
      </trkpt>
      <trkpt lat="49.38234" lon="-1.60453">
        <ele>5.5</ele>
        <time>2021-11-25T15:27:49Z</time>
      </trkpt>
      <trkpt lat="49.38229" lon="-1.6045">
        <ele>5.3</ele>
        <time>2021-11-25T15:27:55Z</time>
      </trkpt>
      <trkpt lat="49.38223" lon="-1.60449">
        <ele>4.8</ele>
        <time>2021-11-25T15:28:00Z</time>
      </trkpt>
      <trkpt lat="49.38219" lon="-1.60446">
        <ele>4.1</ele>
        <time>2021-11-25T15:28:04Z</time>
      </trkpt>
      <trkpt lat="49.38215" lon="-1.60444">
        <ele>3.4</ele>
        <time>2021-11-25T15:28:08Z</time>
      </trkpt>
      <trkpt lat="49.38211" lon="-1.6044">
        <ele>2.7</ele>
        <time>2021-11-25T15:28:12Z</time>
      </trkpt>
      <trkpt lat="49.38207" lon="-1.60436">
        <ele>2</ele>
        <time>2021-11-25T15:28:16Z</time>
      </trkpt>
      <trkpt lat="49.38201" lon="-1.60429">
        <ele>1.4</ele>
        <time>2021-11-25T15:28:22Z</time>
      </trkpt>
      <trkpt lat="49.38198" lon="-1.60423">
        <ele>1.4</ele>
        <time>2021-11-25T15:28:26Z</time>
      </trkpt>
      <trkpt lat="49.38194" lon="-1.60415">
        <ele>1.9</ele>
        <time>2021-11-25T15:28:31Z</time>
      </trkpt>
      <trkpt lat="49.3819" lon="-1.60411">
        <ele>2.3</ele>
        <time>2021-11-25T15:28:34Z</time>
      </trkpt>
      <trkpt lat="49.38185" lon="-1.60409">
        <ele>3.3</ele>
        <time>2021-11-25T15:28:38Z</time>
      </trkpt>
      <trkpt lat="49.38189" lon="-1.60414">
        <ele>11.1</ele>
        <time>2021-11-25T15:29:00Z</time>
      </trkpt>
      <trkpt lat="49.38186" lon="-1.60407">
        <ele>11.6</ele>
        <time>2021-11-25T15:29:06Z</time>
      </trkpt>
      <trkpt lat="49.38184" lon="-1.604">
        <ele>11.8</ele>
        <time>2021-11-25T15:29:10Z</time>
      </trkpt>
      <trkpt lat="49.38183" lon="-1.60392">
        <ele>12.2</ele>
        <time>2021-11-25T15:29:16Z</time>
      </trkpt>
      <trkpt lat="49.38181" lon="-1.60386">
        <ele>12.2</ele>
        <time>2021-11-25T15:29:20Z</time>
      </trkpt>
      <trkpt lat="49.38181" lon="-1.60379">
        <ele>12.5</ele>
        <time>2021-11-25T15:29:26Z</time>
      </trkpt>
      <trkpt lat="49.38178" lon="-1.60371">
        <ele>12.7</ele>
        <time>2021-11-25T15:29:34Z</time>
      </trkpt>
      <trkpt lat="49.38174" lon="-1.60364">
        <ele>12.7</ele>
        <time>2021-11-25T15:29:40Z</time>
      </trkpt>
      <trkpt lat="49.38169" lon="-1.60357">
        <ele>12.7</ele>
        <time>2021-11-25T15:29:46Z</time>
      </trkpt>
      <trkpt lat="49.38164" lon="-1.60353">
        <ele>12.7</ele>
        <time>2021-11-25T15:29:50Z</time>
      </trkpt>
      <trkpt lat="49.3816" lon="-1.60347">
        <ele>12.7</ele>
        <time>2021-11-25T15:29:56Z</time>
      </trkpt>
      <trkpt lat="49.38157" lon="-1.6034">
        <ele>12.7</ele>
        <time>2021-11-25T15:30:02Z</time>
      </trkpt>
      <trkpt lat="49.38157" lon="-1.60333">
        <ele>12.7</ele>
        <time>2021-11-25T15:30:08Z</time>
      </trkpt>
      <trkpt lat="49.38154" lon="-1.60327">
        <ele>12.7</ele>
        <time>2021-11-25T15:30:14Z</time>
      </trkpt>
      <trkpt lat="49.38149" lon="-1.60325">
        <ele>13.5</ele>
        <time>2021-11-25T15:30:20Z</time>
      </trkpt>
      <trkpt lat="49.38145" lon="-1.6032">
        <ele>12.7</ele>
        <time>2021-11-25T15:30:24Z</time>
      </trkpt>
      <trkpt lat="49.38142" lon="-1.60315">
        <ele>12.9</ele>
        <time>2021-11-25T15:30:28Z</time>
      </trkpt>
      <trkpt lat="49.3814" lon="-1.60309">
        <ele>10.2</ele>
        <time>2021-11-25T15:30:38Z</time>
      </trkpt>
      <trkpt lat="49.38136" lon="-1.60303">
        <ele>10.1</ele>
        <time>2021-11-25T15:30:44Z</time>
      </trkpt>
      <trkpt lat="49.38132" lon="-1.60298">
        <ele>10.4</ele>
        <time>2021-11-25T15:30:47Z</time>
      </trkpt>
      <trkpt lat="49.38129" lon="-1.60293">
        <ele>11.1</ele>
        <time>2021-11-25T15:30:50Z</time>
      </trkpt>
      <trkpt lat="49.38125" lon="-1.60286">
        <ele>10.6</ele>
        <time>2021-11-25T15:30:54Z</time>
      </trkpt>
      <trkpt lat="49.38123" lon="-1.6028">
        <ele>10.3</ele>
        <time>2021-11-25T15:30:58Z</time>
      </trkpt>
      <trkpt lat="49.38122" lon="-1.60271">
        <ele>11.3</ele>
        <time>2021-11-25T15:31:04Z</time>
      </trkpt>
      <trkpt lat="49.3812" lon="-1.60263">
        <ele>11.1</ele>
        <time>2021-11-25T15:31:10Z</time>
      </trkpt>
      <trkpt lat="49.38117" lon="-1.60257">
        <ele>10.3</ele>
        <time>2021-11-25T15:31:16Z</time>
      </trkpt>
      <trkpt lat="49.38115" lon="-1.6025">
        <ele>9.6</ele>
        <time>2021-11-25T15:31:20Z</time>
      </trkpt>
      <trkpt lat="49.3811" lon="-1.60243">
        <ele>9.7</ele>
        <time>2021-11-25T15:31:25Z</time>
      </trkpt>
      <trkpt lat="49.38107" lon="-1.60238">
        <ele>10.6</ele>
        <time>2021-11-25T15:31:29Z</time>
      </trkpt>
      <trkpt lat="49.38103" lon="-1.60231">
        <ele>11.8</ele>
        <time>2021-11-25T15:31:34Z</time>
      </trkpt>
      <trkpt lat="49.381" lon="-1.60223">
        <ele>11.8</ele>
        <time>2021-11-25T15:31:40Z</time>
      </trkpt>
      <trkpt lat="49.38098" lon="-1.60214">
        <ele>12.3</ele>
        <time>2021-11-25T15:31:46Z</time>
      </trkpt>
      <trkpt lat="49.38095" lon="-1.60206">
        <ele>12.8</ele>
        <time>2021-11-25T15:31:52Z</time>
      </trkpt>
      <trkpt lat="49.38092" lon="-1.60198">
        <ele>13.9</ele>
        <time>2021-11-25T15:32:00Z</time>
      </trkpt>
      <trkpt lat="49.38089" lon="-1.60192">
        <ele>12.9</ele>
        <time>2021-11-25T15:32:06Z</time>
      </trkpt>
      <trkpt lat="49.38085" lon="-1.60187">
        <ele>12.9</ele>
        <time>2021-11-25T15:32:12Z</time>
      </trkpt>
      <trkpt lat="49.38081" lon="-1.6018">
        <ele>10.6</ele>
        <time>2021-11-25T15:32:16Z</time>
      </trkpt>
      <trkpt lat="49.38078" lon="-1.60172">
        <ele>11.6</ele>
        <time>2021-11-25T15:32:19Z</time>
      </trkpt>
      <trkpt lat="49.38074" lon="-1.60164">
        <ele>12.5</ele>
        <time>2021-11-25T15:32:23Z</time>
      </trkpt>
      <trkpt lat="49.38072" lon="-1.60157">
        <ele>12</ele>
        <time>2021-11-25T15:32:26Z</time>
      </trkpt>
      <trkpt lat="49.38069" lon="-1.60153">
        <ele>11.1</ele>
        <time>2021-11-25T15:32:40Z</time>
      </trkpt>
      <trkpt lat="49.38064" lon="-1.60154">
        <ele>11.1</ele>
        <time>2021-11-25T15:32:44Z</time>
      </trkpt>
      <trkpt lat="49.38059" lon="-1.60157">
        <ele>11.2</ele>
        <time>2021-11-25T15:32:50Z</time>
      </trkpt>
      <trkpt lat="49.38052" lon="-1.60156">
        <ele>11.8</ele>
        <time>2021-11-25T15:32:56Z</time>
      </trkpt>
      <trkpt lat="49.38047" lon="-1.60154">
        <ele>12.3</ele>
        <time>2021-11-25T15:33:00Z</time>
      </trkpt>
      <trkpt lat="49.38041" lon="-1.60156">
        <ele>12.8</ele>
        <time>2021-11-25T15:33:05Z</time>
      </trkpt>
      <trkpt lat="49.38036" lon="-1.60157">
        <ele>12.7</ele>
        <time>2021-11-25T15:33:14Z</time>
      </trkpt>
      <trkpt lat="49.38031" lon="-1.60156">
        <ele>12.7</ele>
        <time>2021-11-25T15:33:20Z</time>
      </trkpt>
      <trkpt lat="49.38026" lon="-1.60152">
        <ele>13</ele>
        <time>2021-11-25T15:33:25Z</time>
      </trkpt>
      <trkpt lat="49.38022" lon="-1.60147">
        <ele>13.6</ele>
        <time>2021-11-25T15:33:30Z</time>
      </trkpt>
      <trkpt lat="49.38017" lon="-1.60143">
        <ele>14.1</ele>
        <time>2021-11-25T15:33:35Z</time>
      </trkpt>
      <trkpt lat="49.38014" lon="-1.60135">
        <ele>14.9</ele>
        <time>2021-11-25T15:33:42Z</time>
      </trkpt>
      <trkpt lat="49.38011" lon="-1.60129">
        <ele>15.4</ele>
        <time>2021-11-25T15:33:46Z</time>
      </trkpt>
      <trkpt lat="49.3801" lon="-1.60123">
        <ele>16.5</ele>
        <time>2021-11-25T15:33:50Z</time>
      </trkpt>
      <trkpt lat="49.38007" lon="-1.60117">
        <ele>18.9</ele>
        <time>2021-11-25T15:33:58Z</time>
      </trkpt>
      <trkpt lat="49.38003" lon="-1.6011">
        <ele>20.6</ele>
        <time>2021-11-25T15:34:04Z</time>
      </trkpt>
      <trkpt lat="49.38" lon="-1.60105">
        <ele>21.3</ele>
        <time>2021-11-25T15:34:08Z</time>
      </trkpt>
      <trkpt lat="49.37998" lon="-1.60098">
        <ele>22</ele>
        <time>2021-11-25T15:34:12Z</time>
      </trkpt>
      <trkpt lat="49.37994" lon="-1.60091">
        <ele>22.3</ele>
        <time>2021-11-25T15:34:18Z</time>
      </trkpt>
      <trkpt lat="49.3799" lon="-1.60086">
        <ele>22.2</ele>
        <time>2021-11-25T15:34:22Z</time>
      </trkpt>
      <trkpt lat="49.37986" lon="-1.60081">
        <ele>21.7</ele>
        <time>2021-11-25T15:34:28Z</time>
      </trkpt>
      <trkpt lat="49.37984" lon="-1.60075">
        <ele>21.5</ele>
        <time>2021-11-25T15:34:34Z</time>
      </trkpt>
      <trkpt lat="49.3798" lon="-1.6007">
        <ele>21.2</ele>
        <time>2021-11-25T15:34:41Z</time>
      </trkpt>
      <trkpt lat="49.37977" lon="-1.60064">
        <ele>20.7</ele>
        <time>2021-11-25T15:34:46Z</time>
      </trkpt>
      <trkpt lat="49.37973" lon="-1.60055">
        <ele>20.4</ele>
        <time>2021-11-25T15:34:50Z</time>
      </trkpt>
      <trkpt lat="49.37972" lon="-1.60047">
        <ele>19.6</ele>
        <time>2021-11-25T15:34:54Z</time>
      </trkpt>
      <trkpt lat="49.3797" lon="-1.60038">
        <ele>18.5</ele>
        <time>2021-11-25T15:35:00Z</time>
      </trkpt>
      <trkpt lat="49.37966" lon="-1.60032">
        <ele>16.6</ele>
        <time>2021-11-25T15:35:09Z</time>
      </trkpt>
      <trkpt lat="49.37962" lon="-1.60027">
        <ele>15.9</ele>
        <time>2021-11-25T15:35:13Z</time>
      </trkpt>
      <trkpt lat="49.37959" lon="-1.60021">
        <ele>14.9</ele>
        <time>2021-11-25T15:35:17Z</time>
      </trkpt>
      <trkpt lat="49.37955" lon="-1.60012">
        <ele>14.1</ele>
        <time>2021-11-25T15:35:22Z</time>
      </trkpt>
      <trkpt lat="49.37952" lon="-1.60005">
        <ele>13.4</ele>
        <time>2021-11-25T15:35:25Z</time>
      </trkpt>
      <trkpt lat="49.37949" lon="-1.59999">
        <ele>12.6</ele>
        <time>2021-11-25T15:35:29Z</time>
      </trkpt>
      <trkpt lat="49.37946" lon="-1.59993">
        <ele>11.7</ele>
        <time>2021-11-25T15:35:34Z</time>
      </trkpt>
      <trkpt lat="49.37941" lon="-1.59987">
        <ele>11.2</ele>
        <time>2021-11-25T15:35:40Z</time>
      </trkpt>
      <trkpt lat="49.37937" lon="-1.5998">
        <ele>10.9</ele>
        <time>2021-11-25T15:35:46Z</time>
      </trkpt>
      <trkpt lat="49.37933" lon="-1.59972">
        <ele>10.9</ele>
        <time>2021-11-25T15:35:52Z</time>
      </trkpt>
      <trkpt lat="49.37931" lon="-1.59964">
        <ele>9.9</ele>
        <time>2021-11-25T15:35:58Z</time>
      </trkpt>
      <trkpt lat="49.37929" lon="-1.59957">
        <ele>9.1</ele>
        <time>2021-11-25T15:36:02Z</time>
      </trkpt>
      <trkpt lat="49.37927" lon="-1.5995">
        <ele>8.3</ele>
        <time>2021-11-25T15:36:06Z</time>
      </trkpt>
      <trkpt lat="49.37923" lon="-1.59945">
        <ele>7.8</ele>
        <time>2021-11-25T15:36:10Z</time>
      </trkpt>
      <trkpt lat="49.37919" lon="-1.59942">
        <ele>7.7</ele>
        <time>2021-11-25T15:36:14Z</time>
      </trkpt>
      <trkpt lat="49.37914" lon="-1.59937">
        <ele>7.5</ele>
        <time>2021-11-25T15:36:18Z</time>
      </trkpt>
      <trkpt lat="49.3791" lon="-1.5993">
        <ele>7.5</ele>
        <time>2021-11-25T15:36:22Z</time>
      </trkpt>
      <trkpt lat="49.37906" lon="-1.59924">
        <ele>7.5</ele>
        <time>2021-11-25T15:36:26Z</time>
      </trkpt>
      <trkpt lat="49.37902" lon="-1.59919">
        <ele>7.9</ele>
        <time>2021-11-25T15:36:32Z</time>
      </trkpt>
      <trkpt lat="49.37897" lon="-1.59913">
        <ele>8</ele>
        <time>2021-11-25T15:36:38Z</time>
      </trkpt>
      <trkpt lat="49.37893" lon="-1.59908">
        <ele>8</ele>
        <time>2021-11-25T15:36:44Z</time>
      </trkpt>
      <trkpt lat="49.37887" lon="-1.59903">
        <ele>7.8</ele>
        <time>2021-11-25T15:36:50Z</time>
      </trkpt>
      <trkpt lat="49.37882" lon="-1.59898">
        <ele>8.3</ele>
        <time>2021-11-25T15:36:55Z</time>
      </trkpt>
      <trkpt lat="49.37878" lon="-1.59892">
        <ele>9.4</ele>
        <time>2021-11-25T15:37:02Z</time>
      </trkpt>
      <trkpt lat="49.37873" lon="-1.59885">
        <ele>9.7</ele>
        <time>2021-11-25T15:37:07Z</time>
      </trkpt>
      <trkpt lat="49.37868" lon="-1.59881">
        <ele>9.5</ele>
        <time>2021-11-25T15:37:12Z</time>
      </trkpt>
      <trkpt lat="49.37865" lon="-1.59876">
        <ele>9.2</ele>
        <time>2021-11-25T15:37:16Z</time>
      </trkpt>
      <trkpt lat="49.3786" lon="-1.59871">
        <ele>8.9</ele>
        <time>2021-11-25T15:37:22Z</time>
      </trkpt>
      <trkpt lat="49.37857" lon="-1.59867">
        <ele>9.2</ele>
        <time>2021-11-25T15:37:25Z</time>
      </trkpt>
      <trkpt lat="49.37851" lon="-1.59862">
        <ele>9.9</ele>
        <time>2021-11-25T15:37:29Z</time>
      </trkpt>
      <trkpt lat="49.37845" lon="-1.59858">
        <ele>10.5</ele>
        <time>2021-11-25T15:37:34Z</time>
      </trkpt>
      <trkpt lat="49.3784" lon="-1.59855">
        <ele>10.8</ele>
        <time>2021-11-25T15:37:37Z</time>
      </trkpt>
      <trkpt lat="49.37835" lon="-1.59854">
        <ele>11.2</ele>
        <time>2021-11-25T15:37:40Z</time>
      </trkpt>
      <trkpt lat="49.3783" lon="-1.59851">
        <ele>12.2</ele>
        <time>2021-11-25T15:37:44Z</time>
      </trkpt>
      <trkpt lat="49.37826" lon="-1.59846">
        <ele>13.4</ele>
        <time>2021-11-25T15:37:48Z</time>
      </trkpt>
      <trkpt lat="49.37821" lon="-1.59843">
        <ele>14.4</ele>
        <time>2021-11-25T15:37:52Z</time>
      </trkpt>
      <trkpt lat="49.37817" lon="-1.5984">
        <ele>15</ele>
        <time>2021-11-25T15:37:56Z</time>
      </trkpt>
      <trkpt lat="49.37813" lon="-1.59835">
        <ele>15.2</ele>
        <time>2021-11-25T15:38:00Z</time>
      </trkpt>
      <trkpt lat="49.37809" lon="-1.59834">
        <ele>15.5</ele>
        <time>2021-11-25T15:38:04Z</time>
      </trkpt>
      <trkpt lat="49.37803" lon="-1.59828">
        <ele>15.8</ele>
        <time>2021-11-25T15:38:10Z</time>
      </trkpt>
      <trkpt lat="49.37799" lon="-1.59825">
        <ele>15.8</ele>
        <time>2021-11-25T15:38:14Z</time>
      </trkpt>
      <trkpt lat="49.37801" lon="-1.59818">
        <ele>15.3</ele>
        <time>2021-11-25T15:38:26Z</time>
      </trkpt>
      <trkpt lat="49.37795" lon="-1.5982">
        <ele>12.4</ele>
        <time>2021-11-25T15:39:58Z</time>
      </trkpt>
      <trkpt lat="49.3779" lon="-1.59816">
        <ele>11.7</ele>
        <time>2021-11-25T15:40:01Z</time>
      </trkpt>
      <trkpt lat="49.37786" lon="-1.59813">
        <ele>11.7</ele>
        <time>2021-11-25T15:40:05Z</time>
      </trkpt>
      <trkpt lat="49.37782" lon="-1.59805">
        <ele>10.6</ele>
        <time>2021-11-25T15:40:12Z</time>
      </trkpt>
      <trkpt lat="49.37777" lon="-1.59801">
        <ele>9.5</ele>
        <time>2021-11-25T15:40:16Z</time>
      </trkpt>
      <trkpt lat="49.37772" lon="-1.59798">
        <ele>9.6</ele>
        <time>2021-11-25T15:40:19Z</time>
      </trkpt>
      <trkpt lat="49.37767" lon="-1.59795">
        <ele>10.2</ele>
        <time>2021-11-25T15:40:23Z</time>
      </trkpt>
      <trkpt lat="49.37761" lon="-1.59791">
        <ele>10.6</ele>
        <time>2021-11-25T15:40:28Z</time>
      </trkpt>
      <trkpt lat="49.37757" lon="-1.59786">
        <ele>11.2</ele>
        <time>2021-11-25T15:40:32Z</time>
      </trkpt>
      <trkpt lat="49.37753" lon="-1.59778">
        <ele>10</ele>
        <time>2021-11-25T15:40:38Z</time>
      </trkpt>
      <trkpt lat="49.37749" lon="-1.59772">
        <ele>14.5</ele>
        <time>2021-11-25T15:40:44Z</time>
      </trkpt>
      <trkpt lat="49.37746" lon="-1.59766">
        <ele>10.8</ele>
        <time>2021-11-25T15:40:50Z</time>
      </trkpt>
      <trkpt lat="49.37741" lon="-1.5976">
        <ele>7</ele>
        <time>2021-11-25T15:40:57Z</time>
      </trkpt>
      <trkpt lat="49.37738" lon="-1.59755">
        <ele>6.1</ele>
        <time>2021-11-25T15:41:04Z</time>
      </trkpt>
      <trkpt lat="49.37733" lon="-1.59749">
        <ele>5.1</ele>
        <time>2021-11-25T15:41:10Z</time>
      </trkpt>
      <trkpt lat="49.3773" lon="-1.59742">
        <ele>4.2</ele>
        <time>2021-11-25T15:41:16Z</time>
      </trkpt>
      <trkpt lat="49.37732" lon="-1.59732">
        <ele>3.6</ele>
        <time>2021-11-25T15:41:22Z</time>
      </trkpt>
      <trkpt lat="49.37733" lon="-1.59724">
        <ele>2.9</ele>
        <time>2021-11-25T15:41:26Z</time>
      </trkpt>
      <trkpt lat="49.37734" lon="-1.59716">
        <ele>2.1</ele>
        <time>2021-11-25T15:41:30Z</time>
      </trkpt>
      <trkpt lat="49.37731" lon="-1.59709">
        <ele>1.5</ele>
        <time>2021-11-25T15:41:36Z</time>
      </trkpt>
      <trkpt lat="49.37728" lon="-1.59703">
        <ele>2.4</ele>
        <time>2021-11-25T15:41:46Z</time>
      </trkpt>
      <trkpt lat="49.37729" lon="-1.59696">
        <ele>2.8</ele>
        <time>2021-11-25T15:41:49Z</time>
      </trkpt>
      <trkpt lat="49.37729" lon="-1.59687">
        <ele>3.3</ele>
        <time>2021-11-25T15:41:54Z</time>
      </trkpt>
      <trkpt lat="49.3773" lon="-1.59678">
        <ele>3.7</ele>
        <time>2021-11-25T15:41:58Z</time>
      </trkpt>
      <trkpt lat="49.37732" lon="-1.5967">
        <ele>4.8</ele>
        <time>2021-11-25T15:42:02Z</time>
      </trkpt>
      <trkpt lat="49.37734" lon="-1.59662">
        <ele>5.7</ele>
        <time>2021-11-25T15:42:06Z</time>
      </trkpt>
      <trkpt lat="49.37737" lon="-1.59655">
        <ele>6.1</ele>
        <time>2021-11-25T15:42:10Z</time>
      </trkpt>
      <trkpt lat="49.3774" lon="-1.59647">
        <ele>6.1</ele>
        <time>2021-11-25T15:42:16Z</time>
      </trkpt>
      <trkpt lat="49.37742" lon="-1.59638">
        <ele>6.1</ele>
        <time>2021-11-25T15:42:22Z</time>
      </trkpt>
      <trkpt lat="49.37744" lon="-1.59629">
        <ele>6.1</ele>
        <time>2021-11-25T15:42:28Z</time>
      </trkpt>
      <trkpt lat="49.37746" lon="-1.59623">
        <ele>6</ele>
        <time>2021-11-25T15:42:32Z</time>
      </trkpt>
      <trkpt lat="49.37749" lon="-1.59616">
        <ele>5.3</ele>
        <time>2021-11-25T15:42:38Z</time>
      </trkpt>
      <trkpt lat="49.37751" lon="-1.59607">
        <ele>4</ele>
        <time>2021-11-25T15:42:46Z</time>
      </trkpt>
      <trkpt lat="49.37754" lon="-1.596">
        <ele>3.4</ele>
        <time>2021-11-25T15:42:52Z</time>
      </trkpt>
      <trkpt lat="49.37757" lon="-1.59594">
        <ele>2.4</ele>
        <time>2021-11-25T15:42:56Z</time>
      </trkpt>
      <trkpt lat="49.37758" lon="-1.59585">
        <ele>1.5</ele>
        <time>2021-11-25T15:43:00Z</time>
      </trkpt>
      <trkpt lat="49.3776" lon="-1.59577">
        <ele>0.4</ele>
        <time>2021-11-25T15:43:04Z</time>
      </trkpt>
      <trkpt lat="49.37762" lon="-1.59571">
        <ele>-1.1</ele>
        <time>2021-11-25T15:43:08Z</time>
      </trkpt>
      <trkpt lat="49.37764" lon="-1.59565">
        <ele>-2.1</ele>
        <time>2021-11-25T15:43:12Z</time>
      </trkpt>
      <trkpt lat="49.37764" lon="-1.59558">
        <ele>-3.3</ele>
        <time>2021-11-25T15:43:16Z</time>
      </trkpt>
      <trkpt lat="49.37764" lon="-1.59549">
        <ele>-4.9</ele>
        <time>2021-11-25T15:43:20Z</time>
      </trkpt>
      <trkpt lat="49.37765" lon="-1.59541">
        <ele>-5.5</ele>
        <time>2021-11-25T15:43:24Z</time>
      </trkpt>
      <trkpt lat="49.3777" lon="-1.59534">
        <ele>-5.6</ele>
        <time>2021-11-25T15:43:28Z</time>
      </trkpt>
      <trkpt lat="49.37772" lon="-1.59527">
        <ele>-5.1</ele>
        <time>2021-11-25T15:43:32Z</time>
      </trkpt>
      <trkpt lat="49.37773" lon="-1.59518">
        <ele>-4</ele>
        <time>2021-11-25T15:43:37Z</time>
      </trkpt>
      <trkpt lat="49.37776" lon="-1.5951">
        <ele>-2.7</ele>
        <time>2021-11-25T15:43:42Z</time>
      </trkpt>
      <trkpt lat="49.37779" lon="-1.59501">
        <ele>-1.4</ele>
        <time>2021-11-25T15:43:48Z</time>
      </trkpt>
      <trkpt lat="49.3778" lon="-1.59493">
        <ele>-0.5</ele>
        <time>2021-11-25T15:43:53Z</time>
      </trkpt>
      <trkpt lat="49.37779" lon="-1.59485">
        <ele>-0.5</ele>
        <time>2021-11-25T15:43:58Z</time>
      </trkpt>
      <trkpt lat="49.37779" lon="-1.59477">
        <ele>-0.7</ele>
        <time>2021-11-25T15:44:02Z</time>
      </trkpt>
      <trkpt lat="49.3778" lon="-1.59466">
        <ele>-1</ele>
        <time>2021-11-25T15:44:07Z</time>
      </trkpt>
      <trkpt lat="49.37779" lon="-1.59456">
        <ele>-0.9</ele>
        <time>2021-11-25T15:44:12Z</time>
      </trkpt>
      <trkpt lat="49.3778" lon="-1.59449">
        <ele>-0.9</ele>
        <time>2021-11-25T15:44:16Z</time>
      </trkpt>
      <trkpt lat="49.37781" lon="-1.5944">
        <ele>-1.1</ele>
        <time>2021-11-25T15:44:22Z</time>
      </trkpt>
      <trkpt lat="49.37782" lon="-1.59431">
        <ele>-1.2</ele>
        <time>2021-11-25T15:44:26Z</time>
      </trkpt>
      <trkpt lat="49.37784" lon="-1.59423">
        <ele>-1.3</ele>
        <time>2021-11-25T15:44:30Z</time>
      </trkpt>
      <trkpt lat="49.37786" lon="-1.59415">
        <ele>-1.2</ele>
        <time>2021-11-25T15:44:36Z</time>
      </trkpt>
      <trkpt lat="49.37788" lon="-1.59407">
        <ele>-1</ele>
        <time>2021-11-25T15:44:41Z</time>
      </trkpt>
      <trkpt lat="49.37788" lon="-1.59397">
        <ele>-1</ele>
        <time>2021-11-25T15:44:46Z</time>
      </trkpt>
      <trkpt lat="49.37791" lon="-1.59388">
        <ele>-1</ele>
        <time>2021-11-25T15:44:52Z</time>
      </trkpt>
      <trkpt lat="49.37793" lon="-1.59379">
        <ele>-1.1</ele>
        <time>2021-11-25T15:44:56Z</time>
      </trkpt>
      <trkpt lat="49.37796" lon="-1.5937">
        <ele>-1.1</ele>
        <time>2021-11-25T15:45:01Z</time>
      </trkpt>
      <trkpt lat="49.37798" lon="-1.59363">
        <ele>-1.1</ele>
        <time>2021-11-25T15:45:06Z</time>
      </trkpt>
      <trkpt lat="49.37798" lon="-1.59356">
        <ele>-1.1</ele>
        <time>2021-11-25T15:45:11Z</time>
      </trkpt>
      <trkpt lat="49.37795" lon="-1.59348">
        <ele>-1.1</ele>
        <time>2021-11-25T15:45:16Z</time>
      </trkpt>
      <trkpt lat="49.37788" lon="-1.59346">
        <ele>-1.1</ele>
        <time>2021-11-25T15:45:22Z</time>
      </trkpt>
      <trkpt lat="49.37784" lon="-1.59345">
        <ele>-1.1</ele>
        <time>2021-11-25T15:45:26Z</time>
      </trkpt>
      <trkpt lat="49.37779" lon="-1.59343">
        <ele>-1.1</ele>
        <time>2021-11-25T15:45:31Z</time>
      </trkpt>
      <trkpt lat="49.37774" lon="-1.59346">
        <ele>51.9</ele>
        <time>2021-11-25T15:45:37Z</time>
      </trkpt>
      <trkpt lat="49.37769" lon="-1.59349">
        <ele>-0.2</ele>
        <time>2021-11-25T15:45:43Z</time>
      </trkpt>
      <trkpt lat="49.37764" lon="-1.59348">
        <ele>-1.9</ele>
        <time>2021-11-25T15:45:48Z</time>
      </trkpt>
      <trkpt lat="49.37759" lon="-1.59348">
        <ele>-3.3</ele>
        <time>2021-11-25T15:45:52Z</time>
      </trkpt>
      <trkpt lat="49.37755" lon="-1.59348">
        <ele>-4.3</ele>
        <time>2021-11-25T15:45:57Z</time>
      </trkpt>
      <trkpt lat="49.37749" lon="-1.59345">
        <ele>-4.3</ele>
        <time>2021-11-25T15:46:02Z</time>
      </trkpt>
      <trkpt lat="49.37743" lon="-1.59343">
        <ele>-4.1</ele>
        <time>2021-11-25T15:46:06Z</time>
      </trkpt>
      <trkpt lat="49.37737" lon="-1.59343">
        <ele>-3.3</ele>
        <time>2021-11-25T15:46:10Z</time>
      </trkpt>
      <trkpt lat="49.3773" lon="-1.59346">
        <ele>-2</ele>
        <time>2021-11-25T15:46:14Z</time>
      </trkpt>
      <trkpt lat="49.37725" lon="-1.59346">
        <ele>-0.1</ele>
        <time>2021-11-25T15:46:18Z</time>
      </trkpt>
      <trkpt lat="49.3772" lon="-1.59347">
        <ele>1.1</ele>
        <time>2021-11-25T15:46:23Z</time>
      </trkpt>
      <trkpt lat="49.37715" lon="-1.59352">
        <ele>2.4</ele>
        <time>2021-11-25T15:46:30Z</time>
      </trkpt>
      <trkpt lat="49.37709" lon="-1.59352">
        <ele>3.4</ele>
        <time>2021-11-25T15:46:34Z</time>
      </trkpt>
      <trkpt lat="49.37704" lon="-1.59351">
        <ele>4.6</ele>
        <time>2021-11-25T15:46:38Z</time>
      </trkpt>
      <trkpt lat="49.37699" lon="-1.5935">
        <ele>6.2</ele>
        <time>2021-11-25T15:46:43Z</time>
      </trkpt>
      <trkpt lat="49.37693" lon="-1.59349">
        <ele>6.8</ele>
        <time>2021-11-25T15:46:48Z</time>
      </trkpt>
      <trkpt lat="49.37687" lon="-1.59349">
        <ele>6.9</ele>
        <time>2021-11-25T15:46:52Z</time>
      </trkpt>
      <trkpt lat="49.37682" lon="-1.59348">
        <ele>6.8</ele>
        <time>2021-11-25T15:46:56Z</time>
      </trkpt>
      <trkpt lat="49.37677" lon="-1.59347">
        <ele>6.7</ele>
        <time>2021-11-25T15:47:00Z</time>
      </trkpt>
      <trkpt lat="49.37672" lon="-1.59348">
        <ele>6.6</ele>
        <time>2021-11-25T15:47:04Z</time>
      </trkpt>
      <trkpt lat="49.37666" lon="-1.59349">
        <ele>6.6</ele>
        <time>2021-11-25T15:47:10Z</time>
      </trkpt>
      <trkpt lat="49.37661" lon="-1.5935">
        <ele>6.6</ele>
        <time>2021-11-25T15:47:14Z</time>
      </trkpt>
      <trkpt lat="49.37654" lon="-1.59352">
        <ele>6.6</ele>
        <time>2021-11-25T15:47:18Z</time>
      </trkpt>
      <trkpt lat="49.37647" lon="-1.59355">
        <ele>6.6</ele>
        <time>2021-11-25T15:47:22Z</time>
      </trkpt>
      <trkpt lat="49.37642" lon="-1.59355">
        <ele>6.6</ele>
        <time>2021-11-25T15:47:25Z</time>
      </trkpt>
      <trkpt lat="49.37637" lon="-1.59354">
        <ele>6.6</ele>
        <time>2021-11-25T15:47:28Z</time>
      </trkpt>
      <trkpt lat="49.37632" lon="-1.59354">
        <ele>6.6</ele>
        <time>2021-11-25T15:47:32Z</time>
      </trkpt>
      <trkpt lat="49.37627" lon="-1.59354">
        <ele>6.6</ele>
        <time>2021-11-25T15:47:35Z</time>
      </trkpt>
      <trkpt lat="49.3762" lon="-1.59356">
        <ele>6.6</ele>
        <time>2021-11-25T15:47:40Z</time>
      </trkpt>
      <trkpt lat="49.37616" lon="-1.59362">
        <ele>6.6</ele>
        <time>2021-11-25T15:47:46Z</time>
      </trkpt>
      <trkpt lat="49.37613" lon="-1.5937">
        <ele>7.2</ele>
        <time>2021-11-25T15:47:52Z</time>
      </trkpt>
      <trkpt lat="49.3761" lon="-1.59375">
        <ele>5.9</ele>
        <time>2021-11-25T15:47:56Z</time>
      </trkpt>
      <trkpt lat="49.37605" lon="-1.59382">
        <ele>6.5</ele>
        <time>2021-11-25T15:48:02Z</time>
      </trkpt>
      <trkpt lat="49.376" lon="-1.59381">
        <ele>4.9</ele>
        <time>2021-11-25T15:48:07Z</time>
      </trkpt>
      <trkpt lat="49.37601" lon="-1.59373">
        <ele>3.6</ele>
        <time>2021-11-25T15:48:23Z</time>
      </trkpt>
      <trkpt lat="49.37605" lon="-1.59367">
        <ele>5.7</ele>
        <time>2021-11-25T15:48:30Z</time>
      </trkpt>
      <trkpt lat="49.37606" lon="-1.5936">
        <ele>5.4</ele>
        <time>2021-11-25T15:48:38Z</time>
      </trkpt>
      <trkpt lat="49.37609" lon="-1.59354">
        <ele>6.7</ele>
        <time>2021-11-25T15:48:42Z</time>
      </trkpt>
      <trkpt lat="49.37608" lon="-1.59361">
        <ele>3.4</ele>
        <time>2021-11-25T15:48:54Z</time>
      </trkpt>
      <trkpt lat="49.37605" lon="-1.59369">
        <ele>2.5</ele>
        <time>2021-11-25T15:48:58Z</time>
      </trkpt>
      <trkpt lat="49.37603" lon="-1.59376">
        <ele>2.4</ele>
        <time>2021-11-25T15:49:04Z</time>
      </trkpt>
      <trkpt lat="49.37605" lon="-1.59369">
        <ele>3.6</ele>
        <time>2021-11-25T15:49:18Z</time>
      </trkpt>
      <trkpt lat="49.37609" lon="-1.59364">
        <ele>6.9</ele>
        <time>2021-11-25T15:49:26Z</time>
      </trkpt>
      <trkpt lat="49.37613" lon="-1.59358">
        <ele>10.1</ele>
        <time>2021-11-25T15:49:32Z</time>
      </trkpt>
      <trkpt lat="49.37612" lon="-1.59366">
        <ele>8.6</ele>
        <time>2021-11-25T15:49:41Z</time>
      </trkpt>
      <trkpt lat="49.37607" lon="-1.5937">
        <ele>8.2</ele>
        <time>2021-11-25T15:49:44Z</time>
      </trkpt>
      <trkpt lat="49.37604" lon="-1.59376">
        <ele>8.3</ele>
        <time>2021-11-25T15:49:48Z</time>
      </trkpt>
      <trkpt lat="49.37608" lon="-1.59371">
        <ele>6.6</ele>
        <time>2021-11-25T15:50:08Z</time>
      </trkpt>
      <trkpt lat="49.37612" lon="-1.59368">
        <ele>6.9</ele>
        <time>2021-11-25T15:50:12Z</time>
      </trkpt>
      <trkpt lat="49.37607" lon="-1.59371">
        <ele>4.7</ele>
        <time>2021-11-25T15:50:34Z</time>
      </trkpt>
      <trkpt lat="49.376" lon="-1.5937">
        <ele>4.4</ele>
        <time>2021-11-25T15:51:46Z</time>
      </trkpt>
    </trkseg>
  </trk>
</gpx>